Darstellungsparameter: Aktuell verwendete Einstellungen:
Skalierung der Graphiken ... ?
xyx+y,   Skalierungsfaktor:      Skalierung: Modus: x, Faktor: 1
Darstellungszeitraum ... ?
Vom - - bis: - -   Zeitraum: 04.02.2015 - 03.05.2015
Min/Max/Avg-Anzeige ... ?
Zeige MMA aktuell
Zeige MMA Monat
Zeige MMA alles
Zeige --A aktuell
Zeige --A Monat
Zeige --A alles
Keine MMA-Anzeige
MMA:
Minimum Maximum Average (ber die Originaldaten)
MMA-Basis: 23.02.2003 - 16.05.2020
Quicknavigation für Darstellung... ?
Tage:      1T, 2T, 3T, 5T -1T -2T -3T -5T +1T +2T +3T +5T
Wochen: 1W, 2W, 3W -1W -2W -3W +1W +2W +3W
Monate: 1M, 3M, 6M -1M -3M -6M +1M +3M +6M
Jahre:    1J, 3J, 5J, 10J -1J -3J -5J -10J +1J +3J +5J +10J
Nutze für die Darstellung ... ?
Originaldaten oder Mittelwerte auf ...
Stundenbasis Tagesbasis Wochenbasis
Monatsbasis Jahresbasis      Datenbasis: Original-Daten
Darstellen als:
Statistik (Auto) Statistik J:M      Darstellung:
Zur Graphik,    zurück zur Übersicht aller Sensoren.
 
Tabellarische Datenbersicht: ?
 
Sensor: Nr:Datum:Temp:Abs-Feuchte:Windchill:Wind:
Aussen-T/F 1 04-02-2015 00:00:00 -0.7 C 4.43 g/m*3 -0.7 C 0 km/h
2 04-02-2015 00:05:00 -0.6 C 4.46 g/m*3 -0.6 C 1.6 km/h
3 04-02-2015 00:10:00 -0.4 C 4.52 g/m*3 -0.4 C 0 km/h
4 04-02-2015 00:15:00 -0.4 C 4.52 g/m*3 -0.4 C 0 km/h
5 04-02-2015 00:20:00 -0.3 C 4.56 g/m*3 -0.3 C 0 km/h
6 04-02-2015 00:25:00 -0.3 C 4.56 g/m*3 -0.3 C 0 km/h
7 04-02-2015 00:30:00 -0.3 C 4.56 g/m*3 -0.3 C 0 km/h
8 04-02-2015 00:35:00 -0.3 C 4.56 g/m*3 -0.3 C 0 km/h
9 04-02-2015 00:40:00 -0.3 C 4.56 g/m*3 -0.3 C 0 km/h
10 04-02-2015 00:45:00 -0.4 C 4.52 g/m*3 -0.4 C 0 km/h
11 04-02-2015 00:50:00 -0.4 C 4.52 g/m*3 -0.4 C 0 km/h
12 04-02-2015 00:55:00 -0.4 C 4.52 g/m*3 -0.4 C 1.6 km/h
13 04-02-2015 01:00:00 -0.4 C 4.52 g/m*3 -0.4 C 1.6 km/h
14 04-02-2015 01:05:00 -0.3 C 4.56 g/m*3 -0.3 C 1.6 km/h
15 04-02-2015 01:10:00 -0.2 C 4.64 g/m*3 -0.2 C 0 km/h
16 04-02-2015 01:15:00 -0.2 C 4.59 g/m*3 -0.2 C 0 km/h
17 04-02-2015 01:20:00 -0.2 C 4.59 g/m*3 -0.2 C 1.6 km/h
18 04-02-2015 01:25:00 -0.1 C 4.62 g/m*3 -0.1 C 3.2 km/h
19 04-02-2015 01:30:00 0 C 4.7 g/m*3 0 C 1.6 km/h
20 04-02-2015 01:35:00 0 C 4.7 g/m*3 0 C 4.8 km/h
21 04-02-2015 01:40:00 0.1 C 4.73 g/m*3 0.1 C 1.6 km/h
22 04-02-2015 01:45:00 0.1 C 4.73 g/m*3 0.1 C 3.2 km/h
23 04-02-2015 01:50:00 0.1 C 4.73 g/m*3 0.1 C 0 km/h
24 04-02-2015 01:55:00 0.1 C 4.73 g/m*3 0.1 C 1.6 km/h
25 04-02-2015 02:00:00 0.2 C 4.72 g/m*3 0.2 C 0 km/h
Sensor: Nr:Datum:Temp:Abs-Feuchte:Windchill:Wind:
Aussen-T/F 26 04-02-2015 02:05:00 0.2 C 4.77 g/m*3 0.2 C 0 km/h
27 04-02-2015 02:10:00 0.3 C 4.8 g/m*3 0.3 C 0 km/h
28 04-02-2015 02:15:00 0.3 C 4.8 g/m*3 0.3 C 0 km/h
29 04-02-2015 02:20:00 0.3 C 4.8 g/m*3 0.3 C 0 km/h
30 04-02-2015 02:25:00 0.4 C 4.83 g/m*3 0.4 C 1.6 km/h
31 04-02-2015 02:30:00 0.4 C 4.83 g/m*3 0.4 C 3.2 km/h
32 04-02-2015 02:35:00 0.4 C 4.83 g/m*3 0.4 C 3.2 km/h
33 04-02-2015 02:40:00 0.4 C 4.78 g/m*3 0.4 C 3.2 km/h
34 04-02-2015 02:45:00 0.3 C 4.75 g/m*3 0.3 C 1.6 km/h
35 04-02-2015 02:50:00 0.3 C 4.75 g/m*3 0.3 C 0 km/h
36 04-02-2015 02:55:00 0.3 C 4.75 g/m*3 0.3 C 0 km/h
37 04-02-2015 03:00:00 0.2 C 4.72 g/m*3 0.2 C 0 km/h
38 04-02-2015 03:05:00 0.2 C 4.72 g/m*3 0.2 C 0 km/h
39 04-02-2015 03:10:00 0.2 C 4.72 g/m*3 0.2 C 3.2 km/h
40 04-02-2015 03:15:00 0.2 C 4.72 g/m*3 0.2 C 0 km/h
41 04-02-2015 03:20:00 0.2 C 4.72 g/m*3 0.2 C 3.2 km/h
42 04-02-2015 03:25:00 0.3 C 4.75 g/m*3 0.3 C 0 km/h
43 04-02-2015 03:30:00 0.3 C 4.75 g/m*3 0.3 C 0 km/h
44 04-02-2015 03:35:00 0.3 C 4.75 g/m*3 0.3 C 3.2 km/h
45 04-02-2015 03:40:00 0.3 C 4.75 g/m*3 0.3 C 3.2 km/h
46 04-02-2015 03:45:00 0.3 C 4.75 g/m*3 0.3 C 0 km/h
47 04-02-2015 03:50:00 0.3 C 4.75 g/m*3 0.3 C 0 km/h
48 04-02-2015 03:55:00 0.3 C 4.7 g/m*3 0.3 C 3.2 km/h
49 04-02-2015 04:00:00 0.3 C 4.7 g/m*3 -2.42 C 8.1 km/h
50 04-02-2015 04:05:00 0.3 C 4.65 g/m*3 -2.88 C 9.7 km/h
Sensor: Nr:Datum:Temp:Abs-Feuchte:Windchill:Wind:
Aussen-T/F 51 04-02-2015 04:10:00 0.4 C 4.68 g/m*3 0.4 C 4.8 km/h
52 04-02-2015 04:15:00 0.5 C 4.66 g/m*3 0.5 C 1.6 km/h
53 04-02-2015 04:20:00 0.5 C 4.66 g/m*3 0.5 C 4.8 km/h
54 04-02-2015 04:25:00 0.5 C 4.66 g/m*3 0.5 C 1.6 km/h
55 04-02-2015 04:30:00 0.6 C 4.65 g/m*3 0.6 C 0 km/h
56 04-02-2015 04:35:00 0.5 C 4.61 g/m*3 0.5 C 4.8 km/h
57 04-02-2015 04:40:00 0.5 C 4.61 g/m*3 0.5 C 1.6 km/h
58 04-02-2015 04:45:00 0.5 C 4.61 g/m*3 0.5 C 1.6 km/h
59 04-02-2015 04:50:00 0.5 C 4.61 g/m*3 -2.18 C 8.1 km/h
60 04-02-2015 04:55:00 0.5 C 4.56 g/m*3 0.5 C 1.6 km/h
61 04-02-2015 05:00:00 0.5 C 4.56 g/m*3 0.5 C 4.8 km/h
62 04-02-2015 05:05:00 0.5 C 4.56 g/m*3 0.5 C 1.6 km/h
63 04-02-2015 05:10:00 0.5 C 4.56 g/m*3 0.5 C 1.6 km/h
64 04-02-2015 05:15:00 0.5 C 4.56 g/m*3 0.5 C 1.6 km/h
65 04-02-2015 05:20:00 0.5 C 4.56 g/m*3 0.5 C 3.2 km/h
66 04-02-2015 05:25:00 0.5 C 4.56 g/m*3 -1.6 C 6.4 km/h
67 04-02-2015 05:30:00 0.5 C 4.51 g/m*3 0.5 C 4.8 km/h
68 04-02-2015 05:35:00 0.5 C 4.51 g/m*3 -1.6 C 6.4 km/h
69 04-02-2015 05:40:00 0.5 C 4.51 g/m*3 -1.6 C 6.4 km/h
70 04-02-2015 05:45:00 0.5 C 4.51 g/m*3 0.5 C 3.2 km/h
71 04-02-2015 05:50:00 0.5 C 4.51 g/m*3 0.5 C 4.8 km/h
72 04-02-2015 05:55:00 0.5 C 4.51 g/m*3 0.5 C 0 km/h
73 04-02-2015 06:00:00 0.5 C 4.51 g/m*3 0.5 C 4.8 km/h
74 04-02-2015 06:05:00 0.4 C 4.43 g/m*3 -2.3 C 8.1 km/h
75 04-02-2015 06:10:00 0.4 C 4.43 g/m*3 -2.3 C 8.1 km/h
Sensor: Nr:Datum:Temp:Abs-Feuchte:Windchill:Wind:
Aussen-T/F 76 04-02-2015 06:15:00 0.3 C 4.4 g/m*3 -1.84 C 6.4 km/h
77 04-02-2015 06:20:00 0.3 C 4.35 g/m*3 -1.84 C 6.4 km/h
78 04-02-2015 06:25:00 0.2 C 4.32 g/m*3 -1.95 C 6.4 km/h
79 04-02-2015 06:30:00 0.2 C 4.32 g/m*3 0.2 C 4.8 km/h
80 04-02-2015 06:35:00 0.1 C 4.29 g/m*3 0.1 C 3.2 km/h
81 04-02-2015 06:40:00 0 C 4.26 g/m*3 0 C 0 km/h
82 04-02-2015 06:45:00 -0.2 C 4.21 g/m*3 -0.2 C 0 km/h
83 04-02-2015 06:50:00 -0.4 C 4.15 g/m*3 -0.4 C 1.6 km/h
84 04-02-2015 06:55:00 -0.6 C 4.14 g/m*3 -0.6 C 0 km/h
85 04-02-2015 07:00:00 -0.7 C 4.15 g/m*3 -0.7 C 0 km/h
86 04-02-2015 07:05:00 -0.7 C 4.2 g/m*3 -0.7 C 0 km/h
87 04-02-2015 07:10:00 -0.6 C 4.23 g/m*3 -0.6 C 1.6 km/h
88 04-02-2015 07:15:00 -0.6 C 4.18 g/m*3 -0.6 C 3.2 km/h
89 04-02-2015 07:20:00 -0.5 C 4.21 g/m*3 -2.76 C 6.4 km/h
90 04-02-2015 07:25:00 -0.4 C 4.24 g/m*3 -0.4 C 1.6 km/h
91 04-02-2015 07:30:00 -0.4 C 4.19 g/m*3 -0.4 C 3.2 km/h
92 04-02-2015 07:35:00 -0.4 C 4.15 g/m*3 -0.4 C 3.2 km/h
93 04-02-2015 07:40:00 -0.5 C 4.12 g/m*3 -0.5 C 1.6 km/h
94 04-02-2015 07:45:00 -0.6 C 4.09 g/m*3 -0.6 C 3.2 km/h
95 04-02-2015 07:50:00 -0.7 C 4.06 g/m*3 -0.7 C 1.6 km/h
96 04-02-2015 07:55:00 -0.7 C 4.06 g/m*3 -0.7 C 0 km/h
97 04-02-2015 08:00:00 -0.7 C 4.06 g/m*3 -0.7 C 1.6 km/h
98 04-02-2015 08:05:00 -0.7 C 4.06 g/m*3 -0.7 C 0 km/h
99 04-02-2015 08:10:00 -0.7 C 4.06 g/m*3 -0.7 C 1.6 km/h
100 04-02-2015 10:15:00 -0.7 C 4.06 g/m*3 -4.48 C 11.3 km/h
Sensor: Nr:Datum:Temp:Abs-Feuchte:Windchill:Wind:
Aussen-T/F 101 04-02-2015 10:20:00 -0.4 C 4.1 g/m*3 -4.12 C 11.3 km/h
102 04-02-2015 10:25:00 -0.3 C 4.13 g/m*3 -4.99 C 16.1 km/h
103 04-02-2015 10:30:00 -0.1 C 4.04 g/m*3 -4.74 C 16.1 km/h
104 04-02-2015 10:35:00 0.1 C 4.05 g/m*3 -4.2 C 14.5 km/h
105 04-02-2015 10:40:00 0.2 C 4.03 g/m*3 -4.37 C 16.1 km/h
106 04-02-2015 10:45:00 0.3 C 4.01 g/m*3 -4.51 C 17.7 km/h
107 04-02-2015 10:50:00 0.3 C 4.01 g/m*3 -4.24 C 16.1 km/h
108 04-02-2015 10:55:00 0.3 C 3.96 g/m*3 -3.28 C 11.3 km/h
109 04-02-2015 11:00:00 0.3 C 3.91 g/m*3 -3.95 C 14.5 km/h
110 04-02-2015 11:05:00 0.4 C 3.93 g/m*3 -2.3 C 8.1 km/h
111 04-02-2015 11:10:00 0.4 C 3.88 g/m*3 -3.83 C 14.5 km/h
112 04-02-2015 11:15:00 0.4 C 3.88 g/m*3 -2.76 C 9.7 km/h
113 04-02-2015 11:20:00 0.4 C 3.88 g/m*3 -4.39 C 17.7 km/h
114 04-02-2015 11:25:00 0.4 C 3.88 g/m*3 -3.83 C 14.5 km/h
115 04-02-2015 11:30:00 0.5 C 3.91 g/m*3 -3.39 C 12.9 km/h
116 04-02-2015 11:35:00 0.6 C 3.89 g/m*3 -2.92 C 11.3 km/h
117 04-02-2015 11:40:00 0.6 C 3.94 g/m*3 -3.27 C 12.9 km/h
118 04-02-2015 11:45:00 0.7 C 3.97 g/m*3 -2.4 C 9.7 km/h
119 04-02-2015 11:50:00 0.7 C 3.92 g/m*3 -2.8 C 11.3 km/h
120 04-02-2015 11:55:00 0.7 C 3.97 g/m*3 -2.8 C 11.3 km/h
121 04-02-2015 12:00:00 0.7 C 3.92 g/m*3 -3.46 C 14.5 km/h
122 04-02-2015 12:05:00 0.7 C 3.92 g/m*3 -2.8 C 11.3 km/h
123 04-02-2015 12:10:00 0.7 C 3.92 g/m*3 -3.15 C 12.9 km/h
124 04-02-2015 12:15:00 0.8 C 3.89 g/m*3 -3.62 C 16.1 km/h
125 04-02-2015 12:20:00 0.8 C 3.84 g/m*3 -2.28 C 9.7 km/h
Sensor: Nr:Datum:Temp:Abs-Feuchte:Windchill:Wind:
Aussen-T/F 126 04-02-2015 12:25:00 0.9 C 3.92 g/m*3 -3.5 C 16.1 km/h
127 04-02-2015 12:30:00 1 C 3.94 g/m*3 -4.11 C 20.9 km/h
128 04-02-2015 12:35:00 1.1 C 3.97 g/m*3 -1.92 C 9.7 km/h
129 04-02-2015 12:40:00 1.2 C 3.95 g/m*3 -1.8 C 9.7 km/h
130 04-02-2015 12:45:00 1.2 C 3.95 g/m*3 -1.8 C 9.7 km/h
131 04-02-2015 12:50:00 1.1 C 3.92 g/m*3 -1.48 C 8.1 km/h
132 04-02-2015 12:55:00 1.1 C 3.92 g/m*3 -1.92 C 9.7 km/h
133 04-02-2015 13:00:00 1.1 C 3.97 g/m*3 -1.92 C 9.7 km/h
134 04-02-2015 13:05:00 1.2 C 3.95 g/m*3 -1.36 C 8.1 km/h
135 04-02-2015 13:10:00 1.2 C 4 g/m*3 -2.19 C 11.3 km/h
136 04-02-2015 13:15:00 1.3 C 4.03 g/m*3 -3 C 16.1 km/h
137 04-02-2015 13:20:00 1.3 C 3.97 g/m*3 -0.68 C 6.4 km/h
138 04-02-2015 13:25:00 1.3 C 3.97 g/m*3 1.3 C 4.8 km/h
139 04-02-2015 13:30:00 1.4 C 4 g/m*3 -1.95 C 11.3 km/h
140 04-02-2015 13:35:00 1.5 C 4.03 g/m*3 -0.45 C 6.4 km/h
141 04-02-2015 13:40:00 1.6 C 4 g/m*3 1.6 C 4.8 km/h
142 04-02-2015 13:45:00 1.6 C 4.06 g/m*3 -2.35 C 14.5 km/h
143 04-02-2015 13:50:00 1.7 C 4.08 g/m*3 -1.21 C 9.7 km/h
144 04-02-2015 13:55:00 1.8 C 4.11 g/m*3 -1.47 C 11.3 km/h
145 04-02-2015 14:00:00 1.9 C 4.03 g/m*3 -0.97 C 9.7 km/h
146 04-02-2015 14:05:00 1.9 C 4.08 g/m*3 1.9 C 4.8 km/h
147 04-02-2015 14:10:00 1.9 C 4.03 g/m*3 1.9 C 4.8 km/h
148 04-02-2015 14:15:00 2.1 C 4.2 g/m*3 -0.73 C 9.7 km/h
149 04-02-2015 14:20:00 2.3 C 4.2 g/m*3 -0.87 C 11.3 km/h
150 04-02-2015 14:25:00 2.4 C 4.17 g/m*3 -0.37 C 9.7 km/h
Sensor: Nr:Datum:Temp:Abs-Feuchte:Windchill:Wind:
Aussen-T/F 151 04-02-2015 14:30:00 2.4 C 4.23 g/m*3 0.59 C 6.4 km/h
152 04-02-2015 14:35:00 2.6 C 4.34 g/m*3 -0.14 C 9.7 km/h
153 04-02-2015 14:40:00 2.7 C 4.31 g/m*3 -0.02 C 9.7 km/h
154 04-02-2015 14:45:00 2.7 C 4.25 g/m*3 0.4 C 8.1 km/h
155 04-02-2015 14:50:00 2.7 C 4.25 g/m*3 0.4 C 8.1 km/h
156 04-02-2015 14:55:00 2.8 C 4.28 g/m*3 0.52 C 8.1 km/h
157 04-02-2015 15:00:00 3 C 4.28 g/m*3 0.76 C 8.1 km/h
158 04-02-2015 15:05:00 3.2 C 4.28 g/m*3 0.99 C 8.1 km/h
159 04-02-2015 15:10:00 3.4 C 4.28 g/m*3 1.75 C 6.4 km/h
160 04-02-2015 15:15:00 3.4 C 4.28 g/m*3 0.46 C 11.3 km/h
161 04-02-2015 15:20:00 3.4 C 4.28 g/m*3 0.82 C 9.7 km/h
162 04-02-2015 15:25:00 3.4 C 4.28 g/m*3 0.14 C 12.9 km/h
163 04-02-2015 15:30:00 3.3 C 4.19 g/m*3 1.11 C 8.1 km/h
164 04-02-2015 15:35:00 3.2 C 4.22 g/m*3 0.99 C 8.1 km/h
165 04-02-2015 15:40:00 3.1 C 4.25 g/m*3 1.4 C 6.4 km/h
166 04-02-2015 15:45:00 2.9 C 4.25 g/m*3 0.22 C 9.7 km/h
167 04-02-2015 15:50:00 2.8 C 4.28 g/m*3 -0.26 C 11.3 km/h
168 04-02-2015 15:55:00 2.7 C 4.25 g/m*3 -0.02 C 9.7 km/h
169 04-02-2015 16:00:00 2.6 C 4.22 g/m*3 -0.5 C 11.3 km/h
170 04-02-2015 16:05:00 2.5 C 4.2 g/m*3 -0.95 C 12.9 km/h
171 04-02-2015 16:10:00 2.4 C 4.17 g/m*3 -0.37 C 9.7 km/h
172 04-02-2015 16:15:00 2.3 C 4.2 g/m*3 -0.07 C 8.1 km/h
173 04-02-2015 16:20:00 2.2 C 4.17 g/m*3 -0.61 C 9.7 km/h
174 04-02-2015 16:25:00 2.2 C 4.17 g/m*3 -0.61 C 9.7 km/h
175 04-02-2015 16:30:00 2.2 C 4.22 g/m*3 2.2 C 4.8 km/h
Sensor: Nr:Datum:Temp:Abs-Feuchte:Windchill:Wind:
Aussen-T/F 176 04-02-2015 16:35:00 2.1 C 4.2 g/m*3 2.1 C 4.8 km/h
177 04-02-2015 16:40:00 2 C 4.22 g/m*3 -0.85 C 9.7 km/h
178 04-02-2015 16:45:00 1.9 C 4.19 g/m*3 0.01 C 6.4 km/h
179 04-02-2015 16:50:00 1.8 C 4.22 g/m*3 1.8 C 4.8 km/h
180 04-02-2015 16:55:00 1.7 C 4.19 g/m*3 1.7 C 4.8 km/h
181 04-02-2015 17:00:00 1.6 C 4.16 g/m*3 1.6 C 0 km/h
182 04-02-2015 17:05:00 1.3 C 4.19 g/m*3 1.3 C 1.6 km/h
183 04-02-2015 17:10:00 1 C 4.2 g/m*3 1 C 0 km/h
184 04-02-2015 17:15:00 0.7 C 4.22 g/m*3 0.7 C 0 km/h
185 04-02-2015 17:20:00 0.5 C 4.21 g/m*3 0.5 C 0 km/h
186 04-02-2015 17:25:00 0.3 C 4.16 g/m*3 0.3 C 0 km/h
187 04-02-2015 17:30:00 0.2 C 4.18 g/m*3 0.2 C 3.2 km/h
188 04-02-2015 17:35:00 0.1 C 4.2 g/m*3 0.1 C 1.6 km/h
189 04-02-2015 17:40:00 0 C 4.17 g/m*3 0 C 0 km/h
190 04-02-2015 17:45:00 -0.1 C 4.14 g/m*3 -0.1 C 3.2 km/h
191 04-02-2015 17:50:00 -0.1 C 4.19 g/m*3 -0.1 C 1.6 km/h
192 04-02-2015 17:55:00 -0.2 C 4.16 g/m*3 -0.2 C 4.8 km/h
193 04-02-2015 18:00:00 -0.2 C 4.16 g/m*3 -0.2 C 4.8 km/h
194 04-02-2015 18:05:00 -0.2 C 4.16 g/m*3 -0.2 C 4.8 km/h
195 04-02-2015 18:10:00 -0.3 C 4.13 g/m*3 -0.3 C 4.8 km/h
196 04-02-2015 18:15:00 -0.3 C 4.18 g/m*3 -0.3 C 4.8 km/h
197 04-02-2015 18:20:00 -0.3 C 4.18 g/m*3 -0.3 C 4.8 km/h
198 04-02-2015 18:25:00 -0.4 C 4.15 g/m*3 -0.4 C 4.8 km/h
199 04-02-2015 18:30:00 -0.4 C 4.15 g/m*3 -0.4 C 4.8 km/h
200 04-02-2015 18:35:00 -0.5 C 4.12 g/m*3 -0.5 C 4.8 km/h
Sensor: Nr:Datum:Temp:Abs-Feuchte:Windchill:Wind:
Aussen-T/F 201 04-02-2015 18:40:00 -0.6 C 4.09 g/m*3 -0.6 C 3.2 km/h
202 04-02-2015 18:45:00 -0.6 C 4.09 g/m*3 -0.6 C 4.8 km/h
203 04-02-2015 18:50:00 -0.6 C 4.09 g/m*3 -0.6 C 3.2 km/h
204 04-02-2015 18:55:00 -0.7 C 4.06 g/m*3 -0.7 C 3.2 km/h
205 04-02-2015 19:00:00 -0.7 C 4.11 g/m*3 -0.7 C 3.2 km/h
206 04-02-2015 19:05:00 -0.8 C 4.08 g/m*3 -0.8 C 3.2 km/h
207 04-02-2015 19:10:00 -0.9 C 4.05 g/m*3 -0.9 C 3.2 km/h
208 04-02-2015 19:15:00 -1 C 4.07 g/m*3 -1 C 3.2 km/h
209 04-02-2015 19:20:00 -1.1 C 4.09 g/m*3 -1.1 C 0 km/h
210 04-02-2015 19:25:00 -1.1 C 4.09 g/m*3 -1.1 C 3.2 km/h
211 04-02-2015 19:30:00 -1.2 C 4.06 g/m*3 -1.2 C 1.6 km/h
212 04-02-2015 19:35:00 -1.2 C 4.06 g/m*3 -1.2 C 1.6 km/h
213 04-02-2015 19:40:00 -1.2 C 4.06 g/m*3 -1.2 C 1.6 km/h
214 04-02-2015 19:45:00 -1.3 C 4.03 g/m*3 -1.3 C 0 km/h
215 04-02-2015 19:50:00 -1.4 C 4 g/m*3 -1.4 C 0 km/h
216 04-02-2015 19:55:00 -1.4 C 4.04 g/m*3 -1.4 C 0 km/h
217 04-02-2015 20:00:00 -1.4 C 4.04 g/m*3 -1.4 C 0 km/h
218 04-02-2015 20:05:00 -1.5 C 4.02 g/m*3 -1.5 C 0 km/h
219 04-02-2015 20:10:00 -1.5 C 4.02 g/m*3 -1.5 C 0 km/h
220 04-02-2015 20:15:00 -1.6 C 3.99 g/m*3 -1.6 C 0 km/h
221 04-02-2015 20:20:00 -1.6 C 3.99 g/m*3 -1.6 C 0 km/h
222 04-02-2015 20:25:00 -1.6 C 3.99 g/m*3 -1.6 C 0 km/h
223 04-02-2015 20:30:00 -1.7 C 3.96 g/m*3 -1.7 C 0 km/h
224 04-02-2015 20:35:00 -1.7 C 4 g/m*3 -1.7 C 0 km/h
225 04-02-2015 20:40:00 -1.7 C 4 g/m*3 -1.7 C 0 km/h
Sensor: Nr:Datum:Temp:Abs-Feuchte:Windchill:Wind:
Aussen-T/F 226 04-02-2015 20:45:00 -1.7 C 4 g/m*3 -1.7 C 0 km/h
227 04-02-2015 20:50:00 -1.8 C 3.98 g/m*3 -1.8 C 0 km/h
228 04-02-2015 20:55:00 -1.8 C 3.98 g/m*3 -1.8 C 0 km/h
229 04-02-2015 21:00:00 -1.8 C 3.98 g/m*3 -1.8 C 0 km/h
230 04-02-2015 21:05:00 -1.8 C 3.98 g/m*3 -1.8 C 0 km/h
231 04-02-2015 21:10:00 -1.8 C 3.98 g/m*3 -1.8 C 0 km/h
232 04-02-2015 21:15:00 -1.9 C 3.95 g/m*3 -1.9 C 0 km/h
233 04-02-2015 21:20:00 -1.9 C 3.95 g/m*3 -1.9 C 0 km/h
234 04-02-2015 21:25:00 -2.1 C 3.89 g/m*3 -2.1 C 0 km/h
235 04-02-2015 21:30:00 -2.2 C 3.87 g/m*3 -2.2 C 0 km/h
236 04-02-2015 21:35:00 -2.2 C 3.87 g/m*3 -2.2 C 0 km/h
237 04-02-2015 21:40:00 -2.2 C 3.87 g/m*3 -2.2 C 0 km/h
238 04-02-2015 21:45:00 -2.2 C 3.87 g/m*3 -2.2 C 0 km/h
239 04-02-2015 21:50:00 -2.3 C 3.84 g/m*3 -2.3 C 0 km/h
240 04-02-2015 21:55:00 -2.3 C 3.88 g/m*3 -2.3 C 0 km/h
241 04-02-2015 22:00:00 -2.3 C 3.88 g/m*3 -2.3 C 0 km/h
242 04-02-2015 22:05:00 -2.3 C 3.88 g/m*3 -2.3 C 0 km/h
243 04-02-2015 22:10:00 -2.3 C 3.88 g/m*3 -2.3 C 1.6 km/h
244 04-02-2015 22:15:00 -2.4 C 3.85 g/m*3 -2.4 C 0 km/h
245 04-02-2015 22:20:00 -2.4 C 3.85 g/m*3 -2.4 C 0 km/h
246 04-02-2015 22:25:00 -2.4 C 3.85 g/m*3 -2.4 C 0 km/h
247 04-02-2015 22:30:00 -2.5 C 3.83 g/m*3 -2.5 C 0 km/h
248 04-02-2015 22:35:00 -2.5 C 3.83 g/m*3 -2.5 C 0 km/h
249 04-02-2015 22:40:00 -2.6 C 3.8 g/m*3 -2.6 C 0 km/h
250 04-02-2015 22:45:00 -2.6 C 3.8 g/m*3 -2.6 C 0 km/h
Sensor: Nr:Datum:Temp:Abs-Feuchte:Windchill:Wind:
Aussen-T/F 251 04-02-2015 22:50:00 -2.6 C 3.8 g/m*3 -2.6 C 0 km/h
252 04-02-2015 22:55:00 -2.6 C 3.8 g/m*3 -2.6 C 0 km/h
253 04-02-2015 23:00:00 -2.6 C 3.8 g/m*3 -2.6 C 0 km/h
254 04-02-2015 23:05:00 -2.6 C 3.8 g/m*3 -2.6 C 0 km/h
255 04-02-2015 23:10:00 -2.6 C 3.8 g/m*3 -2.6 C 0 km/h
256 04-02-2015 23:15:00 -2.6 C 3.8 g/m*3 -2.6 C 0 km/h
257 04-02-2015 23:20:00 -2.6 C 3.8 g/m*3 -2.6 C 0 km/h
258 04-02-2015 23:25:00 -2.7 C 3.77 g/m*3 -2.7 C 0 km/h
259 04-02-2015 23:30:00 -2.7 C 3.77 g/m*3 -2.7 C 3.2 km/h
260 04-02-2015 23:35:00 -2.6 C 3.84 g/m*3 -2.6 C 3.2 km/h
261 04-02-2015 23:40:00 -2.6 C 3.84 g/m*3 -2.6 C 0 km/h
262 04-02-2015 23:45:00 -2.6 C 3.8 g/m*3 -2.6 C 0 km/h
263 04-02-2015 23:50:00 -2.7 C 3.77 g/m*3 -2.7 C 3.2 km/h
264 04-02-2015 23:55:00 -2.6 C 3.8 g/m*3 -2.6 C 1.6 km/h
265 05-02-2015 00:00:00 -2.6 C 3.84 g/m*3 -2.6 C 1.6 km/h
266 05-02-2015 00:05:00 -2.6 C 3.8 g/m*3 -2.6 C 1.6 km/h
267 05-02-2015 00:10:00 -2.7 C 3.77 g/m*3 -2.7 C 1.6 km/h
268 05-02-2015 00:15:00 -2.7 C 3.77 g/m*3 -2.7 C 1.6 km/h
269 05-02-2015 00:20:00 -2.8 C 3.75 g/m*3 -2.8 C 1.6 km/h
270 05-02-2015 00:25:00 -2.8 C 3.75 g/m*3 -2.8 C 1.6 km/h
271 05-02-2015 00:30:00 -2.9 C 3.72 g/m*3 -2.9 C 1.6 km/h
272 05-02-2015 00:35:00 -3 C 3.69 g/m*3 -3 C 3.2 km/h
273 05-02-2015 00:40:00 -3 C 3.69 g/m*3 -3 C 1.6 km/h
274 05-02-2015 00:45:00 -3 C 3.69 g/m*3 -3 C 0 km/h
275 05-02-2015 00:50:00 -3.1 C 3.67 g/m*3 -3.1 C 0 km/h
Sensor: Nr:Datum:Temp:Abs-Feuchte:Windchill:Wind:
Aussen-T/F 276 05-02-2015 00:55:00 -3.2 C 3.64 g/m*3 -3.2 C 1.6 km/h
277 05-02-2015 01:00:00 -3.2 C 3.68 g/m*3 -3.2 C 1.6 km/h
278 05-02-2015 01:05:00 -3.2 C 3.68 g/m*3 -3.2 C 0 km/h
279 05-02-2015 01:10:00 -3.2 C 3.64 g/m*3 -3.2 C 0 km/h
280 05-02-2015 01:15:00 -3.3 C 3.65 g/m*3 -3.3 C 0 km/h
281 05-02-2015 01:20:00 -3.3 C 3.61 g/m*3 -3.3 C 0 km/h
282 05-02-2015 01:25:00 -3.3 C 3.65 g/m*3 -3.3 C 1.6 km/h
283 05-02-2015 01:30:00 -3.4 C 3.63 g/m*3 -3.4 C 0 km/h
284 05-02-2015 01:35:00 -3.4 C 3.63 g/m*3 -3.4 C 0 km/h
285 05-02-2015 01:40:00 -3.5 C 3.6 g/m*3 -3.5 C 0 km/h
286 05-02-2015 01:45:00 -3.6 C 3.54 g/m*3 -3.6 C 0 km/h
287 05-02-2015 01:50:00 -3.6 C 3.58 g/m*3 -3.6 C 0 km/h
288 05-02-2015 01:55:00 -3.7 C 3.55 g/m*3 -3.7 C 0 km/h
289 05-02-2015 02:00:00 -3.7 C 3.55 g/m*3 -3.7 C 0 km/h
290 05-02-2015 02:05:00 -3.7 C 3.55 g/m*3 -3.7 C 0 km/h
291 05-02-2015 02:10:00 -3.8 C 3.53 g/m*3 -3.8 C 0 km/h
292 05-02-2015 02:15:00 -3.8 C 3.53 g/m*3 -3.8 C 0 km/h
293 05-02-2015 02:20:00 -3.7 C 3.55 g/m*3 -3.7 C 0 km/h
294 05-02-2015 02:25:00 -3.8 C 3.53 g/m*3 -3.8 C 1.6 km/h
295 05-02-2015 02:30:00 -3.8 C 3.53 g/m*3 -3.8 C 0 km/h
296 05-02-2015 02:35:00 -3.8 C 3.53 g/m*3 -3.8 C 1.6 km/h
297 05-02-2015 02:40:00 -3.7 C 3.55 g/m*3 -3.7 C 1.6 km/h
298 05-02-2015 02:45:00 -3.7 C 3.55 g/m*3 -3.7 C 3.2 km/h
299 05-02-2015 02:50:00 -3.5 C 3.6 g/m*3 -3.5 C 4.8 km/h
300 05-02-2015 02:55:00 -3.5 C 3.6 g/m*3 -3.5 C 4.8 km/h
Sensor: Nr:Datum:Temp:Abs-Feuchte:Windchill:Wind:
Aussen-T/F 301 05-02-2015 03:00:00 -3.6 C 3.58 g/m*3 -3.6 C 3.2 km/h
302 05-02-2015 03:05:00 -3.6 C 3.54 g/m*3 -3.6 C 3.2 km/h
303 05-02-2015 03:10:00 -3.6 C 3.54 g/m*3 -3.6 C 3.2 km/h
304 05-02-2015 03:15:00 -3.7 C 3.51 g/m*3 -3.7 C 3.2 km/h
305 05-02-2015 03:20:00 -3.7 C 3.51 g/m*3 -3.7 C 3.2 km/h
306 05-02-2015 03:25:00 -3.8 C 3.49 g/m*3 -3.8 C 3.2 km/h
307 05-02-2015 03:30:00 -3.8 C 3.49 g/m*3 -3.8 C 4.8 km/h
308 05-02-2015 03:35:00 -3.8 C 3.49 g/m*3 -3.8 C 4.8 km/h
309 05-02-2015 03:40:00 -3.8 C 3.49 g/m*3 -3.8 C 3.2 km/h
310 05-02-2015 03:45:00 -3.9 C 3.43 g/m*3 -3.9 C 0 km/h
311 05-02-2015 03:50:00 -3.9 C 3.43 g/m*3 -3.9 C 1.6 km/h
312 05-02-2015 03:55:00 -4 C 3.4 g/m*3 -4 C 0 km/h
313 05-02-2015 04:00:00 -4.1 C 3.38 g/m*3 -4.1 C 1.6 km/h
314 05-02-2015 04:05:00 -4.2 C 3.35 g/m*3 -4.2 C 0 km/h
315 05-02-2015 04:10:00 -4.2 C 3.35 g/m*3 -4.2 C 3.2 km/h
316 05-02-2015 04:15:00 -4.2 C 3.35 g/m*3 -4.2 C 1.6 km/h
317 05-02-2015 04:20:00 -4.2 C 3.39 g/m*3 -4.2 C 4.8 km/h
318 05-02-2015 04:25:00 -4.2 C 3.39 g/m*3 -4.2 C 4.8 km/h
319 05-02-2015 04:30:00 -4.2 C 3.39 g/m*3 -4.2 C 3.2 km/h
320 05-02-2015 04:35:00 -4.2 C 3.39 g/m*3 -4.2 C 0 km/h
321 05-02-2015 04:40:00 -4.2 C 3.39 g/m*3 -4.2 C 3.2 km/h
322 05-02-2015 04:45:00 -4.2 C 3.39 g/m*3 -4.2 C 3.2 km/h
323 05-02-2015 04:50:00 -4.2 C 3.39 g/m*3 -4.2 C 1.6 km/h
324 05-02-2015 04:55:00 -4.2 C 3.39 g/m*3 -4.2 C 3.2 km/h
325 05-02-2015 05:00:00 -4.2 C 3.39 g/m*3 -4.2 C 4.8 km/h
Sensor: Nr:Datum:Temp:Abs-Feuchte:Windchill:Wind:
Aussen-T/F 326 05-02-2015 05:05:00 -4.3 C 3.33 g/m*3 -4.3 C 3.2 km/h
327 05-02-2015 05:10:00 -4.2 C 3.39 g/m*3 -4.2 C 3.2 km/h
328 05-02-2015 05:15:00 -4.2 C 3.39 g/m*3 -4.2 C 1.6 km/h
329 05-02-2015 05:20:00 -4.3 C 3.33 g/m*3 -4.3 C 1.6 km/h
330 05-02-2015 05:25:00 -4.3 C 3.33 g/m*3 -4.3 C 0 km/h
331 05-02-2015 05:30:00 -4.4 C 3.31 g/m*3 -4.4 C 0 km/h
332 05-02-2015 05:35:00 -4.4 C 3.31 g/m*3 -4.4 C 0 km/h
333 05-02-2015 05:40:00 -4.4 C 3.31 g/m*3 -4.4 C 0 km/h
334 05-02-2015 05:45:00 -4.4 C 3.31 g/m*3 -4.4 C 0 km/h
335 05-02-2015 05:50:00 -4.5 C 3.28 g/m*3 -4.5 C 0 km/h
336 05-02-2015 05:55:00 -4.6 C 3.26 g/m*3 -4.6 C 0 km/h
337 05-02-2015 06:00:00 -4.6 C 3.26 g/m*3 -4.6 C 0 km/h
338 05-02-2015 06:05:00 -4.6 C 3.26 g/m*3 -4.6 C 0 km/h
339 05-02-2015 06:10:00 -4.7 C 3.24 g/m*3 -4.7 C 0 km/h
340 05-02-2015 06:15:00 -4.7 C 3.24 g/m*3 -4.7 C 0 km/h
341 05-02-2015 06:20:00 -4.7 C 3.24 g/m*3 -4.7 C 0 km/h
342 05-02-2015 06:25:00 -4.7 C 3.27 g/m*3 -4.7 C 0 km/h
343 05-02-2015 06:30:00 -4.6 C 3.29 g/m*3 -4.6 C 1.6 km/h
344 05-02-2015 06:35:00 -4.6 C 3.29 g/m*3 -4.6 C 0 km/h
345 05-02-2015 06:40:00 -4.5 C 3.32 g/m*3 -4.5 C 0 km/h
346 05-02-2015 06:45:00 -4.4 C 3.34 g/m*3 -4.4 C 0 km/h
347 05-02-2015 06:50:00 -4.4 C 3.34 g/m*3 -4.4 C 0 km/h
348 05-02-2015 06:55:00 -4.3 C 3.37 g/m*3 -4.3 C 0 km/h
349 05-02-2015 07:00:00 -4.3 C 3.37 g/m*3 -4.3 C 0 km/h
350 05-02-2015 07:05:00 -4.3 C 3.37 g/m*3 -4.3 C 0 km/h
Sensor: Nr:Datum:Temp:Abs-Feuchte:Windchill:Wind:
Aussen-T/F 351 05-02-2015 07:10:00 -4.2 C 3.43 g/m*3 -4.2 C 0 km/h
352 05-02-2015 07:15:00 -4.1 C 3.45 g/m*3 -4.1 C 0 km/h
353 05-02-2015 07:20:00 -3.9 C 3.5 g/m*3 -3.9 C 0 km/h
354 05-02-2015 07:25:00 -3.8 C 3.53 g/m*3 -3.8 C 0 km/h
355 05-02-2015 07:30:00 -3.8 C 3.49 g/m*3 -3.8 C 0 km/h
356 05-02-2015 07:35:00 -3.8 C 3.49 g/m*3 -3.8 C 0 km/h
357 05-02-2015 07:40:00 -3.7 C 3.51 g/m*3 -3.7 C 3.2 km/h
358 05-02-2015 07:45:00 -3.7 C 3.51 g/m*3 -3.7 C 1.6 km/h
359 05-02-2015 07:50:00 -3.6 C 3.54 g/m*3 -3.6 C 1.6 km/h
360 05-02-2015 07:55:00 -3.6 C 3.54 g/m*3 -3.6 C 1.6 km/h
361 05-02-2015 17:00:00 1.1 C 3.66 g/m*3 -3.25 C 16.1 km/h
362 05-02-2015 17:05:00 1 C 3.63 g/m*3 -3.09 C 14.5 km/h
363 05-02-2015 17:10:00 0.9 C 3.61 g/m*3 -2.9 C 12.9 km/h
364 05-02-2015 17:15:00 0.9 C 3.61 g/m*3 -3.5 C 16.1 km/h
365 05-02-2015 17:20:00 0.8 C 3.58 g/m*3 -3.62 C 16.1 km/h
366 05-02-2015 17:25:00 0.8 C 3.58 g/m*3 -4.77 C 24.1 km/h
367 05-02-2015 17:30:00 0.8 C 3.63 g/m*3 -3.02 C 12.9 km/h
368 05-02-2015 17:35:00 0.7 C 3.66 g/m*3 -4.01 C 17.7 km/h
369 05-02-2015 17:40:00 0.7 C 3.66 g/m*3 -2.4 C 9.7 km/h
370 05-02-2015 17:45:00 0.7 C 3.66 g/m*3 -3.15 C 12.9 km/h
371 05-02-2015 17:50:00 0.7 C 3.66 g/m*3 -3.15 C 12.9 km/h
372 05-02-2015 17:55:00 0.7 C 3.66 g/m*3 -1.95 C 8.1 km/h
373 05-02-2015 18:00:00 0.7 C 3.66 g/m*3 -2.4 C 9.7 km/h
374 05-02-2015 18:05:00 0.7 C 3.71 g/m*3 -3.46 C 14.5 km/h
375 05-02-2015 18:10:00 0.7 C 3.71 g/m*3 -3.75 C 16.1 km/h
Sensor: Nr:Datum:Temp:Abs-Feuchte:Windchill:Wind:
Aussen-T/F 376 05-02-2015 18:15:00 0.7 C 3.66 g/m*3 -3.75 C 16.1 km/h
377 05-02-2015 18:20:00 0.7 C 3.66 g/m*3 -3.46 C 14.5 km/h
378 05-02-2015 18:25:00 0.7 C 3.66 g/m*3 -4.01 C 17.7 km/h
379 05-02-2015 18:30:00 0.7 C 3.71 g/m*3 -3.46 C 14.5 km/h
380 05-02-2015 18:35:00 0.6 C 3.64 g/m*3 -3.58 C 14.5 km/h
381 05-02-2015 18:40:00 0.6 C 3.64 g/m*3 -3.27 C 12.9 km/h
382 05-02-2015 18:45:00 0.6 C 3.64 g/m*3 -3.27 C 12.9 km/h
383 05-02-2015 18:50:00 0.6 C 3.64 g/m*3 -3.58 C 14.5 km/h
384 05-02-2015 18:55:00 0.6 C 3.69 g/m*3 -2.06 C 8.1 km/h
385 05-02-2015 19:00:00 0.5 C 3.66 g/m*3 -3.04 C 11.3 km/h
386 05-02-2015 19:05:00 0.5 C 3.71 g/m*3 -3.04 C 11.3 km/h
387 05-02-2015 19:10:00 0.4 C 3.69 g/m*3 -3.16 C 11.3 km/h
388 05-02-2015 19:15:00 0.4 C 3.74 g/m*3 -2.76 C 9.7 km/h
389 05-02-2015 19:20:00 0.4 C 3.74 g/m*3 -3.16 C 11.3 km/h
390 05-02-2015 19:25:00 0.4 C 3.74 g/m*3 -2.3 C 8.1 km/h
391 05-02-2015 19:30:00 0.4 C 3.69 g/m*3 -3.16 C 11.3 km/h
392 05-02-2015 19:35:00 0.5 C 3.66 g/m*3 -3.71 C 14.5 km/h
393 05-02-2015 19:40:00 0.6 C 3.69 g/m*3 -3.87 C 16.1 km/h
394 05-02-2015 19:45:00 0.6 C 3.69 g/m*3 -4.14 C 17.7 km/h
395 05-02-2015 19:50:00 0.6 C 3.69 g/m*3 -2.52 C 9.7 km/h
396 05-02-2015 19:55:00 0.6 C 3.69 g/m*3 -2.92 C 11.3 km/h
397 05-02-2015 20:00:00 0.6 C 3.69 g/m*3 -2.06 C 8.1 km/h
398 05-02-2015 20:05:00 0.6 C 3.64 g/m*3 -3.27 C 12.9 km/h
399 05-02-2015 20:10:00 0.7 C 3.66 g/m*3 -2.8 C 11.3 km/h
400 05-02-2015 20:15:00 0.7 C 3.61 g/m*3 -2.4 C 9.7 km/h
Sensor: Nr:Datum:Temp:Abs-Feuchte:Windchill:Wind:
Aussen-T/F 401 05-02-2015 20:20:00 0.7 C 3.56 g/m*3 -3.15 C 12.9 km/h
402 05-02-2015 20:25:00 0.7 C 3.56 g/m*3 -3.46 C 14.5 km/h
403 05-02-2015 20:30:00 0.7 C 3.56 g/m*3 -3.75 C 16.1 km/h
404 05-02-2015 20:35:00 0.7 C 3.51 g/m*3 -3.75 C 16.1 km/h
405 05-02-2015 20:40:00 0.6 C 3.48 g/m*3 -4.61 C 20.9 km/h
406 05-02-2015 20:45:00 0.5 C 3.51 g/m*3 -2.64 C 9.7 km/h
407 05-02-2015 20:50:00 0.5 C 3.51 g/m*3 -3.39 C 12.9 km/h
408 05-02-2015 20:55:00 0.5 C 3.51 g/m*3 -4.51 C 19.3 km/h
409 05-02-2015 21:00:00 0.4 C 3.49 g/m*3 -3.51 C 12.9 km/h
410 05-02-2015 21:05:00 0.5 C 3.51 g/m*3 -3.71 C 14.5 km/h
411 05-02-2015 21:10:00 0.4 C 3.49 g/m*3 -4.12 C 16.1 km/h
412 05-02-2015 21:15:00 0.4 C 3.49 g/m*3 -3.83 C 14.5 km/h
413 05-02-2015 21:20:00 0.3 C 3.51 g/m*3 -3.28 C 11.3 km/h
414 05-02-2015 21:25:00 0.3 C 3.51 g/m*3 -2.42 C 8.1 km/h
415 05-02-2015 21:30:00 0.3 C 3.51 g/m*3 -3.63 C 12.9 km/h
416 05-02-2015 21:35:00 0.3 C 3.51 g/m*3 -3.95 C 14.5 km/h
417 05-02-2015 21:40:00 0.3 C 3.46 g/m*3 -3.63 C 12.9 km/h
418 05-02-2015 21:45:00 0.3 C 3.46 g/m*3 -3.63 C 12.9 km/h
419 05-02-2015 21:50:00 0.2 C 3.49 g/m*3 -4.89 C 19.3 km/h
420 05-02-2015 21:55:00 0.2 C 3.49 g/m*3 -3.4 C 11.3 km/h
421 05-02-2015 22:00:00 0.2 C 3.49 g/m*3 -2.53 C 8.1 km/h
422 05-02-2015 22:05:00 0.1 C 3.46 g/m*3 -3.52 C 11.3 km/h
423 05-02-2015 22:10:00 0.1 C 3.46 g/m*3 -3.52 C 11.3 km/h
424 05-02-2015 22:15:00 0.1 C 3.46 g/m*3 -5.25 C 20.9 km/h
425 05-02-2015 22:20:00 0.1 C 3.46 g/m*3 -3.12 C 9.7 km/h
Sensor: Nr:Datum:Temp:Abs-Feuchte:Windchill:Wind:
Aussen-T/F 426 05-02-2015 22:25:00 0 C 3.44 g/m*3 -2.77 C 8.1 km/h
427 05-02-2015 22:30:00 0 C 3.49 g/m*3 -3.64 C 11.3 km/h
428 05-02-2015 22:35:00 -0.1 C 3.46 g/m*3 -3.76 C 11.3 km/h
429 05-02-2015 22:40:00 -0.1 C 3.46 g/m*3 -4.12 C 12.9 km/h
430 05-02-2015 22:45:00 -0.1 C 3.46 g/m*3 -4.12 C 12.9 km/h
431 05-02-2015 22:50:00 -0.1 C 3.51 g/m*3 -3.35 C 9.7 km/h
432 05-02-2015 22:55:00 -0.1 C 3.51 g/m*3 -0.1 C 4.8 km/h
433 05-02-2015 23:00:00 -0.2 C 3.49 g/m*3 -0.2 C 4.8 km/h
434 05-02-2015 23:05:00 -0.2 C 3.49 g/m*3 -4.86 C 16.1 km/h
435 05-02-2015 23:10:00 -0.2 C 3.54 g/m*3 -3 C 8.1 km/h
436 05-02-2015 23:15:00 -0.2 C 3.54 g/m*3 -0.2 C 3.2 km/h
437 05-02-2015 23:20:00 -0.2 C 3.54 g/m*3 -0.2 C 3.2 km/h
438 05-02-2015 23:25:00 -0.2 C 3.54 g/m*3 -3.47 C 9.7 km/h
439 05-02-2015 23:30:00 -0.2 C 3.54 g/m*3 -4.57 C 14.5 km/h
440 05-02-2015 23:35:00 -0.2 C 3.54 g/m*3 -3.47 C 9.7 km/h
441 05-02-2015 23:40:00 -0.2 C 3.54 g/m*3 -3.88 C 11.3 km/h
442 05-02-2015 23:45:00 -0.2 C 3.54 g/m*3 -4.24 C 12.9 km/h
443 05-02-2015 23:50:00 -0.2 C 3.54 g/m*3 -3.47 C 9.7 km/h
444 05-02-2015 23:55:00 -0.2 C 3.54 g/m*3 -3 C 8.1 km/h
445 06-02-2015 00:00:00 -0.2 C 3.54 g/m*3 -2.41 C 6.4 km/h
446 06-02-2015 00:05:00 -0.2 C 3.54 g/m*3 -3.47 C 9.7 km/h
447 06-02-2015 00:10:00 -0.1 C 3.56 g/m*3 -2.89 C 8.1 km/h
448 06-02-2015 00:15:00 -0.1 C 3.56 g/m*3 -2.89 C 8.1 km/h
449 06-02-2015 00:20:00 -0.1 C 3.56 g/m*3 -4.12 C 12.9 km/h
450 06-02-2015 00:25:00 -0.1 C 3.56 g/m*3 -4.12 C 12.9 km/h
Sensor: Nr:Datum:Temp:Abs-Feuchte:Windchill:Wind:
Aussen-T/F 451 06-02-2015 00:30:00 0 C 3.59 g/m*3 -3.23 C 9.7 km/h
452 06-02-2015 00:35:00 0 C 3.59 g/m*3 -4 C 12.9 km/h
453 06-02-2015 00:40:00 -0.1 C 3.56 g/m*3 -2.3 C 6.4 km/h
454 06-02-2015 00:45:00 -0.1 C 3.56 g/m*3 -2.89 C 8.1 km/h
455 06-02-2015 00:50:00 0 C 3.59 g/m*3 -3.23 C 9.7 km/h
456 06-02-2015 00:55:00 0 C 3.59 g/m*3 -3.23 C 9.7 km/h
457 06-02-2015 01:00:00 0 C 3.59 g/m*3 -5.8 C 24.1 km/h
458 06-02-2015 01:05:00 0 C 3.59 g/m*3 -5.37 C 20.9 km/h
459 06-02-2015 01:10:00 0 C 3.59 g/m*3 -3.64 C 11.3 km/h
460 06-02-2015 01:15:00 0 C 3.59 g/m*3 -4.62 C 16.1 km/h
461 06-02-2015 01:20:00 -0.1 C 3.56 g/m*3 -4.12 C 12.9 km/h
462 06-02-2015 01:25:00 -0.1 C 3.56 g/m*3 -4.44 C 14.5 km/h
463 06-02-2015 01:30:00 -0.1 C 3.56 g/m*3 -5.26 C 19.3 km/h
464 06-02-2015 01:35:00 -0.1 C 3.56 g/m*3 -2.89 C 8.1 km/h
465 06-02-2015 01:40:00 -0.1 C 3.56 g/m*3 -5.26 C 19.3 km/h
466 06-02-2015 01:45:00 -0.1 C 3.56 g/m*3 -2.89 C 8.1 km/h
467 06-02-2015 01:50:00 -0.1 C 3.56 g/m*3 -2.89 C 8.1 km/h
468 06-02-2015 01:55:00 -0.1 C 3.61 g/m*3 -2.3 C 6.4 km/h
469 06-02-2015 02:00:00 -0.1 C 3.61 g/m*3 -4.44 C 14.5 km/h
470 06-02-2015 02:05:00 -0.1 C 3.61 g/m*3 -3.76 C 11.3 km/h
471 06-02-2015 02:10:00 -0.1 C 3.61 g/m*3 -2.89 C 8.1 km/h
472 06-02-2015 02:15:00 -0.1 C 3.61 g/m*3 -4.12 C 12.9 km/h
473 06-02-2015 02:20:00 -0.1 C 3.56 g/m*3 -4.12 C 12.9 km/h
474 06-02-2015 02:25:00 -0.1 C 3.56 g/m*3 -2.3 C 6.4 km/h
475 06-02-2015 02:30:00 -0.1 C 3.56 g/m*3 -3.76 C 11.3 km/h
Sensor: Nr:Datum:Temp:Abs-Feuchte:Windchill:Wind:
Aussen-T/F 476 06-02-2015 02:35:00 -0.1 C 3.56 g/m*3 -3.35 C 9.7 km/h
477 06-02-2015 02:40:00 -0.1 C 3.61 g/m*3 -4.12 C 12.9 km/h
478 06-02-2015 02:45:00 -0.1 C 3.61 g/m*3 -3.35 C 9.7 km/h
479 06-02-2015 02:50:00 -0.1 C 3.61 g/m*3 -3.35 C 9.7 km/h
480 06-02-2015 02:55:00 -0.2 C 3.58 g/m*3 -3 C 8.1 km/h
481 06-02-2015 03:00:00 -0.2 C 3.54 g/m*3 -4.86 C 16.1 km/h
482 06-02-2015 03:05:00 -0.3 C 3.51 g/m*3 -0.3 C 4.8 km/h
483 06-02-2015 03:10:00 -0.4 C 3.49 g/m*3 -0.4 C 4.8 km/h
484 06-02-2015 03:15:00 -0.4 C 3.44 g/m*3 -6.31 C 24.1 km/h
485 06-02-2015 03:20:00 -0.5 C 3.46 g/m*3 -0.5 C 3.2 km/h
486 06-02-2015 03:25:00 -0.5 C 3.46 g/m*3 -5.24 C 16.1 km/h
487 06-02-2015 03:30:00 -0.6 C 3.39 g/m*3 -4.73 C 12.9 km/h
488 06-02-2015 03:35:00 -0.7 C 3.42 g/m*3 -0.7 C 4.8 km/h
489 06-02-2015 03:40:00 -0.7 C 3.42 g/m*3 -0.7 C 4.8 km/h
490 06-02-2015 03:45:00 -0.8 C 3.44 g/m*3 -3.71 C 8.1 km/h
491 06-02-2015 03:50:00 -0.8 C 3.44 g/m*3 -4.97 C 12.9 km/h
492 06-02-2015 03:55:00 -0.7 C 3.46 g/m*3 -4.07 C 9.7 km/h
493 06-02-2015 04:00:00 -0.7 C 3.46 g/m*3 -0.7 C 4.8 km/h
494 06-02-2015 04:05:00 -0.8 C 3.44 g/m*3 -3.11 C 6.4 km/h
495 06-02-2015 04:10:00 -0.7 C 3.46 g/m*3 -0.7 C 1.6 km/h
496 06-02-2015 04:15:00 -0.7 C 3.46 g/m*3 -0.7 C 3.2 km/h
497 06-02-2015 04:20:00 -0.7 C 3.42 g/m*3 -4.48 C 11.3 km/h
498 06-02-2015 04:25:00 -0.6 C 3.44 g/m*3 -5.06 C 14.5 km/h
499 06-02-2015 04:30:00 -0.5 C 3.46 g/m*3 -4.94 C 14.5 km/h
500 06-02-2015 04:35:00 -0.4 C 3.49 g/m*3 -3.71 C 9.7 km/h
Sensor: Nr:Datum:Temp:Abs-Feuchte:Windchill:Wind:
Aussen-T/F 501 06-02-2015 04:40:00 -0.4 C 3.49 g/m*3 -3.71 C 9.7 km/h
502 06-02-2015 04:45:00 -0.4 C 3.49 g/m*3 -2.64 C 6.4 km/h
503 06-02-2015 04:50:00 -0.4 C 3.49 g/m*3 -4.49 C 12.9 km/h
504 06-02-2015 04:55:00 -0.4 C 3.49 g/m*3 -0.4 C 4.8 km/h
505 06-02-2015 05:00:00 -0.4 C 3.49 g/m*3 -4.49 C 12.9 km/h
506 06-02-2015 05:05:00 -0.4 C 3.49 g/m*3 -3.24 C 8.1 km/h
507 06-02-2015 05:10:00 -0.3 C 3.51 g/m*3 -4.36 C 12.9 km/h
508 06-02-2015 05:15:00 -0.3 C 3.51 g/m*3 -3.59 C 9.7 km/h
509 06-02-2015 05:20:00 -0.4 C 3.49 g/m*3 -4.12 C 11.3 km/h
510 06-02-2015 05:25:00 -0.4 C 3.49 g/m*3 -2.64 C 6.4 km/h
511 06-02-2015 05:30:00 -0.4 C 3.49 g/m*3 -0.4 C 3.2 km/h
512 06-02-2015 05:35:00 -0.4 C 3.49 g/m*3 -3.71 C 9.7 km/h
513 06-02-2015 05:40:00 -0.4 C 3.49 g/m*3 -2.64 C 6.4 km/h
514 06-02-2015 05:45:00 -0.5 C 3.46 g/m*3 -5.51 C 17.7 km/h
515 06-02-2015 05:50:00 -0.5 C 3.51 g/m*3 -0.5 C 4.8 km/h
516 06-02-2015 05:55:00 -0.5 C 3.51 g/m*3 -4.61 C 12.9 km/h
517 06-02-2015 06:00:00 -0.5 C 3.46 g/m*3 -3.83 C 9.7 km/h
518 06-02-2015 06:05:00 -0.5 C 3.46 g/m*3 -4.24 C 11.3 km/h
519 06-02-2015 06:10:00 -0.5 C 3.46 g/m*3 -3.36 C 8.1 km/h
520 06-02-2015 06:15:00 -0.6 C 3.44 g/m*3 -3.95 C 9.7 km/h
521 06-02-2015 06:20:00 -0.6 C 3.44 g/m*3 -3.95 C 9.7 km/h
522 06-02-2015 06:25:00 -0.7 C 3.42 g/m*3 -5.76 C 17.7 km/h
523 06-02-2015 06:30:00 -0.7 C 3.46 g/m*3 -3.59 C 8.1 km/h
524 06-02-2015 06:35:00 -0.7 C 3.46 g/m*3 -0.7 C 3.2 km/h
525 06-02-2015 06:40:00 -0.7 C 3.46 g/m*3 -3.59 C 8.1 km/h
Sensor: Nr:Datum:Temp:Abs-Feuchte:Windchill:Wind:
Aussen-T/F 526 06-02-2015 06:45:00 -0.7 C 3.46 g/m*3 -3.59 C 8.1 km/h
527 06-02-2015 06:50:00 -0.7 C 3.46 g/m*3 -4.85 C 12.9 km/h
528 06-02-2015 06:55:00 -0.7 C 3.46 g/m*3 -2.99 C 6.4 km/h
529 06-02-2015 07:00:00 -0.7 C 3.46 g/m*3 -0.7 C 4.8 km/h
530 06-02-2015 07:05:00 -0.7 C 3.46 g/m*3 -4.48 C 11.3 km/h
531 06-02-2015 07:10:00 -0.7 C 3.42 g/m*3 -3.59 C 8.1 km/h
532 06-02-2015 07:15:00 -0.7 C 3.46 g/m*3 -4.48 C 11.3 km/h
533 06-02-2015 07:20:00 -0.6 C 3.44 g/m*3 -4.73 C 12.9 km/h
534 06-02-2015 07:25:00 -0.6 C 3.44 g/m*3 -2.88 C 6.4 km/h
535 06-02-2015 07:30:00 -0.6 C 3.44 g/m*3 -3.95 C 9.7 km/h
536 06-02-2015 07:35:00 -0.6 C 3.44 g/m*3 -3.95 C 9.7 km/h
537 06-02-2015 07:40:00 -0.6 C 3.49 g/m*3 -3.48 C 8.1 km/h
538 06-02-2015 07:45:00 -0.7 C 3.46 g/m*3 -4.48 C 11.3 km/h
539 06-02-2015 07:50:00 -0.6 C 3.49 g/m*3 -3.95 C 9.7 km/h
540 06-02-2015 07:55:00 -0.6 C 3.49 g/m*3 -4.36 C 11.3 km/h
541 06-02-2015 08:00:00 -0.5 C 3.51 g/m*3 -3.83 C 9.7 km/h
542 06-02-2015 08:05:00 -0.4 C 3.49 g/m*3 -5.11 C 16.1 km/h
543 06-02-2015 08:10:00 -0.3 C 3.51 g/m*3 -3.12 C 8.1 km/h
544 06-02-2015 08:15:00 -0.3 C 3.51 g/m*3 -3.59 C 9.7 km/h
545 06-02-2015 08:20:00 -0.3 C 3.51 g/m*3 -4 C 11.3 km/h
546 06-02-2015 08:25:00 -0.3 C 3.51 g/m*3 -4.69 C 14.5 km/h
547 06-02-2015 08:30:00 -0.2 C 3.49 g/m*3 -5.14 C 17.7 km/h
548 06-02-2015 08:35:00 -0.2 C 3.49 g/m*3 -4.24 C 12.9 km/h
549 06-02-2015 08:40:00 -0.2 C 3.49 g/m*3 -5.39 C 19.3 km/h
550 06-02-2015 08:45:00 -0.2 C 3.49 g/m*3 -3 C 8.1 km/h
Sensor: Nr:Datum:Temp:Abs-Feuchte:Windchill:Wind:
Aussen-T/F 551 06-02-2015 08:50:00 -0.1 C 3.51 g/m*3 -2.89 C 8.1 km/h
552 06-02-2015 08:55:00 -0.1 C 3.51 g/m*3 -4.12 C 12.9 km/h
553 06-02-2015 09:00:00 -0.1 C 3.51 g/m*3 -3.76 C 11.3 km/h
554 06-02-2015 09:05:00 -0.1 C 3.51 g/m*3 -4.12 C 12.9 km/h
555 06-02-2015 09:10:00 0 C 3.54 g/m*3 -3.64 C 11.3 km/h
556 06-02-2015 09:15:00 0 C 3.54 g/m*3 -2.18 C 6.4 km/h
557 06-02-2015 09:20:00 0.1 C 3.56 g/m*3 -3.52 C 11.3 km/h
558 06-02-2015 09:25:00 0.1 C 3.56 g/m*3 -3.52 C 11.3 km/h
559 06-02-2015 09:30:00 0.1 C 3.51 g/m*3 -3.88 C 12.9 km/h
560 06-02-2015 09:35:00 0.1 C 3.51 g/m*3 -4.2 C 14.5 km/h
561 06-02-2015 09:40:00 0.1 C 3.51 g/m*3 -4.76 C 17.7 km/h
562 06-02-2015 09:45:00 0.1 C 3.51 g/m*3 -4.49 C 16.1 km/h
563 06-02-2015 09:50:00 0.2 C 3.54 g/m*3 -3 C 9.7 km/h
564 06-02-2015 09:55:00 0.2 C 3.54 g/m*3 -3.75 C 12.9 km/h
565 06-02-2015 10:00:00 0.2 C 3.54 g/m*3 -3.75 C 12.9 km/h
566 06-02-2015 10:05:00 0.2 C 3.54 g/m*3 -4.64 C 17.7 km/h
567 06-02-2015 10:10:00 0.2 C 3.49 g/m*3 -4.37 C 16.1 km/h
568 06-02-2015 10:15:00 0.2 C 3.49 g/m*3 -5.12 C 20.9 km/h
569 06-02-2015 10:20:00 0.3 C 3.51 g/m*3 -4.24 C 16.1 km/h
570 06-02-2015 10:25:00 0.3 C 3.51 g/m*3 -4.24 C 16.1 km/h
571 06-02-2015 10:30:00 0.4 C 3.54 g/m*3 -5.67 C 27.4 km/h
572 06-02-2015 10:35:00 0.4 C 3.49 g/m*3 -3.16 C 11.3 km/h
573 06-02-2015 10:40:00 0.3 C 3.51 g/m*3 -3.28 C 11.3 km/h
574 06-02-2015 10:45:00 0.3 C 3.51 g/m*3 -2.88 C 9.7 km/h
575 06-02-2015 10:50:00 0.3 C 3.51 g/m*3 -3.28 C 11.3 km/h
Sensor: Nr:Datum:Temp:Abs-Feuchte:Windchill:Wind:
Aussen-T/F 576 06-02-2015 10:55:00 0.3 C 3.51 g/m*3 -2.42 C 8.1 km/h
577 06-02-2015 11:00:00 0.3 C 3.51 g/m*3 -4.24 C 16.1 km/h
578 06-02-2015 11:05:00 0.4 C 3.54 g/m*3 -3.83 C 14.5 km/h
579 06-02-2015 11:10:00 0.4 C 3.54 g/m*3 -4.39 C 17.7 km/h
580 06-02-2015 11:15:00 0.4 C 3.49 g/m*3 -4.87 C 20.9 km/h
581 06-02-2015 11:20:00 0.5 C 3.51 g/m*3 -3.39 C 12.9 km/h
582 06-02-2015 11:25:00 0.6 C 3.53 g/m*3 -2.06 C 8.1 km/h
583 06-02-2015 11:30:00 0.7 C 3.56 g/m*3 -3.46 C 14.5 km/h
584 06-02-2015 11:35:00 0.7 C 3.56 g/m*3 -4.01 C 17.7 km/h
585 06-02-2015 11:40:00 0.8 C 3.53 g/m*3 -4.13 C 19.3 km/h
586 06-02-2015 11:45:00 0.8 C 3.53 g/m*3 -3.89 C 17.7 km/h
587 06-02-2015 11:50:00 0.9 C 3.56 g/m*3 -3.21 C 14.5 km/h
588 06-02-2015 11:55:00 0.9 C 3.51 g/m*3 -3.21 C 14.5 km/h
589 06-02-2015 12:00:00 1 C 3.58 g/m*3 -2.43 C 11.3 km/h
590 06-02-2015 12:05:00 1.1 C 3.55 g/m*3 -3.98 C 20.9 km/h
591 06-02-2015 12:10:00 1.2 C 3.58 g/m*3 -2.54 C 12.9 km/h
592 06-02-2015 12:15:00 1.3 C 3.55 g/m*3 -2.41 C 12.9 km/h
593 06-02-2015 12:20:00 1.3 C 3.55 g/m*3 -2.72 C 14.5 km/h
594 06-02-2015 12:25:00 1.4 C 3.52 g/m*3 -1.57 C 9.7 km/h
595 06-02-2015 12:30:00 1.5 C 3.54 g/m*3 -2.17 C 12.9 km/h
596 06-02-2015 12:35:00 1.7 C 3.54 g/m*3 -2.23 C 14.5 km/h
597 06-02-2015 12:40:00 1.8 C 3.51 g/m*3 -2.64 C 17.7 km/h
598 06-02-2015 12:45:00 1.9 C 3.48 g/m*3 -3.36 C 24.1 km/h
599 06-02-2015 12:50:00 1.9 C 3.53 g/m*3 -0.97 C 9.7 km/h
600 06-02-2015 12:55:00 2 C 3.56 g/m*3 -0.85 C 9.7 km/h
Sensor: Nr:Datum:Temp:Abs-Feuchte:Windchill:Wind:
Aussen-T/F 601 06-02-2015 13:00:00 2.1 C 3.52 g/m*3 -0.73 C 9.7 km/h
602 06-02-2015 13:05:00 2.2 C 3.49 g/m*3 -2.59 C 20.9 km/h
603 06-02-2015 13:10:00 2.2 C 3.55 g/m*3 -2.59 C 20.9 km/h
604 06-02-2015 13:15:00 2.3 C 3.52 g/m*3 -2.24 C 19.3 km/h
605 06-02-2015 13:20:00 2.4 C 3.54 g/m*3 -2.33 C 20.9 km/h
606 06-02-2015 13:25:00 2.4 C 3.54 g/m*3 -1.64 C 16.1 km/h
607 06-02-2015 13:30:00 2.6 C 3.59 g/m*3 -1.87 C 19.3 km/h
608 06-02-2015 13:35:00 2.6 C 3.53 g/m*3 -0.83 C 12.9 km/h
609 06-02-2015 13:40:00 2.7 C 3.61 g/m*3 -1 C 14.5 km/h
610 06-02-2015 13:45:00 2.8 C 3.58 g/m*3 -1.61 C 19.3 km/h
611 06-02-2015 13:50:00 2.9 C 3.54 g/m*3 -1.49 C 19.3 km/h
612 06-02-2015 13:55:00 3 C 3.57 g/m*3 -1.57 C 20.9 km/h
613 06-02-2015 14:00:00 3.1 C 3.59 g/m*3 0.46 C 9.7 km/h
614 06-02-2015 14:05:00 3.2 C 3.56 g/m*3 -0.89 C 17.7 km/h
615 06-02-2015 14:10:00 3.3 C 3.52 g/m*3 -2.22 C 30.6 km/h
616 06-02-2015 14:15:00 3.3 C 3.52 g/m*3 -2.22 C 30.6 km/h
617 06-02-2015 14:20:00 3.4 C 3.54 g/m*3 -0.64 C 17.7 km/h
618 06-02-2015 14:25:00 3.4 C 3.54 g/m*3 -0.86 C 19.3 km/h
619 06-02-2015 14:30:00 3.4 C 3.6 g/m*3 -0.64 C 17.7 km/h
620 06-02-2015 14:35:00 3.4 C 3.48 g/m*3 -0.86 C 19.3 km/h
621 06-02-2015 14:40:00 3.3 C 3.58 g/m*3 0.34 C 11.3 km/h
622 06-02-2015 14:45:00 3.4 C 3.54 g/m*3 -0.86 C 19.3 km/h
623 06-02-2015 14:50:00 3.4 C 3.54 g/m*3 1.23 C 8.1 km/h
624 06-02-2015 14:55:00 3.6 C 3.59 g/m*3 1.46 C 8.1 km/h
625 06-02-2015 15:00:00 3.6 C 3.53 g/m*3 -0.15 C 16.1 km/h
Sensor: Nr:Datum:Temp:Abs-Feuchte:Windchill:Wind:
Aussen-T/F 626 06-02-2015 15:05:00 3.8 C 3.51 g/m*3 2.21 C 6.4 km/h
627 06-02-2015 15:10:00 3.9 C 3.47 g/m*3 2.32 C 6.4 km/h
628 06-02-2015 15:15:00 4 C 3.43 g/m*3 4 C 4.8 km/h
629 06-02-2015 15:20:00 4 C 3.43 g/m*3 2.44 C 6.4 km/h
630 06-02-2015 15:25:00 3.9 C 3.47 g/m*3 1.82 C 8.1 km/h
631 06-02-2015 15:30:00 3.9 C 3.35 g/m*3 0.75 C 12.9 km/h
632 06-02-2015 15:35:00 3.9 C 3.35 g/m*3 1.06 C 11.3 km/h
633 06-02-2015 15:40:00 3.8 C 3.32 g/m*3 1.7 C 8.1 km/h
634 06-02-2015 15:45:00 3.6 C 3.34 g/m*3 0.7 C 11.3 km/h
635 06-02-2015 15:50:00 3.4 C 3.36 g/m*3 1.23 C 8.1 km/h
636 06-02-2015 15:55:00 3.3 C 3.4 g/m*3 1.11 C 8.1 km/h
637 06-02-2015 16:00:00 3.2 C 3.25 g/m*3 1.51 C 6.4 km/h
638 06-02-2015 16:05:00 3.2 C 3.37 g/m*3 0.58 C 9.7 km/h
639 06-02-2015 16:10:00 3.2 C 3.31 g/m*3 1.51 C 6.4 km/h
640 06-02-2015 16:15:00 3.1 C 3.47 g/m*3 1.4 C 6.4 km/h
641 06-02-2015 16:20:00 3 C 3.33 g/m*3 -0.34 C 12.9 km/h
642 06-02-2015 16:25:00 2.9 C 3.31 g/m*3 -0.46 C 12.9 km/h
643 06-02-2015 16:30:00 2.9 C 3.43 g/m*3 1.17 C 6.4 km/h
644 06-02-2015 16:35:00 2.8 C 3.23 g/m*3 -0.88 C 14.5 km/h
645 06-02-2015 16:40:00 2.8 C 3.28 g/m*3 0.52 C 8.1 km/h
646 06-02-2015 16:45:00 2.8 C 3.23 g/m*3 -1.61 C 19.3 km/h
647 06-02-2015 16:50:00 2.8 C 3.17 g/m*3 -2.02 C 22.5 km/h
648 06-02-2015 16:55:00 2.7 C 3.15 g/m*3 -1.95 C 20.9 km/h
649 06-02-2015 17:00:00 2.6 C 3.18 g/m*3 -0.83 C 12.9 km/h
650 06-02-2015 17:05:00 2.5 C 3.22 g/m*3 -0.95 C 12.9 km/h
Sensor: Nr:Datum:Temp:Abs-Feuchte:Windchill:Wind:
Aussen-T/F 651 06-02-2015 17:10:00 2.4 C 3.31 g/m*3 0.05 C 8.1 km/h
652 06-02-2015 17:15:00 2.1 C 3.19 g/m*3 -0.3 C 8.1 km/h
653 06-02-2015 17:20:00 2 C 3.22 g/m*3 -0.85 C 9.7 km/h
654 06-02-2015 17:25:00 1.7 C 3.38 g/m*3 1.7 C 4.8 km/h
655 06-02-2015 17:30:00 1.3 C 3.39 g/m*3 1.3 C 3.2 km/h
656 06-02-2015 17:35:00 0.9 C 3.4 g/m*3 0.9 C 4.8 km/h
657 06-02-2015 17:40:00 0.6 C 3.43 g/m*3 0.6 C 4.8 km/h
658 06-02-2015 17:45:00 0.4 C 3.39 g/m*3 -1.72 C 6.4 km/h
659 06-02-2015 17:50:00 0.3 C 3.41 g/m*3 0.3 C 4.8 km/h
660 06-02-2015 17:55:00 0.2 C 3.39 g/m*3 -2.53 C 8.1 km/h
661 06-02-2015 18:00:00 0.3 C 3.31 g/m*3 0.3 C 4.8 km/h
662 06-02-2015 18:05:00 0.3 C 3.41 g/m*3 0.3 C 3.2 km/h
663 06-02-2015 18:10:00 0.2 C 3.44 g/m*3 0.2 C 3.2 km/h
664 06-02-2015 18:15:00 -0.1 C 3.37 g/m*3 -0.1 C 3.2 km/h
665 06-02-2015 18:20:00 -0.1 C 3.37 g/m*3 -0.1 C 3.2 km/h
666 06-02-2015 18:25:00 0.1 C 3.32 g/m*3 -2.65 C 8.1 km/h
667 06-02-2015 18:30:00 0.3 C 3.36 g/m*3 0.3 C 3.2 km/h
668 06-02-2015 18:35:00 0.4 C 3.34 g/m*3 -3.16 C 11.3 km/h
669 06-02-2015 18:40:00 0.4 C 3.34 g/m*3 0.4 C 3.2 km/h
670 06-02-2015 18:45:00 0.3 C 3.26 g/m*3 -3.28 C 11.3 km/h
671 06-02-2015 18:50:00 0.3 C 3.36 g/m*3 0.3 C 3.2 km/h
672 06-02-2015 18:55:00 0.1 C 3.37 g/m*3 0.1 C 3.2 km/h
673 06-02-2015 19:00:00 -0.1 C 3.32 g/m*3 -2.3 C 6.4 km/h
674 06-02-2015 19:05:00 0 C 3.34 g/m*3 0 C 3.2 km/h
675 06-02-2015 19:10:00 -0.1 C 3.37 g/m*3 -0.1 C 3.2 km/h
Sensor: Nr:Datum:Temp:Abs-Feuchte:Windchill:Wind:
Aussen-T/F 676 06-02-2015 19:15:00 -0.2 C 3.39 g/m*3 -0.2 C 3.2 km/h
677 06-02-2015 19:20:00 -0.3 C 3.42 g/m*3 -0.3 C 1.6 km/h
678 06-02-2015 19:25:00 -0.4 C 3.39 g/m*3 -0.4 C 0 km/h
679 06-02-2015 19:30:00 -0.5 C 3.37 g/m*3 -0.5 C 0 km/h
680 06-02-2015 19:35:00 -0.4 C 3.39 g/m*3 -0.4 C 3.2 km/h
681 06-02-2015 19:40:00 -0.4 C 3.44 g/m*3 -0.4 C 3.2 km/h
682 06-02-2015 19:45:00 -0.6 C 3.44 g/m*3 -0.6 C 3.2 km/h
683 06-02-2015 19:50:00 -0.6 C 3.39 g/m*3 -0.6 C 3.2 km/h
684 06-02-2015 19:55:00 -0.6 C 3.44 g/m*3 -0.6 C 3.2 km/h
685 06-02-2015 20:00:00 -0.6 C 3.44 g/m*3 -0.6 C 3.2 km/h
686 06-02-2015 20:05:00 -0.6 C 3.49 g/m*3 -0.6 C 3.2 km/h
687 06-02-2015 20:10:00 -0.7 C 3.46 g/m*3 -0.7 C 3.2 km/h
688 06-02-2015 20:15:00 -0.7 C 3.46 g/m*3 -0.7 C 3.2 km/h
689 06-02-2015 20:20:00 -0.6 C 3.39 g/m*3 -2.88 C 6.4 km/h
690 06-02-2015 20:25:00 -0.4 C 3.44 g/m*3 -0.4 C 3.2 km/h
691 06-02-2015 20:30:00 -0.4 C 3.35 g/m*3 -3.24 C 8.1 km/h
692 06-02-2015 20:35:00 -0.3 C 3.37 g/m*3 -0.3 C 3.2 km/h
693 06-02-2015 20:40:00 -0.3 C 3.42 g/m*3 -0.3 C 3.2 km/h
694 06-02-2015 20:45:00 -0.3 C 3.42 g/m*3 -0.3 C 3.2 km/h
695 06-02-2015 20:50:00 -0.3 C 3.37 g/m*3 -0.3 C 3.2 km/h
696 06-02-2015 20:55:00 -0.3 C 3.42 g/m*3 -0.3 C 4.8 km/h
697 06-02-2015 21:00:00 -0.4 C 3.39 g/m*3 -3.24 C 8.1 km/h
698 06-02-2015 21:05:00 -0.3 C 3.42 g/m*3 -0.3 C 4.8 km/h
699 06-02-2015 21:10:00 -0.3 C 3.42 g/m*3 -0.3 C 3.2 km/h
700 06-02-2015 21:15:00 -0.4 C 3.39 g/m*3 -0.4 C 4.8 km/h
Sensor: Nr:Datum:Temp:Abs-Feuchte:Windchill:Wind:
Aussen-T/F 701 06-02-2015 21:20:00 -0.4 C 3.39 g/m*3 -0.4 C 4.8 km/h
702 06-02-2015 21:25:00 -0.4 C 3.44 g/m*3 -0.4 C 3.2 km/h
703 06-02-2015 21:30:00 -0.4 C 3.44 g/m*3 -0.4 C 3.2 km/h
704 06-02-2015 21:35:00 -0.5 C 3.42 g/m*3 -0.5 C 1.6 km/h
705 06-02-2015 21:40:00 -0.6 C 3.39 g/m*3 -3.48 C 8.1 km/h
706 06-02-2015 21:45:00 -0.6 C 3.39 g/m*3 -3.48 C 8.1 km/h
707 06-02-2015 21:50:00 -0.6 C 3.39 g/m*3 -0.6 C 4.8 km/h
708 06-02-2015 21:55:00 -0.7 C 3.42 g/m*3 -0.7 C 1.6 km/h
709 06-02-2015 22:00:00 -0.8 C 3.39 g/m*3 -0.8 C 3.2 km/h
710 06-02-2015 22:05:00 -0.8 C 3.44 g/m*3 -0.8 C 3.2 km/h
711 06-02-2015 22:10:00 -0.9 C 3.41 g/m*3 -0.9 C 3.2 km/h
712 06-02-2015 22:15:00 -0.9 C 3.41 g/m*3 -0.9 C 3.2 km/h
713 06-02-2015 22:20:00 -0.9 C 3.41 g/m*3 -3.83 C 8.1 km/h
714 06-02-2015 22:25:00 -0.9 C 3.41 g/m*3 -3.22 C 6.4 km/h
715 06-02-2015 22:30:00 -0.9 C 3.41 g/m*3 -0.9 C 4.8 km/h
716 06-02-2015 22:35:00 -0.9 C 3.41 g/m*3 -3.83 C 8.1 km/h
717 06-02-2015 22:40:00 -0.9 C 3.41 g/m*3 -4.31 C 9.7 km/h
718 06-02-2015 22:45:00 -0.9 C 3.41 g/m*3 -3.83 C 8.1 km/h
719 06-02-2015 22:50:00 -0.9 C 3.37 g/m*3 -4.31 C 9.7 km/h
720 06-02-2015 22:55:00 -0.9 C 3.37 g/m*3 -0.9 C 4.8 km/h
721 06-02-2015 23:00:00 -0.9 C 3.37 g/m*3 -3.83 C 8.1 km/h
722 06-02-2015 23:05:00 -1 C 3.35 g/m*3 -1 C 4.8 km/h
723 06-02-2015 23:10:00 -1 C 3.35 g/m*3 -5.22 C 12.9 km/h
724 06-02-2015 23:15:00 -1.1 C 3.32 g/m*3 -4.06 C 8.1 km/h
725 06-02-2015 23:20:00 -1.1 C 3.28 g/m*3 -3.45 C 6.4 km/h
Sensor: Nr:Datum:Temp:Abs-Feuchte:Windchill:Wind:
Aussen-T/F 726 06-02-2015 23:25:00 -1 C 3.3 g/m*3 -3.95 C 8.1 km/h
727 06-02-2015 23:30:00 -1.1 C 3.28 g/m*3 -4.06 C 8.1 km/h
728 06-02-2015 23:35:00 -1.1 C 3.28 g/m*3 -3.45 C 6.4 km/h
729 06-02-2015 23:40:00 -1.1 C 3.28 g/m*3 -4.97 C 11.3 km/h
730 06-02-2015 23:45:00 -1.2 C 3.3 g/m*3 -3.57 C 6.4 km/h
731 06-02-2015 23:50:00 -1.2 C 3.3 g/m*3 -5.09 C 11.3 km/h
732 06-02-2015 23:55:00 -1.3 C 3.28 g/m*3 -1.3 C 3.2 km/h
733 07-02-2015 00:00:00 -1.3 C 3.28 g/m*3 -1.3 C 4.8 km/h
734 07-02-2015 00:05:00 -1.3 C 3.28 g/m*3 -3.68 C 6.4 km/h
735 07-02-2015 00:10:00 -1.4 C 3.25 g/m*3 -4.42 C 8.1 km/h
736 07-02-2015 00:15:00 -1.3 C 3.28 g/m*3 -4.78 C 9.7 km/h
737 07-02-2015 00:20:00 -1.3 C 3.28 g/m*3 -4.78 C 9.7 km/h
738 07-02-2015 00:25:00 -1.3 C 3.23 g/m*3 -4.78 C 9.7 km/h
739 07-02-2015 00:30:00 -1.3 C 3.28 g/m*3 -5.21 C 11.3 km/h
740 07-02-2015 00:35:00 -1.3 C 3.28 g/m*3 -5.58 C 12.9 km/h
741 07-02-2015 00:40:00 -1.3 C 3.28 g/m*3 -6.23 C 16.1 km/h
742 07-02-2015 00:45:00 -1.3 C 3.23 g/m*3 -5.58 C 12.9 km/h
743 07-02-2015 00:50:00 -1.3 C 3.23 g/m*3 -5.21 C 11.3 km/h
744 07-02-2015 00:55:00 -1.4 C 3.21 g/m*3 -4.42 C 8.1 km/h
745 07-02-2015 01:00:00 -1.4 C 3.21 g/m*3 -5.33 C 11.3 km/h
746 07-02-2015 01:05:00 -1.4 C 3.25 g/m*3 -4.9 C 9.7 km/h
747 07-02-2015 01:10:00 -1.5 C 3.23 g/m*3 -1.5 C 4.8 km/h
748 07-02-2015 01:15:00 -1.6 C 3.21 g/m*3 -1.6 C 4.8 km/h
749 07-02-2015 01:20:00 -1.7 C 3.19 g/m*3 -1.7 C 1.6 km/h
750 07-02-2015 01:25:00 -1.7 C 3.23 g/m*3 -4.15 C 6.4 km/h
Sensor: Nr:Datum:Temp:Abs-Feuchte:Windchill:Wind:
Aussen-T/F 751 07-02-2015 01:30:00 -1.8 C 3.21 g/m*3 -4.26 C 6.4 km/h
752 07-02-2015 01:35:00 -1.8 C 3.21 g/m*3 -1.8 C 3.2 km/h
753 07-02-2015 01:40:00 -1.9 C 3.18 g/m*3 -5.5 C 9.7 km/h
754 07-02-2015 01:45:00 -1.9 C 3.23 g/m*3 -1.9 C 1.6 km/h
755 07-02-2015 01:50:00 -1.9 C 3.18 g/m*3 -1.9 C 3.2 km/h
756 07-02-2015 01:55:00 -2 C 3.2 g/m*3 -2 C 1.6 km/h
757 07-02-2015 02:00:00 -2.2 C 3.2 g/m*3 -2.2 C 1.6 km/h
758 07-02-2015 02:05:00 -2.5 C 3.17 g/m*3 -2.5 C 3.2 km/h
759 07-02-2015 02:10:00 -2.7 C 3.17 g/m*3 -2.7 C 4.8 km/h
760 07-02-2015 02:15:00 -2.9 C 3.2 g/m*3 -2.9 C 3.2 km/h
761 07-02-2015 02:20:00 -3 C 3.18 g/m*3 -3 C 3.2 km/h
762 07-02-2015 02:25:00 -3.1 C 3.16 g/m*3 -3.1 C 4.8 km/h
763 07-02-2015 02:30:00 -3.2 C 3.18 g/m*3 -3.2 C 4.8 km/h
764 07-02-2015 02:35:00 -3.2 C 3.18 g/m*3 -3.2 C 4.8 km/h
765 07-02-2015 02:40:00 -3.3 C 3.15 g/m*3 -3.3 C 4.8 km/h
766 07-02-2015 02:45:00 -3.3 C 3.15 g/m*3 -3.3 C 4.8 km/h
767 07-02-2015 02:50:00 -3.3 C 3.15 g/m*3 -3.3 C 4.8 km/h
768 07-02-2015 02:55:00 -3.4 C 3.21 g/m*3 -3.4 C 4.8 km/h
769 07-02-2015 03:00:00 -3.4 C 3.17 g/m*3 -3.4 C 4.8 km/h
770 07-02-2015 03:05:00 -3.4 C 3.17 g/m*3 -3.4 C 3.2 km/h
771 07-02-2015 03:10:00 -3.4 C 3.17 g/m*3 -3.4 C 4.8 km/h
772 07-02-2015 03:15:00 -3.4 C 3.21 g/m*3 -3.4 C 3.2 km/h
773 07-02-2015 03:20:00 -3.4 C 3.21 g/m*3 -6.11 C 6.4 km/h
774 07-02-2015 03:25:00 -3.5 C 3.15 g/m*3 -3.5 C 4.8 km/h
775 07-02-2015 03:30:00 -3.5 C 3.15 g/m*3 -3.5 C 4.8 km/h
Sensor: Nr:Datum:Temp:Abs-Feuchte:Windchill:Wind:
Aussen-T/F 776 07-02-2015 03:35:00 -3.5 C 3.15 g/m*3 -3.5 C 4.8 km/h
777 07-02-2015 03:40:00 -3.5 C 3.18 g/m*3 -3.5 C 4.8 km/h
778 07-02-2015 03:45:00 -3.5 C 3.15 g/m*3 -6.22 C 6.4 km/h
779 07-02-2015 03:50:00 -3.4 C 3.17 g/m*3 -3.4 C 4.8 km/h
780 07-02-2015 03:55:00 -3.3 C 3.19 g/m*3 -3.3 C 4.8 km/h
781 07-02-2015 04:00:00 -3.3 C 3.19 g/m*3 -3.3 C 4.8 km/h
782 07-02-2015 04:05:00 -3.3 C 3.15 g/m*3 -3.3 C 3.2 km/h
783 07-02-2015 04:10:00 -3.4 C 3.13 g/m*3 -3.4 C 4.8 km/h
784 07-02-2015 04:15:00 -3.6 C 3.09 g/m*3 -3.6 C 3.2 km/h
785 07-02-2015 04:20:00 -3.6 C 3.12 g/m*3 -3.6 C 3.2 km/h
786 07-02-2015 04:25:00 -3.7 C 3.1 g/m*3 -3.7 C 4.8 km/h
787 07-02-2015 04:30:00 -3.7 C 3.1 g/m*3 -3.7 C 3.2 km/h
788 07-02-2015 04:35:00 -3.8 C 3.08 g/m*3 -3.8 C 4.8 km/h
789 07-02-2015 04:40:00 -3.8 C 3.04 g/m*3 -3.8 C 4.8 km/h
790 07-02-2015 04:45:00 -3.8 C 3.08 g/m*3 -3.8 C 4.8 km/h
791 07-02-2015 04:50:00 -3.9 C 3.06 g/m*3 -3.9 C 4.8 km/h
792 07-02-2015 04:55:00 -3.9 C 3.09 g/m*3 -3.9 C 4.8 km/h
793 07-02-2015 05:00:00 -3.8 C 3.12 g/m*3 -3.8 C 3.2 km/h
794 07-02-2015 05:05:00 -3.8 C 3.08 g/m*3 -3.8 C 4.8 km/h
795 07-02-2015 05:10:00 -3.8 C 3.12 g/m*3 -3.8 C 3.2 km/h
796 07-02-2015 05:15:00 -3.8 C 3.15 g/m*3 -3.8 C 3.2 km/h
797 07-02-2015 05:20:00 -3.8 C 3.15 g/m*3 -3.8 C 4.8 km/h
798 07-02-2015 05:25:00 -3.8 C 3.12 g/m*3 -3.8 C 4.8 km/h
799 07-02-2015 05:30:00 -3.9 C 3.09 g/m*3 -3.9 C 4.8 km/h
800 07-02-2015 05:35:00 -3.9 C 3.06 g/m*3 -6.69 C 6.4 km/h
Sensor: Nr:Datum:Temp:Abs-Feuchte:Windchill:Wind:
Aussen-T/F 801 07-02-2015 05:40:00 -3.8 C 3.08 g/m*3 -6.57 C 6.4 km/h
802 07-02-2015 05:45:00 -3.8 C 3.08 g/m*3 -3.8 C 4.8 km/h
803 07-02-2015 05:50:00 -3.8 C 3.08 g/m*3 -6.57 C 6.4 km/h
804 07-02-2015 05:55:00 -3.8 C 3.04 g/m*3 -6.57 C 6.4 km/h
805 07-02-2015 06:00:00 -3.8 C 3.04 g/m*3 -6.57 C 6.4 km/h
806 07-02-2015 06:05:00 -3.8 C 3.04 g/m*3 -6.57 C 6.4 km/h
807 07-02-2015 06:10:00 -3.8 C 3.04 g/m*3 -3.8 C 4.8 km/h
808 07-02-2015 06:15:00 -3.8 C 3.08 g/m*3 -3.8 C 4.8 km/h
809 07-02-2015 06:20:00 -3.8 C 3.08 g/m*3 -3.8 C 4.8 km/h
810 07-02-2015 06:25:00 -3.8 C 3.08 g/m*3 -3.8 C 4.8 km/h
811 07-02-2015 06:30:00 -3.9 C 3.06 g/m*3 -3.9 C 4.8 km/h
812 07-02-2015 06:35:00 -3.9 C 3.06 g/m*3 -3.9 C 4.8 km/h
813 07-02-2015 06:40:00 -3.9 C 3.09 g/m*3 -3.9 C 3.2 km/h
814 07-02-2015 06:45:00 -4 C 3.11 g/m*3 -4 C 1.6 km/h
815 07-02-2015 06:50:00 -4.1 C 3.09 g/m*3 -4.1 C 4.8 km/h
816 07-02-2015 06:55:00 -4.1 C 3.09 g/m*3 -4.1 C 3.2 km/h
817 07-02-2015 07:00:00 -4.2 C 3.07 g/m*3 -4.2 C 0 km/h
818 07-02-2015 07:05:00 -4.3 C 3.04 g/m*3 -4.3 C 0 km/h
819 07-02-2015 07:10:00 -4.4 C 3.02 g/m*3 -4.4 C 0 km/h
820 07-02-2015 07:15:00 -4.5 C 3.04 g/m*3 -4.5 C 0 km/h
821 07-02-2015 07:20:00 -4.6 C 3.01 g/m*3 -4.6 C 0 km/h
822 07-02-2015 07:25:00 -4.6 C 3.01 g/m*3 -4.6 C 0 km/h
823 07-02-2015 07:30:00 -4.7 C 2.99 g/m*3 -4.7 C 0 km/h
824 07-02-2015 07:35:00 -4.7 C 3.03 g/m*3 -4.7 C 0 km/h
825 07-02-2015 07:40:00 -4.8 C 3.01 g/m*3 -4.8 C 0 km/h
Sensor: Nr:Datum:Temp:Abs-Feuchte:Windchill:Wind:
Aussen-T/F 826 07-02-2015 07:45:00 -4.9 C 2.98 g/m*3 -4.9 C 0 km/h
827 07-02-2015 07:50:00 -4.9 C 2.98 g/m*3 -4.9 C 0 km/h
828 07-02-2015 07:55:00 -5 C 2.96 g/m*3 -5 C 0 km/h
829 07-02-2015 08:00:00 -5 C 2.96 g/m*3 -5 C 0 km/h
830 07-02-2015 08:05:00 -5.1 C 2.94 g/m*3 -5.1 C 0 km/h
831 07-02-2015 08:10:00 -5.1 C 2.97 g/m*3 -5.1 C 0 km/h
832 07-02-2015 08:15:00 -5.1 C 2.97 g/m*3 -5.1 C 0 km/h
833 07-02-2015 08:20:00 -5.1 C 2.97 g/m*3 -5.1 C 0 km/h
834 07-02-2015 08:25:00 -5 C 3 g/m*3 -5 C 0 km/h
835 07-02-2015 08:30:00 -4.9 C 3.05 g/m*3 -4.9 C 4.8 km/h
836 07-02-2015 08:35:00 -4.9 C 3.05 g/m*3 -4.9 C 0 km/h
837 07-02-2015 08:40:00 -4.8 C 3.07 g/m*3 -4.8 C 0 km/h
838 07-02-2015 08:45:00 -4.8 C 3.04 g/m*3 -4.8 C 0 km/h
839 07-02-2015 08:50:00 -4.8 C 3.04 g/m*3 -4.8 C 0 km/h
840 07-02-2015 08:55:00 -4.8 C 3.04 g/m*3 -4.8 C 0 km/h
841 07-02-2015 09:00:00 -4.8 C 3.04 g/m*3 -4.8 C 0 km/h
842 07-02-2015 09:05:00 -4.7 C 3.06 g/m*3 -4.7 C 1.6 km/h
843 07-02-2015 09:10:00 -4.6 C 3.08 g/m*3 -4.6 C 1.6 km/h
844 07-02-2015 09:15:00 -4.5 C 3.11 g/m*3 -4.5 C 1.6 km/h
845 07-02-2015 09:20:00 -4.5 C 3.11 g/m*3 -4.5 C 0 km/h
846 07-02-2015 09:25:00 -4.5 C 3.11 g/m*3 -4.5 C 1.6 km/h
847 07-02-2015 09:30:00 -4.4 C 3.09 g/m*3 -4.4 C 0 km/h
848 07-02-2015 09:35:00 -4.4 C 3.13 g/m*3 -4.4 C 0 km/h
849 07-02-2015 09:40:00 -4.3 C 3.15 g/m*3 -4.3 C 3.2 km/h
850 07-02-2015 09:45:00 -4.2 C 3.17 g/m*3 -4.2 C 4.8 km/h
Sensor: Nr:Datum:Temp:Abs-Feuchte:Windchill:Wind:
Aussen-T/F 851 07-02-2015 09:50:00 -4.1 C 3.16 g/m*3 -4.1 C 0 km/h
852 07-02-2015 09:55:00 -3.9 C 3.21 g/m*3 -3.9 C 0 km/h
853 07-02-2015 10:00:00 -3.8 C 3.19 g/m*3 -3.8 C 0 km/h
854 07-02-2015 10:05:00 -3.8 C 3.19 g/m*3 -3.8 C 1.6 km/h
855 07-02-2015 10:10:00 -3.6 C 3.24 g/m*3 -3.6 C 3.2 km/h
856 07-02-2015 10:15:00 -3.5 C 3.22 g/m*3 -3.5 C 3.2 km/h
857 07-02-2015 10:20:00 -3.3 C 3.27 g/m*3 -3.3 C 3.2 km/h
858 07-02-2015 10:25:00 -3.2 C 3.29 g/m*3 -3.2 C 3.2 km/h
859 07-02-2015 10:30:00 -3.2 C 3.25 g/m*3 -3.2 C 3.2 km/h
860 07-02-2015 10:35:00 -3.1 C 3.28 g/m*3 -3.1 C 3.2 km/h
861 07-02-2015 10:40:00 -3 C 3.3 g/m*3 -3 C 4.8 km/h
862 07-02-2015 10:45:00 -2.9 C 3.32 g/m*3 -2.9 C 3.2 km/h
863 07-02-2015 10:50:00 -2.9 C 3.32 g/m*3 -2.9 C 0 km/h
864 07-02-2015 10:55:00 -2.8 C 3.39 g/m*3 -2.8 C 3.2 km/h
865 07-02-2015 11:00:00 -2.8 C 3.39 g/m*3 -2.8 C 3.2 km/h
866 07-02-2015 11:05:00 -2.7 C 3.37 g/m*3 -2.7 C 3.2 km/h
867 07-02-2015 11:10:00 -2.6 C 3.39 g/m*3 -2.6 C 3.2 km/h
868 07-02-2015 11:15:00 -2.4 C 3.44 g/m*3 -2.4 C 3.2 km/h
869 07-02-2015 11:20:00 -2.4 C 3.44 g/m*3 -2.4 C 3.2 km/h
870 07-02-2015 11:25:00 -2.3 C 3.47 g/m*3 -2.3 C 4.8 km/h
871 07-02-2015 11:30:00 -2.2 C 3.45 g/m*3 -2.2 C 4.8 km/h
872 07-02-2015 11:35:00 -2 C 3.5 g/m*3 -2 C 3.2 km/h
873 07-02-2015 11:40:00 -1.9 C 3.57 g/m*3 -1.9 C 1.6 km/h
874 07-02-2015 11:45:00 -1.9 C 3.52 g/m*3 -1.9 C 3.2 km/h
875 07-02-2015 11:50:00 -1.8 C 3.46 g/m*3 -4.89 C 8.1 km/h
Sensor: Nr:Datum:Temp:Abs-Feuchte:Windchill:Wind:
Aussen-T/F 876 07-02-2015 11:55:00 -1.4 C 3.47 g/m*3 -3.8 C 6.4 km/h
877 07-02-2015 12:00:00 -1.2 C 3.52 g/m*3 -1.2 C 3.2 km/h
878 07-02-2015 12:05:00 -1.1 C 3.5 g/m*3 -1.1 C 1.6 km/h
879 07-02-2015 12:10:00 -1 C 3.57 g/m*3 -1 C 3.2 km/h
880 07-02-2015 12:15:00 -1.1 C 3.64 g/m*3 -1.1 C 4.8 km/h
881 07-02-2015 12:20:00 -1.1 C 3.64 g/m*3 -1.1 C 3.2 km/h
882 07-02-2015 12:25:00 -1.1 C 3.55 g/m*3 -1.1 C 0 km/h
883 07-02-2015 12:30:00 -0.9 C 3.64 g/m*3 -0.9 C 3.2 km/h
884 07-02-2015 12:35:00 -0.9 C 3.6 g/m*3 -0.9 C 3.2 km/h
885 07-02-2015 12:40:00 -0.8 C 3.67 g/m*3 -0.8 C 3.2 km/h
886 07-02-2015 12:45:00 -0.7 C 3.6 g/m*3 -0.7 C 3.2 km/h
887 07-02-2015 12:50:00 -0.7 C 3.65 g/m*3 -0.7 C 3.2 km/h
888 07-02-2015 12:55:00 -0.6 C 3.72 g/m*3 -0.6 C 4.8 km/h
889 07-02-2015 13:00:00 -0.6 C 3.67 g/m*3 -0.6 C 3.2 km/h
890 07-02-2015 13:05:00 -0.6 C 3.67 g/m*3 -0.6 C 4.8 km/h
891 07-02-2015 13:10:00 -0.5 C 3.74 g/m*3 -0.5 C 3.2 km/h
892 07-02-2015 13:15:00 -0.4 C 3.72 g/m*3 -0.4 C 3.2 km/h
893 07-02-2015 13:20:00 -0.3 C 3.8 g/m*3 -0.3 C 3.2 km/h
894 07-02-2015 13:25:00 -0.2 C 3.82 g/m*3 -0.2 C 4.8 km/h
895 07-02-2015 13:30:00 -0.1 C 3.85 g/m*3 -0.1 C 3.2 km/h
896 07-02-2015 13:35:00 0.1 C 3.81 g/m*3 0.1 C 3.2 km/h
897 07-02-2015 13:40:00 0.3 C 3.91 g/m*3 0.3 C 3.2 km/h
898 07-02-2015 13:45:00 0.4 C 3.84 g/m*3 0.4 C 3.2 km/h
899 07-02-2015 13:50:00 0.6 C 3.84 g/m*3 0.6 C 3.2 km/h
900 07-02-2015 13:55:00 0.8 C 3.94 g/m*3 0.8 C 4.8 km/h
Sensor: Nr:Datum:Temp:Abs-Feuchte:Windchill:Wind:
Aussen-T/F 901 07-02-2015 14:00:00 0.9 C 3.92 g/m*3 0.9 C 4.8 km/h
902 07-02-2015 14:05:00 1.1 C 4.02 g/m*3 1.1 C 4.8 km/h
903 07-02-2015 14:10:00 1.3 C 3.92 g/m*3 1.3 C 3.2 km/h
904 07-02-2015 14:15:00 1.5 C 4.08 g/m*3 1.5 C 4.8 km/h
905 07-02-2015 14:20:00 1.6 C 4.11 g/m*3 1.6 C 3.2 km/h
906 07-02-2015 14:25:00 1.7 C 4.08 g/m*3 1.7 C 3.2 km/h
907 07-02-2015 14:30:00 1.8 C 4.06 g/m*3 1.8 C 3.2 km/h
908 07-02-2015 14:35:00 1.9 C 4.03 g/m*3 1.9 C 4.8 km/h
909 07-02-2015 14:40:00 2.1 C 4.08 g/m*3 2.1 C 3.2 km/h
910 07-02-2015 14:45:00 2.2 C 4.06 g/m*3 2.2 C 4.8 km/h
911 07-02-2015 14:50:00 2.3 C 4.08 g/m*3 2.3 C 3.2 km/h
912 07-02-2015 14:55:00 2.4 C 4.17 g/m*3 2.4 C 4.8 km/h
913 07-02-2015 15:00:00 2.3 C 4.08 g/m*3 2.3 C 3.2 km/h
914 07-02-2015 15:05:00 2.3 C 4.08 g/m*3 2.3 C 4.8 km/h
915 07-02-2015 15:10:00 2.4 C 4.23 g/m*3 2.4 C 4.8 km/h
916 07-02-2015 15:15:00 2.4 C 4.11 g/m*3 2.4 C 4.8 km/h
917 07-02-2015 15:20:00 2.4 C 4.17 g/m*3 2.4 C 4.8 km/h
918 07-02-2015 15:25:00 2.5 C 4.08 g/m*3 2.5 C 3.2 km/h
919 07-02-2015 15:30:00 2.5 C 4.2 g/m*3 2.5 C 3.2 km/h
920 07-02-2015 15:35:00 2.4 C 4.23 g/m*3 2.4 C 4.8 km/h
921 07-02-2015 15:40:00 2.4 C 3.94 g/m*3 2.4 C 3.2 km/h
922 07-02-2015 15:45:00 2.7 C 4.14 g/m*3 2.7 C 3.2 km/h
923 07-02-2015 15:50:00 2.6 C 3.94 g/m*3 2.6 C 4.8 km/h
924 07-02-2015 15:55:00 2.9 C 3.9 g/m*3 2.9 C 4.8 km/h
925 07-02-2015 16:00:00 3.1 C 4.01 g/m*3 1.4 C 6.4 km/h
Sensor: Nr:Datum:Temp:Abs-Feuchte:Windchill:Wind:
Aussen-T/F 926 07-02-2015 16:05:00 3 C 4.04 g/m*3 1.28 C 6.4 km/h
927 07-02-2015 16:10:00 3.1 C 3.83 g/m*3 -0.77 C 16.1 km/h
928 07-02-2015 16:15:00 3.4 C 3.85 g/m*3 0.14 C 12.9 km/h
929 07-02-2015 16:20:00 3.6 C 3.84 g/m*3 1.46 C 8.1 km/h
930 07-02-2015 16:25:00 3.7 C 3.8 g/m*3 1.58 C 8.1 km/h
931 07-02-2015 16:30:00 3.7 C 3.68 g/m*3 1.18 C 9.7 km/h
932 07-02-2015 16:35:00 3.8 C 3.58 g/m*3 -0.14 C 17.7 km/h
933 07-02-2015 16:40:00 3.8 C 3.58 g/m*3 0.35 C 14.5 km/h
934 07-02-2015 16:45:00 3.7 C 3.55 g/m*3 1.58 C 8.1 km/h
935 07-02-2015 16:50:00 3.7 C 3.55 g/m*3 -0.03 C 16.1 km/h
936 07-02-2015 16:55:00 3.7 C 3.55 g/m*3 1.18 C 9.7 km/h
937 07-02-2015 17:00:00 3.6 C 3.53 g/m*3 1.98 C 6.4 km/h
938 07-02-2015 17:05:00 3.4 C 3.54 g/m*3 1.23 C 8.1 km/h
939 07-02-2015 17:10:00 3.4 C 3.66 g/m*3 1.23 C 8.1 km/h
940 07-02-2015 17:15:00 3.2 C 3.86 g/m*3 3.2 C 3.2 km/h
941 07-02-2015 17:20:00 2.9 C 3.78 g/m*3 2.9 C 4.8 km/h
942 07-02-2015 17:25:00 2.7 C 3.85 g/m*3 2.7 C 4.8 km/h
943 07-02-2015 17:30:00 2.3 C 3.86 g/m*3 2.3 C 3.2 km/h
944 07-02-2015 17:35:00 2.1 C 3.97 g/m*3 2.1 C 1.6 km/h
945 07-02-2015 17:40:00 1.6 C 3.89 g/m*3 1.6 C 3.2 km/h
946 07-02-2015 17:45:00 1.3 C 3.92 g/m*3 1.3 C 4.8 km/h
947 07-02-2015 17:50:00 1.1 C 3.92 g/m*3 1.1 C 1.6 km/h
948 07-02-2015 17:55:00 1 C 4 g/m*3 1 C 1.6 km/h
949 07-02-2015 18:00:00 1 C 3.94 g/m*3 1 C 3.2 km/h
950 07-02-2015 18:05:00 1.3 C 4.08 g/m*3 1.3 C 3.2 km/h
Sensor: Nr:Datum:Temp:Abs-Feuchte:Windchill:Wind:
Aussen-T/F 951 07-02-2015 18:10:00 1.7 C 4.14 g/m*3 1.7 C 4.8 km/h
952 07-02-2015 18:15:00 1.9 C 4.14 g/m*3 1.9 C 4.8 km/h
953 07-02-2015 18:20:00 2.2 C 4.28 g/m*3 2.2 C 3.2 km/h
954 07-02-2015 18:25:00 2.3 C 4.2 g/m*3 2.3 C 3.2 km/h
955 07-02-2015 18:30:00 2.3 C 4.25 g/m*3 2.3 C 1.6 km/h
956 07-02-2015 18:35:00 2.3 C 4.25 g/m*3 2.3 C 4.8 km/h
957 07-02-2015 18:40:00 2.3 C 4.31 g/m*3 2.3 C 1.6 km/h
958 07-02-2015 18:45:00 2.3 C 4.31 g/m*3 2.3 C 0 km/h
959 07-02-2015 18:50:00 2.3 C 4.25 g/m*3 2.3 C 3.2 km/h
960 07-02-2015 18:55:00 2.3 C 4.25 g/m*3 2.3 C 3.2 km/h
961 07-02-2015 19:00:00 2.4 C 4.23 g/m*3 0.59 C 6.4 km/h
962 07-02-2015 19:05:00 2.6 C 4.28 g/m*3 0.29 C 8.1 km/h
963 07-02-2015 19:10:00 2.8 C 4.34 g/m*3 2.8 C 4.8 km/h
964 07-02-2015 19:15:00 2.8 C 4.28 g/m*3 2.8 C 4.8 km/h
965 07-02-2015 19:20:00 2.9 C 4.37 g/m*3 2.9 C 4.8 km/h
966 07-02-2015 19:25:00 2.9 C 4.37 g/m*3 2.9 C 3.2 km/h
967 07-02-2015 19:30:00 2.8 C 4.46 g/m*3 2.8 C 4.8 km/h
968 07-02-2015 19:35:00 2.7 C 4.49 g/m*3 2.7 C 3.2 km/h
969 07-02-2015 19:40:00 2.6 C 4.51 g/m*3 2.6 C 3.2 km/h
970 07-02-2015 19:45:00 2.6 C 4.51 g/m*3 2.6 C 3.2 km/h
971 07-02-2015 19:50:00 2.6 C 4.57 g/m*3 2.6 C 4.8 km/h
972 07-02-2015 19:55:00 2.6 C 4.57 g/m*3 2.6 C 4.8 km/h
973 07-02-2015 20:00:00 2.7 C 4.6 g/m*3 0.4 C 8.1 km/h
974 07-02-2015 20:05:00 2.7 C 4.66 g/m*3 -0.38 C 11.3 km/h
975 07-02-2015 20:10:00 2.8 C 4.75 g/m*3 -0.26 C 11.3 km/h
Sensor: Nr:Datum:Temp:Abs-Feuchte:Windchill:Wind:
Aussen-T/F 976 07-02-2015 20:15:00 2.8 C 4.81 g/m*3 2.8 C 4.8 km/h
977 07-02-2015 20:20:00 2.8 C 4.87 g/m*3 1.05 C 6.4 km/h
978 07-02-2015 20:25:00 2.7 C 4.89 g/m*3 2.7 C 4.8 km/h
979 07-02-2015 20:30:00 2.7 C 4.89 g/m*3 0.4 C 8.1 km/h
980 07-02-2015 20:35:00 2.7 C 5.01 g/m*3 0.4 C 8.1 km/h
981 07-02-2015 20:40:00 2.6 C 4.98 g/m*3 2.6 C 3.2 km/h
982 07-02-2015 20:45:00 2.6 C 4.98 g/m*3 2.6 C 1.6 km/h
983 07-02-2015 20:50:00 2.5 C 5 g/m*3 0.71 C 6.4 km/h
984 07-02-2015 20:55:00 2.5 C 5.06 g/m*3 2.5 C 4.8 km/h
985 07-02-2015 21:00:00 2.6 C 5.15 g/m*3 -0.5 C 11.3 km/h
986 07-02-2015 21:05:00 2.6 C 5.21 g/m*3 0.82 C 6.4 km/h
987 07-02-2015 21:10:00 2.6 C 5.21 g/m*3 0.29 C 8.1 km/h
988 07-02-2015 21:15:00 2.6 C 5.21 g/m*3 0.82 C 6.4 km/h
989 07-02-2015 21:20:00 2.6 C 5.27 g/m*3 0.82 C 6.4 km/h
990 07-02-2015 21:25:00 2.6 C 5.27 g/m*3 2.6 C 4.8 km/h
991 07-02-2015 21:30:00 2.6 C 5.27 g/m*3 2.6 C 4.8 km/h
992 07-02-2015 21:35:00 2.7 C 5.36 g/m*3 0.94 C 6.4 km/h
993 07-02-2015 21:40:00 2.7 C 5.36 g/m*3 2.7 C 0 km/h
994 07-02-2015 21:45:00 2.7 C 5.36 g/m*3 2.7 C 3.2 km/h
995 07-02-2015 21:50:00 2.7 C 5.42 g/m*3 2.7 C 3.2 km/h
996 07-02-2015 21:55:00 2.7 C 5.42 g/m*3 2.7 C 3.2 km/h
997 07-02-2015 22:00:00 2.7 C 5.42 g/m*3 0.94 C 6.4 km/h
998 07-02-2015 22:05:00 2.7 C 5.48 g/m*3 0.94 C 6.4 km/h
999 07-02-2015 22:10:00 2.7 C 5.48 g/m*3 2.7 C 3.2 km/h
1000 07-02-2015 22:15:00 2.7 C 5.48 g/m*3 2.7 C 3.2 km/h
Sensor: Nr:Datum:Temp:Abs-Feuchte:Windchill:Wind:
Aussen-T/F 1001 07-02-2015 22:20:00 2.7 C 5.48 g/m*3 2.7 C 3.2 km/h
1002 07-02-2015 22:25:00 2.7 C 5.48 g/m*3 0.94 C 6.4 km/h
1003 07-02-2015 22:30:00 2.7 C 5.48 g/m*3 0.94 C 6.4 km/h
1004 07-02-2015 22:35:00 2.7 C 5.48 g/m*3 2.7 C 3.2 km/h
1005 07-02-2015 22:40:00 2.7 C 5.48 g/m*3 2.7 C 4.8 km/h
1006 07-02-2015 22:45:00 2.9 C 5.55 g/m*3 0.64 C 8.1 km/h
1007 07-02-2015 22:50:00 2.9 C 5.55 g/m*3 2.9 C 4.8 km/h
1008 07-02-2015 22:55:00 3 C 5.59 g/m*3 0.34 C 9.7 km/h
1009 07-02-2015 23:00:00 3 C 5.59 g/m*3 0.34 C 9.7 km/h
1010 07-02-2015 23:05:00 3.1 C 5.63 g/m*3 0.46 C 9.7 km/h
1011 07-02-2015 23:10:00 3.1 C 5.63 g/m*3 0.1 C 11.3 km/h
1012 07-02-2015 23:15:00 3.1 C 5.63 g/m*3 0.87 C 8.1 km/h
1013 07-02-2015 23:20:00 3.2 C 5.66 g/m*3 0.58 C 9.7 km/h
1014 07-02-2015 23:25:00 3.2 C 5.66 g/m*3 0.58 C 9.7 km/h
1015 07-02-2015 23:30:00 3.2 C 5.72 g/m*3 -0.39 C 14.5 km/h
1016 07-02-2015 23:35:00 3.2 C 5.72 g/m*3 -0.1 C 12.9 km/h
1017 07-02-2015 23:40:00 3.3 C 5.76 g/m*3 0.02 C 12.9 km/h
1018 07-02-2015 23:45:00 3.3 C 5.7 g/m*3 0.7 C 9.7 km/h
1019 07-02-2015 23:50:00 3.3 C 5.7 g/m*3 1.11 C 8.1 km/h
1020 07-02-2015 23:55:00 3.3 C 5.7 g/m*3 1.11 C 8.1 km/h
1021 08-02-2015 00:00:00 3.4 C 5.74 g/m*3 0.46 C 11.3 km/h
1022 08-02-2015 00:05:00 3.4 C 5.74 g/m*3 1.75 C 6.4 km/h
1023 08-02-2015 00:10:00 3.4 C 5.74 g/m*3 0.46 C 11.3 km/h
1024 08-02-2015 00:15:00 3.4 C 5.74 g/m*3 0.82 C 9.7 km/h
1025 08-02-2015 00:20:00 3.4 C 5.74 g/m*3 1.75 C 6.4 km/h
Sensor: Nr:Datum:Temp:Abs-Feuchte:Windchill:Wind:
Aussen-T/F 1026 08-02-2015 00:25:00 3.4 C 5.74 g/m*3 0.46 C 11.3 km/h
1027 08-02-2015 00:30:00 3.4 C 5.74 g/m*3 1.75 C 6.4 km/h
1028 08-02-2015 00:35:00 3.5 C 5.78 g/m*3 1.86 C 6.4 km/h
1029 08-02-2015 00:40:00 3.5 C 5.78 g/m*3 1.34 C 8.1 km/h
1030 08-02-2015 00:45:00 3.6 C 5.82 g/m*3 1.06 C 9.7 km/h
1031 08-02-2015 00:50:00 3.7 C 5.86 g/m*3 1.18 C 9.7 km/h
1032 08-02-2015 00:55:00 3.7 C 5.86 g/m*3 3.7 C 4.8 km/h
1033 08-02-2015 01:00:00 3.8 C 5.9 g/m*3 0.63 C 12.9 km/h
1034 08-02-2015 01:05:00 3.8 C 5.83 g/m*3 0.35 C 14.5 km/h
1035 08-02-2015 01:10:00 3.9 C 5.94 g/m*3 0.75 C 12.9 km/h
1036 08-02-2015 01:15:00 3.9 C 5.87 g/m*3 3.9 C 4.8 km/h
1037 08-02-2015 01:20:00 3.8 C 5.83 g/m*3 0.63 C 12.9 km/h
1038 08-02-2015 01:25:00 3.9 C 5.87 g/m*3 0.22 C 16.1 km/h
1039 08-02-2015 01:30:00 3.9 C 5.87 g/m*3 1.41 C 9.7 km/h
1040 08-02-2015 01:35:00 3.9 C 5.87 g/m*3 1.82 C 8.1 km/h
1041 08-02-2015 01:40:00 3.9 C 5.87 g/m*3 1.41 C 9.7 km/h
1042 08-02-2015 01:45:00 3.9 C 5.87 g/m*3 3.9 C 4.8 km/h
1043 08-02-2015 01:50:00 3.9 C 5.81 g/m*3 1.06 C 11.3 km/h
1044 08-02-2015 01:55:00 3.9 C 5.87 g/m*3 1.82 C 8.1 km/h
1045 08-02-2015 02:00:00 3.9 C 5.87 g/m*3 1.41 C 9.7 km/h
1046 08-02-2015 02:05:00 4 C 5.85 g/m*3 1.53 C 9.7 km/h
1047 08-02-2015 02:10:00 4.1 C 5.89 g/m*3 0.72 C 14.5 km/h
1048 08-02-2015 02:15:00 4.1 C 5.89 g/m*3 2.05 C 8.1 km/h
1049 08-02-2015 02:20:00 4.1 C 5.89 g/m*3 1.65 C 9.7 km/h
1050 08-02-2015 02:25:00 4.1 C 5.82 g/m*3 4.1 C 3.2 km/h
Sensor: Nr:Datum:Temp:Abs-Feuchte:Windchill:Wind:
Aussen-T/F 1051 08-02-2015 02:30:00 3.9 C 5.81 g/m*3 1.82 C 8.1 km/h
1052 08-02-2015 02:35:00 3.9 C 5.81 g/m*3 2.32 C 6.4 km/h
1053 08-02-2015 02:40:00 3.8 C 5.77 g/m*3 3.8 C 4.8 km/h
1054 08-02-2015 02:45:00 3.9 C 5.87 g/m*3 2.32 C 6.4 km/h
1055 08-02-2015 02:50:00 3.9 C 5.87 g/m*3 1.82 C 8.1 km/h
1056 08-02-2015 02:55:00 3.9 C 5.87 g/m*3 1.82 C 8.1 km/h
1057 08-02-2015 03:00:00 3.9 C 5.87 g/m*3 1.82 C 8.1 km/h
1058 08-02-2015 03:05:00 3.8 C 5.83 g/m*3 0.94 C 11.3 km/h
1059 08-02-2015 03:10:00 3.8 C 5.83 g/m*3 2.21 C 6.4 km/h
1060 08-02-2015 03:15:00 3.7 C 5.8 g/m*3 3.7 C 4.8 km/h
1061 08-02-2015 03:20:00 3.7 C 5.8 g/m*3 3.7 C 3.2 km/h
1062 08-02-2015 03:25:00 3.6 C 5.76 g/m*3 3.6 C 4.8 km/h
1063 08-02-2015 03:30:00 3.6 C 5.76 g/m*3 3.6 C 3.2 km/h
1064 08-02-2015 03:35:00 3.5 C 5.72 g/m*3 3.5 C 4.8 km/h
1065 08-02-2015 03:40:00 3.5 C 5.78 g/m*3 3.5 C 4.8 km/h
1066 08-02-2015 03:45:00 3.6 C 5.82 g/m*3 0.7 C 11.3 km/h
1067 08-02-2015 03:50:00 3.7 C 5.86 g/m*3 1.18 C 9.7 km/h
1068 08-02-2015 03:55:00 3.8 C 5.83 g/m*3 0.63 C 12.9 km/h
1069 08-02-2015 04:00:00 3.9 C 5.81 g/m*3 1.82 C 8.1 km/h
1070 08-02-2015 04:05:00 4 C 5.79 g/m*3 1.53 C 9.7 km/h
1071 08-02-2015 04:10:00 4.1 C 5.82 g/m*3 1.65 C 9.7 km/h
1072 08-02-2015 04:15:00 4.2 C 5.8 g/m*3 -0.05 C 20.9 km/h
1073 08-02-2015 04:20:00 4.2 C 5.8 g/m*3 1.12 C 12.9 km/h
1074 08-02-2015 04:25:00 4.2 C 5.73 g/m*3 1.12 C 12.9 km/h
1075 08-02-2015 04:30:00 4.2 C 5.67 g/m*3 1.77 C 9.7 km/h
Sensor: Nr:Datum:Temp:Abs-Feuchte:Windchill:Wind:
Aussen-T/F 1076 08-02-2015 04:35:00 4.2 C 5.67 g/m*3 1.12 C 12.9 km/h
1077 08-02-2015 04:40:00 4.2 C 5.61 g/m*3 0.15 C 19.3 km/h
1078 08-02-2015 04:45:00 4.2 C 5.61 g/m*3 1.12 C 12.9 km/h
1079 08-02-2015 04:50:00 4.2 C 5.61 g/m*3 0.84 C 14.5 km/h
1080 08-02-2015 04:55:00 4.2 C 5.61 g/m*3 1.77 C 9.7 km/h
1081 08-02-2015 05:00:00 4.2 C 5.54 g/m*3 1.12 C 12.9 km/h
1082 08-02-2015 05:05:00 4.3 C 5.58 g/m*3 0.97 C 14.5 km/h
1083 08-02-2015 05:10:00 4.3 C 5.58 g/m*3 2.29 C 8.1 km/h
1084 08-02-2015 05:15:00 4.2 C 5.54 g/m*3 1.77 C 9.7 km/h
1085 08-02-2015 05:20:00 4.3 C 5.58 g/m*3 0.97 C 14.5 km/h
1086 08-02-2015 05:25:00 4.3 C 5.58 g/m*3 1.24 C 12.9 km/h
1087 08-02-2015 05:30:00 4.3 C 5.51 g/m*3 1.24 C 12.9 km/h
1088 08-02-2015 05:35:00 4.3 C 5.51 g/m*3 0.49 C 17.7 km/h
1089 08-02-2015 05:40:00 4.3 C 5.51 g/m*3 0.07 C 20.9 km/h
1090 08-02-2015 05:45:00 4.3 C 5.51 g/m*3 0.27 C 19.3 km/h
1091 08-02-2015 05:50:00 4.4 C 5.48 g/m*3 0.84 C 16.1 km/h
1092 08-02-2015 05:55:00 4.3 C 5.45 g/m*3 1.55 C 11.3 km/h
1093 08-02-2015 06:00:00 4.3 C 5.45 g/m*3 1.24 C 12.9 km/h
1094 08-02-2015 06:05:00 4.3 C 5.38 g/m*3 0.97 C 14.5 km/h
1095 08-02-2015 06:10:00 4.3 C 5.38 g/m*3 1.55 C 11.3 km/h
1096 08-02-2015 06:15:00 4.3 C 5.38 g/m*3 1.24 C 12.9 km/h
1097 08-02-2015 06:20:00 4.2 C 5.35 g/m*3 1.77 C 9.7 km/h
1098 08-02-2015 06:25:00 4.3 C 5.38 g/m*3 1.89 C 9.7 km/h
1099 08-02-2015 06:30:00 4.3 C 5.38 g/m*3 0.97 C 14.5 km/h
1100 08-02-2015 06:35:00 4.3 C 5.38 g/m*3 0.72 C 16.1 km/h
Sensor: Nr:Datum:Temp:Abs-Feuchte:Windchill:Wind:
Aussen-T/F 1101 08-02-2015 06:40:00 4.2 C 5.35 g/m*3 2.17 C 8.1 km/h
1102 08-02-2015 06:45:00 4.2 C 5.41 g/m*3 2.67 C 6.4 km/h
1103 08-02-2015 06:50:00 4.2 C 5.41 g/m*3 1.12 C 12.9 km/h
1104 08-02-2015 06:55:00 4.2 C 5.41 g/m*3 1.77 C 9.7 km/h
1105 08-02-2015 07:00:00 4.2 C 5.41 g/m*3 2.67 C 6.4 km/h
1106 08-02-2015 07:05:00 4.1 C 5.44 g/m*3 2.05 C 8.1 km/h
1107 08-02-2015 07:10:00 4.1 C 5.44 g/m*3 2.05 C 8.1 km/h
1108 08-02-2015 07:15:00 4.1 C 5.5 g/m*3 -0.18 C 20.9 km/h
1109 08-02-2015 07:20:00 3.8 C 5.46 g/m*3 -0.36 C 19.3 km/h
1110 08-02-2015 07:25:00 3.7 C 5.48 g/m*3 0.23 C 14.5 km/h
1111 08-02-2015 07:30:00 3.5 C 5.41 g/m*3 -0.51 C 17.7 km/h
1112 08-02-2015 07:35:00 3.4 C 5.37 g/m*3 -0.4 C 16.1 km/h
1113 08-02-2015 07:40:00 3.2 C 5.3 g/m*3 0.99 C 8.1 km/h
1114 08-02-2015 07:45:00 3.2 C 5.3 g/m*3 0.99 C 8.1 km/h
1115 08-02-2015 07:50:00 3.1 C 5.27 g/m*3 0.87 C 8.1 km/h
1116 08-02-2015 07:55:00 3.1 C 5.21 g/m*3 3.1 C 3.2 km/h
1117 08-02-2015 08:00:00 3.1 C 5.21 g/m*3 0.87 C 8.1 km/h
1118 08-02-2015 08:05:00 3.1 C 5.15 g/m*3 3.1 C 4.8 km/h
1119 08-02-2015 08:10:00 3.2 C 5.18 g/m*3 -0.1 C 12.9 km/h
1120 08-02-2015 08:15:00 3.3 C 5.16 g/m*3 -1.19 C 20.9 km/h
1121 08-02-2015 08:20:00 3.3 C 5.1 g/m*3 -0.52 C 16.1 km/h
1122 08-02-2015 08:25:00 3.4 C 5.19 g/m*3 0.14 C 12.9 km/h
1123 08-02-2015 08:30:00 3.3 C 5.16 g/m*3 0.34 C 11.3 km/h
1124 08-02-2015 08:35:00 3.3 C 5.16 g/m*3 0.34 C 11.3 km/h
1125 08-02-2015 08:40:00 3.3 C 5.16 g/m*3 3.3 C 4.8 km/h
Sensor: Nr:Datum:Temp:Abs-Feuchte:Windchill:Wind:
Aussen-T/F 1126 08-02-2015 08:45:00 3.3 C 5.22 g/m*3 3.3 C 3.2 km/h
1127 08-02-2015 08:50:00 3.3 C 5.16 g/m*3 3.3 C 4.8 km/h
1128 08-02-2015 08:55:00 3.3 C 5.16 g/m*3 1.63 C 6.4 km/h
1129 08-02-2015 09:00:00 3.3 C 5.16 g/m*3 1.63 C 6.4 km/h
1130 08-02-2015 09:05:00 3.3 C 5.1 g/m*3 1.63 C 6.4 km/h
1131 08-02-2015 09:10:00 3.4 C 5.07 g/m*3 -0.4 C 16.1 km/h
1132 08-02-2015 09:15:00 3.5 C 5.1 g/m*3 0.94 C 9.7 km/h
1133 08-02-2015 09:20:00 3.6 C 5.08 g/m*3 1.06 C 9.7 km/h
1134 08-02-2015 09:25:00 3.6 C 5.01 g/m*3 0.7 C 11.3 km/h
1135 08-02-2015 09:30:00 3.7 C 5.05 g/m*3 1.58 C 8.1 km/h
1136 08-02-2015 09:35:00 3.7 C 4.99 g/m*3 3.7 C 4.8 km/h
1137 08-02-2015 09:40:00 3.7 C 4.99 g/m*3 0.82 C 11.3 km/h
1138 08-02-2015 09:45:00 3.7 C 5.05 g/m*3 -0.03 C 16.1 km/h
1139 08-02-2015 09:50:00 3.6 C 5.08 g/m*3 0.39 C 12.9 km/h
1140 08-02-2015 09:55:00 3.6 C 5.14 g/m*3 0.39 C 12.9 km/h
1141 08-02-2015 10:00:00 3.5 C 5.16 g/m*3 -0.28 C 16.1 km/h
1142 08-02-2015 10:05:00 3.4 C 5.19 g/m*3 -0.14 C 14.5 km/h
1143 08-02-2015 10:10:00 3.4 C 5.25 g/m*3 0.46 C 11.3 km/h
1144 08-02-2015 10:15:00 3.4 C 5.25 g/m*3 -0.14 C 14.5 km/h
1145 08-02-2015 10:20:00 3.3 C 5.22 g/m*3 0.7 C 9.7 km/h
1146 08-02-2015 10:25:00 3.2 C 5.24 g/m*3 -0.1 C 12.9 km/h
1147 08-02-2015 10:30:00 3.1 C 5.27 g/m*3 0.87 C 8.1 km/h
1148 08-02-2015 10:35:00 3.1 C 5.33 g/m*3 0.1 C 11.3 km/h
1149 08-02-2015 10:40:00 3.2 C 5.36 g/m*3 0.99 C 8.1 km/h
1150 08-02-2015 10:45:00 3.3 C 5.34 g/m*3 -1.19 C 20.9 km/h
Sensor: Nr:Datum:Temp:Abs-Feuchte:Windchill:Wind:
Aussen-T/F 1151 08-02-2015 10:50:00 3.4 C 5.31 g/m*3 -0.86 C 19.3 km/h
1152 08-02-2015 10:55:00 3.6 C 5.32 g/m*3 -1.19 C 24.1 km/h
1153 08-02-2015 11:00:00 3.7 C 5.17 g/m*3 -0.26 C 17.7 km/h
1154 08-02-2015 11:05:00 3.8 C 5.21 g/m*3 -0.93 C 24.1 km/h
1155 08-02-2015 11:10:00 3.9 C 5.12 g/m*3 -0.01 C 17.7 km/h
1156 08-02-2015 11:15:00 4.1 C 5.18 g/m*3 0.02 C 19.3 km/h
1157 08-02-2015 11:20:00 4.2 C 5.15 g/m*3 0.15 C 19.3 km/h
1158 08-02-2015 11:25:00 4.1 C 5.06 g/m*3 -0.18 C 20.9 km/h
1159 08-02-2015 11:30:00 4 C 5.02 g/m*3 -0.11 C 19.3 km/h
1160 08-02-2015 11:35:00 3.9 C 4.99 g/m*3 -0.43 C 20.9 km/h
1161 08-02-2015 11:40:00 3.9 C 4.99 g/m*3 -0.43 C 20.9 km/h
1162 08-02-2015 11:45:00 3.9 C 4.99 g/m*3 0.47 C 14.5 km/h
1163 08-02-2015 11:50:00 3.9 C 4.99 g/m*3 -0.43 C 20.9 km/h
1164 08-02-2015 11:55:00 3.8 C 4.96 g/m*3 -0.56 C 20.9 km/h
1165 08-02-2015 12:00:00 3.8 C 4.96 g/m*3 0.35 C 14.5 km/h
1166 08-02-2015 12:05:00 3.8 C 4.96 g/m*3 0.1 C 16.1 km/h
1167 08-02-2015 12:10:00 3.9 C 4.93 g/m*3 -0.8 C 24.1 km/h
1168 08-02-2015 12:15:00 3.9 C 4.86 g/m*3 -0.01 C 17.7 km/h
1169 08-02-2015 12:20:00 4 C 4.83 g/m*3 0.34 C 16.1 km/h
1170 08-02-2015 12:25:00 4.1 C 4.8 g/m*3 -0.18 C 20.9 km/h
1171 08-02-2015 12:30:00 4.1 C 4.86 g/m*3 0.02 C 19.3 km/h
1172 08-02-2015 12:35:00 4.2 C 4.96 g/m*3 1.12 C 12.9 km/h
1173 08-02-2015 12:40:00 4.2 C 4.9 g/m*3 1.43 C 11.3 km/h
1174 08-02-2015 12:45:00 4.3 C 4.86 g/m*3 0.72 C 16.1 km/h
1175 08-02-2015 12:50:00 4.5 C 4.73 g/m*3 0.52 C 19.3 km/h
Sensor: Nr:Datum:Temp:Abs-Feuchte:Windchill:Wind:
Aussen-T/F 1176 08-02-2015 12:55:00 4.6 C 4.57 g/m*3 0.65 C 19.3 km/h
1177 08-02-2015 13:00:00 4.6 C 4.63 g/m*3 0.86 C 17.7 km/h
1178 08-02-2015 13:05:00 4.5 C 4.54 g/m*3 0.96 C 16.1 km/h
1179 08-02-2015 13:10:00 4.5 C 4.54 g/m*3 1.21 C 14.5 km/h
1180 08-02-2015 13:15:00 4.6 C 4.5 g/m*3 0.45 C 20.9 km/h
1181 08-02-2015 13:20:00 4.7 C 4.6 g/m*3 0.58 C 20.9 km/h
1182 08-02-2015 13:25:00 4.8 C 4.56 g/m*3 0.52 C 22.5 km/h
1183 08-02-2015 13:30:00 4.8 C 4.49 g/m*3 1.11 C 17.7 km/h
1184 08-02-2015 13:35:00 4.7 C 4.4 g/m*3 1.73 C 12.9 km/h
1185 08-02-2015 13:40:00 4.8 C 4.56 g/m*3 1.58 C 14.5 km/h
1186 08-02-2015 13:45:00 4.9 C 4.52 g/m*3 0.83 C 20.9 km/h
1187 08-02-2015 13:50:00 4.9 C 4.46 g/m*3 0.65 C 22.5 km/h
1188 08-02-2015 13:55:00 4.8 C 4.49 g/m*3 1.34 C 16.1 km/h
1189 08-02-2015 14:00:00 4.9 C 4.59 g/m*3 1.24 C 17.7 km/h
1190 08-02-2015 14:05:00 5 C 4.48 g/m*3 0.78 C 22.5 km/h
1191 08-02-2015 14:10:00 4.9 C 4.46 g/m*3 0.83 C 20.9 km/h
1192 08-02-2015 14:15:00 4.8 C 4.43 g/m*3 1.58 C 14.5 km/h
1193 08-02-2015 14:20:00 4.7 C 4.46 g/m*3 0.78 C 19.3 km/h
1194 08-02-2015 14:25:00 4.8 C 4.49 g/m*3 1.11 C 17.7 km/h
1195 08-02-2015 14:30:00 4.9 C 4.46 g/m*3 0.83 C 20.9 km/h
1196 08-02-2015 14:35:00 5 C 4.48 g/m*3 0.78 C 22.5 km/h
1197 08-02-2015 14:40:00 5 C 4.28 g/m*3 1.15 C 19.3 km/h
1198 08-02-2015 14:45:00 4.9 C 4.25 g/m*3 0.65 C 22.5 km/h
1199 08-02-2015 14:50:00 4.9 C 4.32 g/m*3 1.46 C 16.1 km/h
1200 08-02-2015 14:55:00 4.9 C 4.32 g/m*3 1.24 C 17.7 km/h
Sensor: Nr:Datum:Temp:Abs-Feuchte:Windchill:Wind:
Aussen-T/F 1201 08-02-2015 15:00:00 4.8 C 4.22 g/m*3 1.11 C 17.7 km/h
1202 08-02-2015 15:05:00 4.9 C 4.19 g/m*3 1.46 C 16.1 km/h
1203 08-02-2015 15:10:00 5 C 4.28 g/m*3 1.15 C 19.3 km/h
1204 08-02-2015 15:15:00 5.1 C 4.31 g/m*3 2.22 C 12.9 km/h
1205 08-02-2015 15:20:00 5.1 C 4.17 g/m*3 0.74 C 24.1 km/h
1206 08-02-2015 15:25:00 4.9 C 4.19 g/m*3 0.83 C 20.9 km/h
1207 08-02-2015 15:30:00 4.8 C 4.16 g/m*3 0.71 C 20.9 km/h
1208 08-02-2015 15:35:00 4.8 C 4.09 g/m*3 1.11 C 17.7 km/h
1209 08-02-2015 15:40:00 4.7 C 4 g/m*3 1.46 C 14.5 km/h
1210 08-02-2015 15:45:00 4.6 C 3.97 g/m*3 1.34 C 14.5 km/h
1211 08-02-2015 15:50:00 4.5 C 3.94 g/m*3 0.96 C 16.1 km/h
1212 08-02-2015 15:55:00 4.5 C 4.01 g/m*3 0.96 C 16.1 km/h
1213 08-02-2015 16:00:00 4.4 C 3.98 g/m*3 0.61 C 17.7 km/h
1214 08-02-2015 16:05:00 4.4 C 3.92 g/m*3 1.09 C 14.5 km/h
1215 08-02-2015 16:10:00 4.4 C 3.92 g/m*3 0.84 C 16.1 km/h
1216 08-02-2015 16:15:00 4.3 C 3.89 g/m*3 1.55 C 11.3 km/h
1217 08-02-2015 16:20:00 4.3 C 3.89 g/m*3 0.72 C 16.1 km/h
1218 08-02-2015 16:25:00 4.3 C 3.89 g/m*3 1.55 C 11.3 km/h
1219 08-02-2015 16:30:00 4.3 C 3.89 g/m*3 0.27 C 19.3 km/h
1220 08-02-2015 16:35:00 4.2 C 3.87 g/m*3 0.15 C 19.3 km/h
1221 08-02-2015 16:40:00 4.2 C 3.93 g/m*3 1.43 C 11.3 km/h
1222 08-02-2015 16:45:00 4.1 C 3.9 g/m*3 1.31 C 11.3 km/h
1223 08-02-2015 16:50:00 3.9 C 3.92 g/m*3 0.75 C 12.9 km/h
1224 08-02-2015 16:55:00 3.9 C 3.92 g/m*3 2.32 C 6.4 km/h
1225 08-02-2015 17:00:00 3.8 C 3.89 g/m*3 1.7 C 8.1 km/h
Sensor: Nr:Datum:Temp:Abs-Feuchte:Windchill:Wind:
Aussen-T/F 1226 08-02-2015 17:05:00 3.7 C 4.05 g/m*3 3.7 C 4.8 km/h
1227 08-02-2015 17:10:00 3.4 C 4.09 g/m*3 3.4 C 4.8 km/h
1228 08-02-2015 17:15:00 3.3 C 4.13 g/m*3 1.63 C 6.4 km/h
1229 08-02-2015 17:20:00 3.3 C 4.13 g/m*3 1.63 C 6.4 km/h
1230 08-02-2015 17:25:00 3.2 C 4.22 g/m*3 3.2 C 1.6 km/h
1231 08-02-2015 17:30:00 2.9 C 4.19 g/m*3 0.64 C 8.1 km/h
1232 08-02-2015 17:35:00 2.9 C 4.25 g/m*3 1.17 C 6.4 km/h
1233 08-02-2015 17:40:00 2.9 C 4.25 g/m*3 2.9 C 3.2 km/h
1234 08-02-2015 17:45:00 2.9 C 4.19 g/m*3 2.9 C 4.8 km/h
1235 08-02-2015 17:50:00 2.7 C 4.31 g/m*3 2.7 C 3.2 km/h
1236 08-02-2015 17:55:00 2.5 C 4.31 g/m*3 2.5 C 1.6 km/h
1237 08-02-2015 18:00:00 2.2 C 4.28 g/m*3 2.2 C 1.6 km/h
1238 08-02-2015 18:05:00 2.1 C 4.25 g/m*3 2.1 C 3.2 km/h
1239 08-02-2015 18:10:00 1.9 C 4.25 g/m*3 1.9 C 3.2 km/h
1240 08-02-2015 18:15:00 1.7 C 4.19 g/m*3 1.7 C 3.2 km/h
1241 08-02-2015 18:20:00 1.6 C 4.22 g/m*3 1.6 C 3.2 km/h
1242 08-02-2015 18:25:00 1.4 C 4.21 g/m*3 1.4 C 3.2 km/h
1243 08-02-2015 18:30:00 1.3 C 4.24 g/m*3 1.3 C 3.2 km/h
1244 08-02-2015 18:35:00 1.2 C 4.26 g/m*3 1.2 C 3.2 km/h
1245 08-02-2015 18:40:00 1.1 C 4.29 g/m*3 1.1 C 3.2 km/h
1246 08-02-2015 18:45:00 1 C 4.26 g/m*3 1 C 3.2 km/h
1247 08-02-2015 18:50:00 1 C 4.26 g/m*3 1 C 3.2 km/h
1248 08-02-2015 18:55:00 1.1 C 4.29 g/m*3 1.1 C 3.2 km/h
1249 08-02-2015 19:00:00 1.2 C 4.26 g/m*3 1.2 C 3.2 km/h
1250 08-02-2015 19:05:00 1.3 C 4.29 g/m*3 1.3 C 3.2 km/h
Sensor: Nr:Datum:Temp:Abs-Feuchte:Windchill:Wind:
Aussen-T/F 1251 08-02-2015 19:10:00 1.3 C 4.29 g/m*3 1.3 C 3.2 km/h
1252 08-02-2015 19:15:00 1.3 C 4.29 g/m*3 1.3 C 1.6 km/h
1253 08-02-2015 19:20:00 1.2 C 4.26 g/m*3 1.2 C 3.2 km/h
1254 08-02-2015 19:25:00 1.1 C 4.29 g/m*3 1.1 C 4.8 km/h
1255 08-02-2015 19:30:00 0.9 C 4.28 g/m*3 0.9 C 4.8 km/h
1256 08-02-2015 19:35:00 0.9 C 4.28 g/m*3 0.9 C 1.6 km/h
1257 08-02-2015 19:40:00 1.2 C 4.26 g/m*3 1.2 C 3.2 km/h
1258 08-02-2015 19:45:00 1.3 C 4.24 g/m*3 1.3 C 3.2 km/h
1259 08-02-2015 19:50:00 1.3 C 4.24 g/m*3 1.3 C 4.8 km/h
1260 08-02-2015 19:55:00 1.3 C 4.19 g/m*3 1.3 C 4.8 km/h
1261 08-02-2015 20:00:00 1.3 C 4.24 g/m*3 1.3 C 3.2 km/h
1262 08-02-2015 20:05:00 1.1 C 4.23 g/m*3 1.1 C 3.2 km/h
1263 08-02-2015 20:10:00 1 C 4.31 g/m*3 1 C 3.2 km/h
1264 08-02-2015 20:15:00 0.9 C 4.23 g/m*3 0.9 C 1.6 km/h
1265 08-02-2015 20:20:00 0.7 C 4.17 g/m*3 0.7 C 3.2 km/h
1266 08-02-2015 20:25:00 0.7 C 4.22 g/m*3 0.7 C 4.8 km/h
1267 08-02-2015 20:30:00 0.6 C 4.24 g/m*3 0.6 C 1.6 km/h
1268 08-02-2015 20:35:00 0.5 C 4.21 g/m*3 0.5 C 1.6 km/h
1269 08-02-2015 20:40:00 0.4 C 4.23 g/m*3 0.4 C 3.2 km/h
1270 08-02-2015 20:45:00 0.3 C 4.25 g/m*3 0.3 C 1.6 km/h
1271 08-02-2015 20:50:00 0.2 C 4.22 g/m*3 0.2 C 1.6 km/h
1272 08-02-2015 20:55:00 0.1 C 4.2 g/m*3 0.1 C 4.8 km/h
1273 08-02-2015 21:00:00 0.1 C 4.24 g/m*3 0.1 C 3.2 km/h
1274 08-02-2015 21:05:00 0.1 C 4.24 g/m*3 0.1 C 1.6 km/h
1275 08-02-2015 21:10:00 0.1 C 4.29 g/m*3 0.1 C 1.6 km/h
Sensor: Nr:Datum:Temp:Abs-Feuchte:Windchill:Wind:
Aussen-T/F 1276 08-02-2015 21:15:00 0.1 C 4.29 g/m*3 0.1 C 3.2 km/h
1277 08-02-2015 21:20:00 0.1 C 4.29 g/m*3 0.1 C 1.6 km/h
1278 08-02-2015 21:25:00 0.1 C 4.29 g/m*3 0.1 C 1.6 km/h
1279 08-02-2015 21:30:00 0.1 C 4.29 g/m*3 0.1 C 1.6 km/h
1280 08-02-2015 21:35:00 0.1 C 4.29 g/m*3 0.1 C 3.2 km/h
1281 08-02-2015 21:40:00 0.1 C 4.29 g/m*3 -2.07 C 6.4 km/h
1282 08-02-2015 21:45:00 0.2 C 4.32 g/m*3 0.2 C 1.6 km/h
1283 08-02-2015 21:50:00 0.2 C 4.37 g/m*3 0.2 C 1.6 km/h
1284 08-02-2015 21:55:00 0.3 C 4.4 g/m*3 0.3 C 1.6 km/h
1285 08-02-2015 22:00:00 0.4 C 4.38 g/m*3 0.4 C 3.2 km/h
1286 08-02-2015 22:05:00 0.4 C 4.38 g/m*3 0.4 C 3.2 km/h
1287 08-02-2015 22:10:00 0.5 C 4.41 g/m*3 0.5 C 3.2 km/h
1288 08-02-2015 22:15:00 0.6 C 4.44 g/m*3 0.6 C 4.8 km/h
1289 08-02-2015 22:20:00 0.6 C 4.44 g/m*3 0.6 C 0 km/h
1290 08-02-2015 22:25:00 0.6 C 4.44 g/m*3 0.6 C 0 km/h
1291 08-02-2015 22:30:00 0.7 C 4.53 g/m*3 0.7 C 3.2 km/h
1292 08-02-2015 22:35:00 0.7 C 4.53 g/m*3 0.7 C 3.2 km/h
1293 08-02-2015 22:40:00 0.8 C 4.51 g/m*3 0.8 C 3.2 km/h
1294 08-02-2015 22:45:00 0.8 C 4.51 g/m*3 0.8 C 0 km/h
1295 08-02-2015 22:50:00 0.8 C 4.51 g/m*3 0.8 C 0 km/h
1296 08-02-2015 22:55:00 0.9 C 4.54 g/m*3 0.9 C 1.6 km/h
1297 08-02-2015 23:00:00 1 C 4.62 g/m*3 1 C 1.6 km/h
1298 08-02-2015 23:05:00 1.1 C 4.6 g/m*3 1.1 C 4.8 km/h
1299 08-02-2015 23:10:00 1.1 C 4.6 g/m*3 1.1 C 0 km/h
1300 08-02-2015 23:15:00 1.1 C 4.6 g/m*3 1.1 C 4.8 km/h
Sensor: Nr:Datum:Temp:Abs-Feuchte:Windchill:Wind:
Aussen-T/F 1301 08-02-2015 23:20:00 1.2 C 4.68 g/m*3 1.2 C 3.2 km/h
1302 08-02-2015 23:25:00 1.3 C 4.72 g/m*3 1.3 C 3.2 km/h
1303 08-02-2015 23:30:00 1.3 C 4.66 g/m*3 -0.68 C 6.4 km/h
1304 08-02-2015 23:35:00 1.3 C 4.61 g/m*3 1.3 C 4.8 km/h
1305 08-02-2015 23:40:00 1.4 C 4.69 g/m*3 1.4 C 3.2 km/h
1306 08-02-2015 23:45:00 1.4 C 4.69 g/m*3 1.4 C 1.6 km/h
1307 08-02-2015 23:50:00 1.5 C 4.67 g/m*3 1.5 C 4.8 km/h
1308 08-02-2015 23:55:00 1.6 C 4.7 g/m*3 1.6 C 3.2 km/h
1309 09-02-2015 00:00:00 1.5 C 4.67 g/m*3 1.5 C 3.2 km/h
1310 09-02-2015 00:05:00 1.5 C 4.67 g/m*3 1.5 C 1.6 km/h
1311 09-02-2015 00:10:00 1.5 C 4.67 g/m*3 1.5 C 1.6 km/h
1312 09-02-2015 00:15:00 1.4 C 4.64 g/m*3 1.4 C 3.2 km/h
1313 09-02-2015 00:20:00 1.4 C 4.64 g/m*3 1.4 C 3.2 km/h
1314 09-02-2015 00:25:00 1.4 C 4.64 g/m*3 1.4 C 0 km/h
1315 09-02-2015 00:30:00 1.4 C 4.69 g/m*3 1.4 C 1.6 km/h
1316 09-02-2015 00:35:00 1.4 C 4.69 g/m*3 1.4 C 0 km/h
1317 09-02-2015 00:40:00 1.4 C 4.69 g/m*3 1.4 C 0 km/h
1318 09-02-2015 00:45:00 1.4 C 4.69 g/m*3 1.4 C 3.2 km/h
1319 09-02-2015 00:50:00 1.4 C 4.69 g/m*3 1.4 C 0 km/h
1320 09-02-2015 00:55:00 1.4 C 4.69 g/m*3 1.4 C 0 km/h
1321 09-02-2015 01:00:00 1.4 C 4.75 g/m*3 1.4 C 0 km/h
1322 09-02-2015 01:05:00 1.4 C 4.75 g/m*3 1.4 C 1.6 km/h
1323 09-02-2015 01:10:00 1.4 C 4.75 g/m*3 1.4 C 1.6 km/h
1324 09-02-2015 01:15:00 1.5 C 4.78 g/m*3 1.5 C 0 km/h
1325 09-02-2015 01:20:00 1.5 C 4.78 g/m*3 1.5 C 1.6 km/h
Sensor: Nr:Datum:Temp:Abs-Feuchte:Windchill:Wind:
Aussen-T/F 1326 09-02-2015 01:25:00 1.4 C 4.75 g/m*3 1.4 C 0 km/h
1327 09-02-2015 01:30:00 1.4 C 4.75 g/m*3 1.4 C 0 km/h
1328 09-02-2015 01:35:00 1.5 C 4.78 g/m*3 1.5 C 0 km/h
1329 09-02-2015 01:40:00 1.6 C 4.87 g/m*3 1.6 C 3.2 km/h
1330 09-02-2015 01:45:00 1.6 C 4.87 g/m*3 1.6 C 4.8 km/h
1331 09-02-2015 01:50:00 1.7 C 4.85 g/m*3 1.7 C 3.2 km/h
1332 09-02-2015 01:55:00 1.7 C 4.9 g/m*3 1.7 C 0 km/h
1333 09-02-2015 02:00:00 1.7 C 4.9 g/m*3 1.7 C 0 km/h
1334 09-02-2015 02:05:00 1.7 C 4.9 g/m*3 1.7 C 1.6 km/h
1335 09-02-2015 02:10:00 1.7 C 4.9 g/m*3 1.7 C 1.6 km/h
1336 09-02-2015 02:15:00 1.7 C 4.9 g/m*3 1.7 C 1.6 km/h
1337 09-02-2015 02:20:00 1.7 C 4.9 g/m*3 1.7 C 3.2 km/h
1338 09-02-2015 02:25:00 1.7 C 4.9 g/m*3 1.7 C 1.6 km/h
1339 09-02-2015 02:30:00 1.7 C 4.9 g/m*3 1.7 C 0 km/h
1340 09-02-2015 02:35:00 1.7 C 4.9 g/m*3 1.7 C 1.6 km/h
1341 09-02-2015 02:40:00 1.7 C 4.9 g/m*3 1.7 C 1.6 km/h
1342 09-02-2015 02:45:00 1.7 C 4.9 g/m*3 1.7 C 0 km/h
1343 09-02-2015 02:50:00 1.7 C 4.9 g/m*3 1.7 C 0 km/h
1344 09-02-2015 02:55:00 1.7 C 4.9 g/m*3 1.7 C 1.6 km/h
1345 09-02-2015 03:00:00 1.7 C 4.9 g/m*3 1.7 C 1.6 km/h
1346 09-02-2015 03:05:00 1.7 C 4.9 g/m*3 1.7 C 3.2 km/h
1347 09-02-2015 03:10:00 1.8 C 4.93 g/m*3 1.8 C 0 km/h
1348 09-02-2015 03:15:00 1.8 C 4.99 g/m*3 1.8 C 1.6 km/h
1349 09-02-2015 03:20:00 1.8 C 4.93 g/m*3 1.8 C 3.2 km/h
1350 09-02-2015 03:25:00 1.8 C 4.93 g/m*3 1.8 C 0 km/h
Sensor: Nr:Datum:Temp:Abs-Feuchte:Windchill:Wind:
Aussen-T/F 1351 09-02-2015 03:30:00 1.8 C 4.93 g/m*3 1.8 C 0 km/h
1352 09-02-2015 03:35:00 1.7 C 4.9 g/m*3 1.7 C 1.6 km/h
1353 09-02-2015 03:40:00 1.7 C 4.9 g/m*3 1.7 C 4.8 km/h
1354 09-02-2015 03:45:00 1.9 C 5.08 g/m*3 1.9 C 4.8 km/h
1355 09-02-2015 03:50:00 2.1 C 5.09 g/m*3 2.1 C 4.8 km/h
1356 09-02-2015 03:55:00 2.1 C 5.04 g/m*3 2.1 C 3.2 km/h
1357 09-02-2015 04:00:00 2.2 C 5.13 g/m*3 2.2 C 1.6 km/h
1358 09-02-2015 04:05:00 2.3 C 5.16 g/m*3 2.3 C 4.8 km/h
1359 09-02-2015 04:10:00 2.4 C 5.2 g/m*3 2.4 C 3.2 km/h
1360 09-02-2015 04:15:00 2.5 C 5.29 g/m*3 2.5 C 3.2 km/h
1361 09-02-2015 04:20:00 2.6 C 5.27 g/m*3 0.82 C 6.4 km/h
1362 09-02-2015 04:25:00 2.5 C 5.23 g/m*3 2.5 C 4.8 km/h
1363 09-02-2015 04:30:00 2.5 C 5.23 g/m*3 2.5 C 4.8 km/h
1364 09-02-2015 04:35:00 2.4 C 5.2 g/m*3 2.4 C 1.6 km/h
1365 09-02-2015 04:40:00 2.4 C 5.25 g/m*3 2.4 C 3.2 km/h
1366 09-02-2015 04:45:00 2.4 C 5.25 g/m*3 2.4 C 1.6 km/h
1367 09-02-2015 04:50:00 2.4 C 5.25 g/m*3 2.4 C 1.6 km/h
1368 09-02-2015 04:55:00 2.4 C 5.25 g/m*3 2.4 C 4.8 km/h
1369 09-02-2015 05:00:00 2.4 C 5.25 g/m*3 2.4 C 3.2 km/h
1370 09-02-2015 05:05:00 2.4 C 5.25 g/m*3 2.4 C 3.2 km/h
1371 09-02-2015 05:10:00 2.4 C 5.25 g/m*3 2.4 C 0 km/h
1372 09-02-2015 05:15:00 2.3 C 5.22 g/m*3 2.3 C 4.8 km/h
1373 09-02-2015 05:20:00 2.3 C 5.22 g/m*3 2.3 C 1.6 km/h
1374 09-02-2015 05:25:00 2.3 C 5.27 g/m*3 2.3 C 1.6 km/h
1375 09-02-2015 05:30:00 2.3 C 5.27 g/m*3 2.3 C 4.8 km/h
Sensor: Nr:Datum:Temp:Abs-Feuchte:Windchill:Wind:
Aussen-T/F 1376 09-02-2015 05:35:00 2.3 C 5.27 g/m*3 2.3 C 1.6 km/h
1377 09-02-2015 05:40:00 2.3 C 5.27 g/m*3 2.3 C 1.6 km/h
1378 09-02-2015 05:45:00 2.4 C 5.31 g/m*3 2.4 C 1.6 km/h
1379 09-02-2015 05:50:00 2.4 C 5.31 g/m*3 2.4 C 3.2 km/h
1380 09-02-2015 05:55:00 2.5 C 5.35 g/m*3 2.5 C 3.2 km/h
1381 09-02-2015 06:00:00 2.5 C 5.35 g/m*3 2.5 C 3.2 km/h
1382 09-02-2015 06:05:00 2.5 C 5.35 g/m*3 2.5 C 3.2 km/h
1383 09-02-2015 06:10:00 2.6 C 5.38 g/m*3 2.6 C 4.8 km/h
1384 09-02-2015 06:15:00 2.6 C 5.32 g/m*3 2.6 C 1.6 km/h
1385 09-02-2015 06:20:00 2.6 C 5.32 g/m*3 2.6 C 3.2 km/h
1386 09-02-2015 06:25:00 2.7 C 5.36 g/m*3 0.94 C 6.4 km/h
1387 09-02-2015 06:30:00 2.8 C 5.34 g/m*3 2.8 C 3.2 km/h
1388 09-02-2015 06:35:00 2.9 C 5.37 g/m*3 2.9 C 1.6 km/h
1389 09-02-2015 06:40:00 2.9 C 5.32 g/m*3 2.9 C 1.6 km/h
1390 09-02-2015 06:45:00 2.9 C 5.32 g/m*3 2.9 C 1.6 km/h
1391 09-02-2015 06:50:00 2.9 C 5.32 g/m*3 2.9 C 0 km/h
1392 09-02-2015 06:55:00 2.8 C 5.34 g/m*3 2.8 C 3.2 km/h
1393 09-02-2015 07:00:00 2.8 C 5.34 g/m*3 2.8 C 1.6 km/h
1394 09-02-2015 07:05:00 2.8 C 5.34 g/m*3 2.8 C 1.6 km/h
1395 09-02-2015 07:10:00 2.8 C 5.34 g/m*3 2.8 C 4.8 km/h
1396 09-02-2015 07:15:00 2.8 C 5.34 g/m*3 2.8 C 3.2 km/h
1397 09-02-2015 07:20:00 2.9 C 5.37 g/m*3 2.9 C 1.6 km/h
1398 09-02-2015 07:25:00 3.1 C 5.45 g/m*3 0.87 C 8.1 km/h
1399 09-02-2015 07:30:00 3.3 C 5.52 g/m*3 1.11 C 8.1 km/h
1400 09-02-2015 07:35:00 3.6 C 5.57 g/m*3 1.98 C 6.4 km/h
Sensor: Nr:Datum:Temp:Abs-Feuchte:Windchill:Wind:
Aussen-T/F 1401 09-02-2015 07:40:00 3.7 C 5.61 g/m*3 1.58 C 8.1 km/h
1402 09-02-2015 07:45:00 4.1 C 5.76 g/m*3 1 C 12.9 km/h
1403 09-02-2015 07:50:00 4.3 C 5.77 g/m*3 1.89 C 9.7 km/h
1404 09-02-2015 07:55:00 4.3 C 5.77 g/m*3 1.24 C 12.9 km/h
1405 09-02-2015 08:00:00 4.4 C 5.81 g/m*3 1.67 C 11.3 km/h
1406 09-02-2015 08:05:00 4.3 C 5.77 g/m*3 1.89 C 9.7 km/h
1407 09-02-2015 08:10:00 4.3 C 5.77 g/m*3 1.89 C 9.7 km/h
1408 09-02-2015 08:15:00 4.3 C 5.77 g/m*3 2.29 C 8.1 km/h
1409 09-02-2015 08:20:00 4.2 C 5.73 g/m*3 4.2 C 4.8 km/h
1410 09-02-2015 08:25:00 4.2 C 5.67 g/m*3 1.77 C 9.7 km/h
1411 09-02-2015 08:30:00 4.2 C 5.67 g/m*3 2.17 C 8.1 km/h
1412 09-02-2015 08:35:00 4.3 C 5.64 g/m*3 0.97 C 14.5 km/h
1413 09-02-2015 08:40:00 4.3 C 5.64 g/m*3 0.97 C 14.5 km/h
1414 09-02-2015 08:45:00 4.4 C 5.68 g/m*3 0.84 C 16.1 km/h
1415 09-02-2015 08:50:00 4.4 C 5.62 g/m*3 0.84 C 16.1 km/h
1416 09-02-2015 08:55:00 4.4 C 5.62 g/m*3 4.4 C 4.8 km/h
1417 09-02-2015 09:00:00 4.5 C 5.65 g/m*3 1.79 C 11.3 km/h
1418 09-02-2015 09:05:00 4.6 C 5.69 g/m*3 2.25 C 9.7 km/h
1419 09-02-2015 09:10:00 4.6 C 5.62 g/m*3 2.64 C 8.1 km/h
1420 09-02-2015 09:15:00 4.6 C 5.62 g/m*3 3.13 C 6.4 km/h
1421 09-02-2015 09:20:00 4.7 C 5.6 g/m*3 3.25 C 6.4 km/h
1422 09-02-2015 09:25:00 4.7 C 5.6 g/m*3 2.76 C 8.1 km/h
1423 09-02-2015 09:30:00 4.7 C 5.6 g/m*3 2.37 C 9.7 km/h
1424 09-02-2015 09:35:00 4.7 C 5.6 g/m*3 2.76 C 8.1 km/h
1425 09-02-2015 09:40:00 4.7 C 5.6 g/m*3 4.7 C 4.8 km/h
Sensor: Nr:Datum:Temp:Abs-Feuchte:Windchill:Wind:
Aussen-T/F 1426 09-02-2015 09:45:00 4.7 C 5.6 g/m*3 2.37 C 9.7 km/h
1427 09-02-2015 09:50:00 4.7 C 5.6 g/m*3 2.76 C 8.1 km/h
1428 09-02-2015 09:55:00 4.7 C 5.6 g/m*3 2.37 C 9.7 km/h
1429 09-02-2015 10:00:00 4.8 C 5.63 g/m*3 2.87 C 8.1 km/h
1430 09-02-2015 10:05:00 4.8 C 5.63 g/m*3 2.15 C 11.3 km/h
1431 09-02-2015 10:10:00 4.9 C 5.67 g/m*3 2.99 C 8.1 km/h
1432 09-02-2015 10:15:00 4.9 C 5.74 g/m*3 3.48 C 6.4 km/h
1433 09-02-2015 10:20:00 4.9 C 5.74 g/m*3 2.61 C 9.7 km/h
1434 09-02-2015 10:25:00 4.9 C 5.81 g/m*3 2.61 C 9.7 km/h
1435 09-02-2015 10:30:00 4.9 C 5.81 g/m*3 3.48 C 6.4 km/h
1436 09-02-2015 10:35:00 4.9 C 5.87 g/m*3 2.99 C 8.1 km/h
1437 09-02-2015 10:40:00 4.9 C 5.94 g/m*3 3.48 C 6.4 km/h
1438 09-02-2015 10:45:00 4.8 C 5.9 g/m*3 3.36 C 6.4 km/h
1439 09-02-2015 10:50:00 4.7 C 5.93 g/m*3 2.37 C 9.7 km/h
1440 09-02-2015 10:55:00 4.7 C 5.93 g/m*3 4.7 C 4.8 km/h
1441 09-02-2015 11:00:00 4.7 C 6 g/m*3 2.76 C 8.1 km/h
1442 09-02-2015 11:05:00 4.6 C 5.96 g/m*3 3.13 C 6.4 km/h
1443 09-02-2015 11:10:00 4.6 C 6.02 g/m*3 3.13 C 6.4 km/h
1444 09-02-2015 11:15:00 4.6 C 6.02 g/m*3 2.64 C 8.1 km/h
1445 09-02-2015 11:20:00 4.7 C 6.06 g/m*3 4.7 C 4.8 km/h
1446 09-02-2015 11:25:00 4.7 C 6.06 g/m*3 4.7 C 4.8 km/h
1447 09-02-2015 11:30:00 4.8 C 6.04 g/m*3 2.87 C 8.1 km/h
1448 09-02-2015 11:35:00 4.8 C 6.04 g/m*3 4.8 C 4.8 km/h
1449 09-02-2015 11:40:00 4.8 C 6.04 g/m*3 3.36 C 6.4 km/h
1450 09-02-2015 11:45:00 4.8 C 5.97 g/m*3 3.36 C 6.4 km/h
Sensor: Nr:Datum:Temp:Abs-Feuchte:Windchill:Wind:
Aussen-T/F 1451 09-02-2015 11:50:00 4.9 C 6.08 g/m*3 2.99 C 8.1 km/h
1452 09-02-2015 11:55:00 5 C 6.05 g/m*3 2.39 C 11.3 km/h
1453 09-02-2015 12:00:00 5.1 C 6.09 g/m*3 2.84 C 9.7 km/h
1454 09-02-2015 12:05:00 5.1 C 6.09 g/m*3 3.71 C 6.4 km/h
1455 09-02-2015 12:10:00 5.2 C 6.13 g/m*3 5.2 C 4.8 km/h
1456 09-02-2015 12:15:00 5.3 C 6.17 g/m*3 5.3 C 4.8 km/h
1457 09-02-2015 12:20:00 5.4 C 6.21 g/m*3 4.06 C 6.4 km/h
1458 09-02-2015 12:25:00 5.6 C 6.29 g/m*3 3.44 C 9.7 km/h
1459 09-02-2015 12:30:00 5.7 C 6.26 g/m*3 3.56 C 9.7 km/h
1460 09-02-2015 12:35:00 5.8 C 6.3 g/m*3 3.07 C 12.9 km/h
1461 09-02-2015 12:40:00 5.8 C 6.3 g/m*3 3.07 C 12.9 km/h
1462 09-02-2015 12:45:00 5.8 C 6.3 g/m*3 4.05 C 8.1 km/h
1463 09-02-2015 12:50:00 5.8 C 6.3 g/m*3 4.52 C 6.4 km/h
1464 09-02-2015 12:55:00 5.9 C 6.42 g/m*3 3.48 C 11.3 km/h
1465 09-02-2015 13:00:00 5.9 C 6.35 g/m*3 2.93 C 14.5 km/h
1466 09-02-2015 13:05:00 5.9 C 6.42 g/m*3 3.19 C 12.9 km/h
1467 09-02-2015 13:10:00 5.9 C 6.42 g/m*3 3.8 C 9.7 km/h
1468 09-02-2015 13:15:00 5.9 C 6.35 g/m*3 5.9 C 4.8 km/h
1469 09-02-2015 13:20:00 5.9 C 6.35 g/m*3 4.17 C 8.1 km/h
1470 09-02-2015 13:25:00 5.9 C 6.35 g/m*3 5.9 C 3.2 km/h
1471 09-02-2015 13:30:00 5.8 C 6.38 g/m*3 3.36 C 11.3 km/h
1472 09-02-2015 13:35:00 5.8 C 6.38 g/m*3 3.36 C 11.3 km/h
1473 09-02-2015 13:40:00 5.7 C 6.33 g/m*3 2.45 C 16.1 km/h
1474 09-02-2015 13:45:00 5.7 C 6.33 g/m*3 3.93 C 8.1 km/h
1475 09-02-2015 13:50:00 5.7 C 6.33 g/m*3 2.95 C 12.9 km/h
Sensor: Nr:Datum:Temp:Abs-Feuchte:Windchill:Wind:
Aussen-T/F 1476 09-02-2015 13:55:00 5.8 C 6.38 g/m*3 3.07 C 12.9 km/h
1477 09-02-2015 14:00:00 5.8 C 6.3 g/m*3 4.05 C 8.1 km/h
1478 09-02-2015 14:05:00 5.8 C 6.38 g/m*3 5.8 C 3.2 km/h
1479 09-02-2015 14:10:00 5.8 C 6.38 g/m*3 3.68 C 9.7 km/h
1480 09-02-2015 14:15:00 5.7 C 6.33 g/m*3 2.95 C 12.9 km/h
1481 09-02-2015 14:20:00 5.7 C 6.4 g/m*3 3.56 C 9.7 km/h
1482 09-02-2015 14:25:00 5.6 C 6.36 g/m*3 3.81 C 8.1 km/h
1483 09-02-2015 14:30:00 5.4 C 6.35 g/m*3 3.2 C 9.7 km/h
1484 09-02-2015 14:35:00 5.4 C 6.35 g/m*3 4.06 C 6.4 km/h
1485 09-02-2015 14:40:00 5.3 C 6.31 g/m*3 5.3 C 4.8 km/h
1486 09-02-2015 14:45:00 5.3 C 6.31 g/m*3 5.3 C 3.2 km/h
1487 09-02-2015 14:50:00 5.3 C 6.31 g/m*3 5.3 C 1.6 km/h
1488 09-02-2015 14:55:00 5.3 C 6.31 g/m*3 3.94 C 6.4 km/h
1489 09-02-2015 15:00:00 5.3 C 6.31 g/m*3 3.08 C 9.7 km/h
1490 09-02-2015 15:05:00 5.3 C 6.31 g/m*3 3.94 C 6.4 km/h
1491 09-02-2015 15:10:00 5.3 C 6.31 g/m*3 3.46 C 8.1 km/h
1492 09-02-2015 15:15:00 5.3 C 6.31 g/m*3 3.08 C 9.7 km/h
1493 09-02-2015 15:20:00 5.3 C 6.31 g/m*3 3.08 C 9.7 km/h
1494 09-02-2015 15:25:00 5.3 C 6.31 g/m*3 5.3 C 4.8 km/h
1495 09-02-2015 15:30:00 5.3 C 6.38 g/m*3 5.3 C 4.8 km/h
1496 09-02-2015 15:35:00 5.2 C 6.33 g/m*3 5.2 C 4.8 km/h
1497 09-02-2015 15:40:00 5.2 C 6.33 g/m*3 5.2 C 4.8 km/h
1498 09-02-2015 15:45:00 5.2 C 6.33 g/m*3 3.82 C 6.4 km/h
1499 09-02-2015 15:50:00 5.2 C 6.4 g/m*3 5.2 C 0 km/h
1500 09-02-2015 15:55:00 5.1 C 6.36 g/m*3 5.1 C 4.8 km/h
Sensor: Nr:Datum:Temp:Abs-Feuchte:Windchill:Wind:
Aussen-T/F 1501 09-02-2015 16:00:00 5.1 C 6.36 g/m*3 5.1 C 4.8 km/h
1502 09-02-2015 16:05:00 5.1 C 6.36 g/m*3 5.1 C 4.8 km/h
1503 09-02-2015 16:10:00 5.1 C 6.36 g/m*3 3.71 C 6.4 km/h
1504 09-02-2015 16:15:00 5.1 C 6.36 g/m*3 2.51 C 11.3 km/h
1505 09-02-2015 16:20:00 5.1 C 6.36 g/m*3 5.1 C 3.2 km/h
1506 09-02-2015 16:25:00 5.1 C 6.36 g/m*3 5.1 C 3.2 km/h
1507 09-02-2015 16:30:00 5.1 C 6.36 g/m*3 5.1 C 1.6 km/h
1508 09-02-2015 16:35:00 5.1 C 6.36 g/m*3 5.1 C 3.2 km/h
1509 09-02-2015 16:40:00 5 C 6.32 g/m*3 5 C 4.8 km/h
1510 09-02-2015 16:45:00 5.1 C 6.36 g/m*3 5.1 C 3.2 km/h
1511 09-02-2015 16:50:00 5.1 C 6.36 g/m*3 5.1 C 4.8 km/h
1512 09-02-2015 16:55:00 5.1 C 6.36 g/m*3 5.1 C 3.2 km/h
1513 09-02-2015 17:00:00 5 C 6.32 g/m*3 5 C 3.2 km/h
1514 09-02-2015 17:05:00 5 C 6.32 g/m*3 5 C 3.2 km/h
1515 09-02-2015 17:10:00 4.9 C 6.28 g/m*3 4.9 C 3.2 km/h
1516 09-02-2015 17:15:00 4.9 C 6.28 g/m*3 4.9 C 3.2 km/h
1517 09-02-2015 17:20:00 4.9 C 6.28 g/m*3 4.9 C 3.2 km/h
1518 09-02-2015 17:25:00 4.9 C 6.28 g/m*3 3.48 C 6.4 km/h
1519 09-02-2015 17:30:00 4.9 C 6.28 g/m*3 4.9 C 1.6 km/h
1520 09-02-2015 17:35:00 4.9 C 6.28 g/m*3 4.9 C 4.8 km/h
1521 09-02-2015 17:40:00 4.9 C 6.35 g/m*3 4.9 C 3.2 km/h
1522 09-02-2015 17:45:00 4.9 C 6.35 g/m*3 4.9 C 3.2 km/h
1523 09-02-2015 17:50:00 4.9 C 6.28 g/m*3 4.9 C 4.8 km/h
1524 09-02-2015 17:55:00 4.9 C 6.28 g/m*3 4.9 C 4.8 km/h
1525 09-02-2015 18:00:00 5 C 6.32 g/m*3 5 C 3.2 km/h
Sensor: Nr:Datum:Temp:Abs-Feuchte:Windchill:Wind:
Aussen-T/F 1526 09-02-2015 18:05:00 5 C 6.32 g/m*3 5 C 4.8 km/h
1527 09-02-2015 18:10:00 5 C 6.32 g/m*3 5 C 4.8 km/h
1528 09-02-2015 18:15:00 5.1 C 6.36 g/m*3 3.23 C 8.1 km/h
1529 09-02-2015 18:20:00 5.1 C 6.36 g/m*3 3.71 C 6.4 km/h
1530 09-02-2015 18:25:00 5.1 C 6.36 g/m*3 5.1 C 3.2 km/h
1531 09-02-2015 18:30:00 5.1 C 6.36 g/m*3 3.23 C 8.1 km/h
1532 09-02-2015 18:35:00 5.1 C 6.36 g/m*3 5.1 C 3.2 km/h
1533 09-02-2015 18:40:00 5.1 C 6.36 g/m*3 3.71 C 6.4 km/h
1534 09-02-2015 18:45:00 5.1 C 6.36 g/m*3 3.71 C 6.4 km/h
1535 09-02-2015 18:50:00 5.1 C 6.36 g/m*3 5.1 C 1.6 km/h
1536 09-02-2015 18:55:00 5.1 C 6.36 g/m*3 5.1 C 1.6 km/h
1537 09-02-2015 19:00:00 5.1 C 6.36 g/m*3 5.1 C 3.2 km/h
1538 09-02-2015 19:05:00 5.1 C 6.36 g/m*3 5.1 C 3.2 km/h
1539 09-02-2015 19:10:00 5.1 C 6.36 g/m*3 5.1 C 0 km/h
1540 09-02-2015 19:15:00 5.1 C 6.36 g/m*3 3.71 C 6.4 km/h
1541 09-02-2015 19:20:00 5.1 C 6.36 g/m*3 5.1 C 0 km/h
1542 09-02-2015 19:25:00 5.1 C 6.36 g/m*3 5.1 C 3.2 km/h
1543 09-02-2015 19:30:00 5.1 C 6.43 g/m*3 5.1 C 1.6 km/h
1544 09-02-2015 19:35:00 5 C 6.39 g/m*3 5 C 4.8 km/h
1545 09-02-2015 19:40:00 5 C 6.39 g/m*3 5 C 3.2 km/h
1546 09-02-2015 19:45:00 5 C 6.39 g/m*3 2.09 C 12.9 km/h
1547 09-02-2015 19:50:00 5.1 C 6.43 g/m*3 5.1 C 1.6 km/h
1548 09-02-2015 19:55:00 5.1 C 6.43 g/m*3 5.1 C 3.2 km/h
1549 09-02-2015 20:00:00 5.1 C 6.43 g/m*3 5.1 C 3.2 km/h
1550 09-02-2015 20:05:00 5.1 C 6.36 g/m*3 5.1 C 1.6 km/h
Sensor: Nr:Datum:Temp:Abs-Feuchte:Windchill:Wind:
Aussen-T/F 1551 09-02-2015 20:10:00 5 C 6.32 g/m*3 5 C 1.6 km/h
1552 09-02-2015 20:15:00 5 C 6.39 g/m*3 5 C 1.6 km/h
1553 09-02-2015 20:20:00 5 C 6.39 g/m*3 5 C 1.6 km/h
1554 09-02-2015 20:25:00 4.9 C 6.28 g/m*3 4.9 C 3.2 km/h
1555 09-02-2015 20:30:00 5 C 6.39 g/m*3 5 C 3.2 km/h
1556 09-02-2015 20:35:00 5 C 6.32 g/m*3 5 C 0 km/h
1557 09-02-2015 20:40:00 5 C 6.32 g/m*3 5 C 1.6 km/h
1558 09-02-2015 20:45:00 5 C 6.32 g/m*3 5 C 0 km/h
1559 09-02-2015 20:50:00 4.9 C 6.35 g/m*3 4.9 C 3.2 km/h
1560 09-02-2015 20:55:00 5 C 6.39 g/m*3 5 C 1.6 km/h
1561 09-02-2015 21:00:00 5 C 6.39 g/m*3 5 C 0 km/h
1562 09-02-2015 21:05:00 5 C 6.39 g/m*3 5 C 4.8 km/h
1563 09-02-2015 21:10:00 5 C 6.39 g/m*3 5 C 0 km/h
1564 09-02-2015 21:15:00 5 C 6.39 g/m*3 5 C 4.8 km/h
1565 09-02-2015 21:20:00 5.1 C 6.43 g/m*3 5.1 C 4.8 km/h
1566 09-02-2015 21:25:00 5.1 C 6.43 g/m*3 5.1 C 4.8 km/h
1567 09-02-2015 21:30:00 5.1 C 6.43 g/m*3 5.1 C 0 km/h
1568 09-02-2015 21:35:00 5.1 C 6.5 g/m*3 5.1 C 1.6 km/h
1569 09-02-2015 21:40:00 4.9 C 6.35 g/m*3 4.9 C 0 km/h
1570 09-02-2015 21:45:00 4.9 C 6.41 g/m*3 4.9 C 0 km/h
1571 09-02-2015 21:50:00 4.8 C 6.37 g/m*3 4.8 C 0 km/h
1572 09-02-2015 21:55:00 4.8 C 6.37 g/m*3 4.8 C 3.2 km/h
1573 09-02-2015 22:00:00 4.8 C 6.37 g/m*3 4.8 C 0 km/h
1574 09-02-2015 22:05:00 4.7 C 6.33 g/m*3 4.7 C 3.2 km/h
1575 09-02-2015 22:10:00 4.7 C 6.33 g/m*3 4.7 C 3.2 km/h
Sensor: Nr:Datum:Temp:Abs-Feuchte:Windchill:Wind:
Aussen-T/F 1576 09-02-2015 22:15:00 4.7 C 6.33 g/m*3 4.7 C 1.6 km/h
1577 09-02-2015 22:20:00 4.7 C 6.39 g/m*3 4.7 C 1.6 km/h
1578 09-02-2015 22:25:00 4.7 C 6.39 g/m*3 4.7 C 1.6 km/h
1579 09-02-2015 22:30:00 4.7 C 6.39 g/m*3 4.7 C 0 km/h
1580 09-02-2015 22:35:00 4.7 C 6.39 g/m*3 4.7 C 1.6 km/h
1581 09-02-2015 22:40:00 4.7 C 6.39 g/m*3 4.7 C 3.2 km/h
1582 09-02-2015 22:45:00 4.7 C 6.39 g/m*3 4.7 C 1.6 km/h
1583 09-02-2015 22:50:00 4.6 C 6.35 g/m*3 4.6 C 0 km/h
1584 09-02-2015 22:55:00 4.7 C 6.39 g/m*3 4.7 C 3.2 km/h
1585 09-02-2015 23:00:00 4.7 C 6.39 g/m*3 4.7 C 4.8 km/h
1586 09-02-2015 23:05:00 4.7 C 6.39 g/m*3 4.7 C 1.6 km/h
1587 09-02-2015 23:10:00 4.7 C 6.39 g/m*3 4.7 C 0 km/h
1588 09-02-2015 23:15:00 4.7 C 6.39 g/m*3 4.7 C 1.6 km/h
1589 09-02-2015 23:20:00 4.7 C 6.39 g/m*3 4.7 C 1.6 km/h
1590 09-02-2015 23:25:00 4.7 C 6.39 g/m*3 4.7 C 3.2 km/h
1591 09-02-2015 23:30:00 4.7 C 6.39 g/m*3 4.7 C 3.2 km/h
1592 09-02-2015 23:35:00 4.7 C 6.39 g/m*3 4.7 C 3.2 km/h
1593 09-02-2015 23:40:00 4.7 C 6.39 g/m*3 4.7 C 4.8 km/h
1594 09-02-2015 23:45:00 4.7 C 6.39 g/m*3 4.7 C 1.6 km/h
1595 09-02-2015 23:50:00 4.7 C 6.39 g/m*3 4.7 C 1.6 km/h
1596 09-02-2015 23:55:00 4.7 C 6.39 g/m*3 4.7 C 4.8 km/h
1597 10-02-2015 00:00:00 4.7 C 6.33 g/m*3 3.25 C 6.4 km/h
1598 10-02-2015 00:05:00 4.7 C 6.33 g/m*3 4.7 C 1.6 km/h
1599 10-02-2015 00:10:00 4.6 C 6.29 g/m*3 4.6 C 1.6 km/h
1600 10-02-2015 00:15:00 4.7 C 6.33 g/m*3 4.7 C 0 km/h
Sensor: Nr:Datum:Temp:Abs-Feuchte:Windchill:Wind:
Aussen-T/F 1601 10-02-2015 00:20:00 4.6 C 6.29 g/m*3 4.6 C 0 km/h
1602 10-02-2015 00:25:00 4.6 C 6.29 g/m*3 4.6 C 3.2 km/h
1603 10-02-2015 00:30:00 4.5 C 6.24 g/m*3 4.5 C 0 km/h
1604 10-02-2015 00:35:00 4.4 C 6.27 g/m*3 4.4 C 0 km/h
1605 10-02-2015 00:40:00 4.4 C 6.27 g/m*3 4.4 C 0 km/h
1606 10-02-2015 00:45:00 4.4 C 6.27 g/m*3 4.4 C 0 km/h
1607 10-02-2015 00:50:00 4.3 C 6.23 g/m*3 4.3 C 0 km/h
1608 10-02-2015 00:55:00 4.3 C 6.23 g/m*3 4.3 C 0 km/h
1609 10-02-2015 01:00:00 4.3 C 6.23 g/m*3 4.3 C 0 km/h
1610 10-02-2015 01:05:00 4.3 C 6.23 g/m*3 4.3 C 1.6 km/h
1611 10-02-2015 01:10:00 4.3 C 6.23 g/m*3 4.3 C 0 km/h
1612 10-02-2015 01:15:00 4.3 C 6.23 g/m*3 4.3 C 1.6 km/h
1613 10-02-2015 01:20:00 4.3 C 6.23 g/m*3 4.3 C 0 km/h
1614 10-02-2015 01:25:00 4.2 C 6.19 g/m*3 4.2 C 3.2 km/h
1615 10-02-2015 01:30:00 4.2 C 6.19 g/m*3 4.2 C 0 km/h
1616 10-02-2015 01:35:00 4.2 C 6.19 g/m*3 4.2 C 0 km/h
1617 10-02-2015 01:40:00 4.2 C 6.19 g/m*3 4.2 C 0 km/h
1618 10-02-2015 01:45:00 4.2 C 6.19 g/m*3 4.2 C 0 km/h
1619 10-02-2015 01:50:00 4.2 C 6.19 g/m*3 4.2 C 1.6 km/h
1620 10-02-2015 01:55:00 4.2 C 6.25 g/m*3 4.2 C 1.6 km/h
1621 10-02-2015 02:00:00 4.2 C 6.19 g/m*3 4.2 C 0 km/h
1622 10-02-2015 02:05:00 4.2 C 6.19 g/m*3 4.2 C 1.6 km/h
1623 10-02-2015 02:10:00 4.2 C 6.19 g/m*3 4.2 C 3.2 km/h
1624 10-02-2015 02:15:00 4.2 C 6.19 g/m*3 4.2 C 1.6 km/h
1625 10-02-2015 02:20:00 4.2 C 6.19 g/m*3 4.2 C 3.2 km/h
Sensor: Nr:Datum:Temp:Abs-Feuchte:Windchill:Wind:
Aussen-T/F 1626 10-02-2015 02:25:00 4.2 C 6.19 g/m*3 4.2 C 1.6 km/h
1627 10-02-2015 02:30:00 4.2 C 6.19 g/m*3 4.2 C 1.6 km/h
1628 10-02-2015 02:35:00 4.2 C 6.19 g/m*3 4.2 C 1.6 km/h
1629 10-02-2015 02:40:00 4.2 C 6.19 g/m*3 4.2 C 1.6 km/h
1630 10-02-2015 02:45:00 4.2 C 6.25 g/m*3 4.2 C 3.2 km/h
1631 10-02-2015 02:50:00 4.2 C 6.25 g/m*3 4.2 C 3.2 km/h
1632 10-02-2015 02:55:00 4.2 C 6.19 g/m*3 4.2 C 3.2 km/h
1633 10-02-2015 03:00:00 4.2 C 6.19 g/m*3 4.2 C 3.2 km/h
1634 10-02-2015 03:05:00 4.3 C 6.23 g/m*3 4.3 C 3.2 km/h
1635 10-02-2015 03:10:00 4.3 C 6.23 g/m*3 4.3 C 0 km/h
1636 10-02-2015 03:15:00 4.3 C 6.23 g/m*3 4.3 C 0 km/h
1637 10-02-2015 03:20:00 4.3 C 6.23 g/m*3 4.3 C 0 km/h
1638 10-02-2015 03:25:00 4.3 C 6.23 g/m*3 4.3 C 0 km/h
1639 10-02-2015 03:30:00 4.3 C 6.23 g/m*3 4.3 C 1.6 km/h
1640 10-02-2015 03:35:00 4.3 C 6.29 g/m*3 4.3 C 1.6 km/h
1641 10-02-2015 03:40:00 4.3 C 6.23 g/m*3 4.3 C 0 km/h
1642 10-02-2015 03:45:00 4.3 C 6.23 g/m*3 4.3 C 0 km/h
1643 10-02-2015 03:50:00 4.2 C 6.19 g/m*3 4.2 C 3.2 km/h
1644 10-02-2015 03:55:00 4.3 C 6.23 g/m*3 4.3 C 3.2 km/h
1645 10-02-2015 04:00:00 4.2 C 6.19 g/m*3 4.2 C 1.6 km/h
1646 10-02-2015 04:05:00 4.2 C 6.19 g/m*3 4.2 C 1.6 km/h
1647 10-02-2015 04:10:00 4.2 C 6.25 g/m*3 4.2 C 3.2 km/h
1648 10-02-2015 04:15:00 4.2 C 6.25 g/m*3 4.2 C 0 km/h
1649 10-02-2015 04:20:00 4.3 C 6.29 g/m*3 4.3 C 0 km/h
1650 10-02-2015 04:25:00 4.3 C 6.29 g/m*3 4.3 C 0 km/h
Sensor: Nr:Datum:Temp:Abs-Feuchte:Windchill:Wind:
Aussen-T/F 1651 10-02-2015 04:30:00 4.3 C 6.29 g/m*3 4.3 C 0 km/h
1652 10-02-2015 04:35:00 4.3 C 6.23 g/m*3 4.3 C 0 km/h
1653 10-02-2015 04:40:00 4.3 C 6.29 g/m*3 4.3 C 0 km/h
1654 10-02-2015 04:45:00 4.3 C 6.29 g/m*3 4.3 C 0 km/h
1655 10-02-2015 04:50:00 4.3 C 6.29 g/m*3 4.3 C 1.6 km/h
1656 10-02-2015 04:55:00 4.3 C 6.29 g/m*3 4.3 C 1.6 km/h
1657 10-02-2015 05:00:00 4.3 C 6.29 g/m*3 4.3 C 0 km/h
1658 10-02-2015 05:05:00 4.3 C 6.29 g/m*3 4.3 C 0 km/h
1659 10-02-2015 05:10:00 4.3 C 6.29 g/m*3 4.3 C 0 km/h
1660 10-02-2015 05:15:00 4.3 C 6.29 g/m*3 4.3 C 1.6 km/h
1661 10-02-2015 05:20:00 4.3 C 6.29 g/m*3 4.3 C 0 km/h
1662 10-02-2015 05:25:00 4.3 C 6.29 g/m*3 4.3 C 0 km/h
1663 10-02-2015 05:30:00 4.3 C 6.29 g/m*3 4.3 C 0 km/h
1664 10-02-2015 05:35:00 4.3 C 6.29 g/m*3 4.3 C 0 km/h
1665 10-02-2015 05:40:00 4.2 C 6.25 g/m*3 4.2 C 0 km/h
1666 10-02-2015 05:45:00 4.2 C 6.25 g/m*3 4.2 C 1.6 km/h
1667 10-02-2015 05:50:00 4.2 C 6.25 g/m*3 4.2 C 0 km/h
1668 10-02-2015 05:55:00 4.3 C 6.29 g/m*3 4.3 C 0 km/h
1669 10-02-2015 06:00:00 4.2 C 6.25 g/m*3 4.2 C 0 km/h
1670 10-02-2015 06:05:00 4.2 C 6.25 g/m*3 4.2 C 0 km/h
1671 10-02-2015 06:10:00 4.2 C 6.25 g/m*3 4.2 C 0 km/h
1672 10-02-2015 06:15:00 4.2 C 6.25 g/m*3 4.2 C 0 km/h
1673 10-02-2015 06:20:00 4.2 C 6.25 g/m*3 4.2 C 0 km/h
1674 10-02-2015 06:25:00 4.2 C 6.25 g/m*3 4.2 C 0 km/h
1675 10-02-2015 06:30:00 4.3 C 6.29 g/m*3 4.3 C 0 km/h
Sensor: Nr:Datum:Temp:Abs-Feuchte:Windchill:Wind:
Aussen-T/F 1676 10-02-2015 06:35:00 4.3 C 6.29 g/m*3 4.3 C 0 km/h
1677 10-02-2015 06:40:00 4.2 C 6.25 g/m*3 4.2 C 0 km/h
1678 10-02-2015 06:45:00 4.2 C 6.25 g/m*3 4.2 C 1.6 km/h
1679 10-02-2015 06:50:00 4.3 C 6.29 g/m*3 4.3 C 0 km/h
1680 10-02-2015 06:55:00 4.3 C 6.29 g/m*3 4.3 C 0 km/h
1681 10-02-2015 07:00:00 4.3 C 6.29 g/m*3 4.3 C 3.2 km/h
1682 10-02-2015 07:05:00 4.4 C 6.33 g/m*3 4.4 C 0 km/h
1683 10-02-2015 07:10:00 4.4 C 6.33 g/m*3 4.4 C 0 km/h
1684 10-02-2015 07:15:00 4.4 C 6.33 g/m*3 4.4 C 3.2 km/h
1685 10-02-2015 07:20:00 4.4 C 6.33 g/m*3 4.4 C 1.6 km/h
1686 10-02-2015 07:25:00 4.4 C 6.33 g/m*3 4.4 C 0 km/h
1687 10-02-2015 07:30:00 4.4 C 6.33 g/m*3 4.4 C 1.6 km/h
1688 10-02-2015 07:35:00 4.4 C 6.33 g/m*3 4.4 C 0 km/h
1689 10-02-2015 07:40:00 4.4 C 6.33 g/m*3 4.4 C 0 km/h
1690 10-02-2015 07:45:00 4.4 C 6.33 g/m*3 4.4 C 0 km/h
1691 10-02-2015 07:50:00 4.4 C 6.33 g/m*3 4.4 C 1.6 km/h
1692 10-02-2015 07:55:00 4.4 C 6.33 g/m*3 4.4 C 0 km/h
1693 10-02-2015 08:00:00 4.4 C 6.33 g/m*3 4.4 C 0 km/h
1694 10-02-2015 08:05:00 4.4 C 6.33 g/m*3 4.4 C 3.2 km/h
1695 10-02-2015 08:10:00 4.3 C 6.29 g/m*3 4.3 C 1.6 km/h
1696 10-02-2015 08:15:00 4.4 C 6.33 g/m*3 4.4 C 0 km/h
1697 10-02-2015 08:20:00 4.4 C 6.33 g/m*3 4.4 C 1.6 km/h
1698 10-02-2015 08:25:00 4.4 C 6.33 g/m*3 4.4 C 1.6 km/h
1699 10-02-2015 08:30:00 4.4 C 6.33 g/m*3 4.4 C 0 km/h
1700 10-02-2015 08:35:00 4.4 C 6.33 g/m*3 4.4 C 1.6 km/h
Sensor: Nr:Datum:Temp:Abs-Feuchte:Windchill:Wind:
Aussen-T/F 1701 10-02-2015 08:40:00 4.4 C 6.33 g/m*3 4.4 C 0 km/h
1702 10-02-2015 08:45:00 4.4 C 6.33 g/m*3 4.4 C 1.6 km/h
1703 10-02-2015 08:50:00 4.5 C 6.38 g/m*3 4.5 C 1.6 km/h
1704 10-02-2015 08:55:00 4.6 C 6.42 g/m*3 4.6 C 0 km/h
1705 10-02-2015 09:00:00 4.6 C 6.42 g/m*3 4.6 C 1.6 km/h
1706 10-02-2015 09:05:00 4.6 C 6.42 g/m*3 4.6 C 0 km/h
1707 10-02-2015 09:10:00 4.6 C 6.42 g/m*3 4.6 C 0 km/h
1708 10-02-2015 09:15:00 4.5 C 6.38 g/m*3 4.5 C 0 km/h
1709 10-02-2015 09:20:00 4.5 C 6.38 g/m*3 4.5 C 0 km/h
1710 10-02-2015 09:25:00 4.6 C 6.42 g/m*3 4.6 C 0 km/h
1711 10-02-2015 09:30:00 4.7 C 6.46 g/m*3 4.7 C 0 km/h
1712 10-02-2015 09:35:00 4.7 C 6.46 g/m*3 4.7 C 0 km/h
1713 10-02-2015 09:40:00 4.8 C 6.5 g/m*3 4.8 C 0 km/h
1714 10-02-2015 09:45:00 4.8 C 6.5 g/m*3 4.8 C 0 km/h
1715 10-02-2015 09:50:00 4.8 C 6.5 g/m*3 4.8 C 0 km/h
1716 10-02-2015 09:55:00 4.8 C 6.5 g/m*3 4.8 C 0 km/h
1717 10-02-2015 10:00:00 4.8 C 6.5 g/m*3 4.8 C 3.2 km/h
1718 10-02-2015 10:05:00 4.9 C 6.55 g/m*3 4.9 C 1.6 km/h
1719 10-02-2015 10:10:00 4.9 C 6.55 g/m*3 4.9 C 3.2 km/h
1720 10-02-2015 10:15:00 4.9 C 6.55 g/m*3 4.9 C 0 km/h
1721 10-02-2015 10:20:00 5 C 6.59 g/m*3 5 C 0 km/h
1722 10-02-2015 10:25:00 5.1 C 6.63 g/m*3 5.1 C 1.6 km/h
1723 10-02-2015 10:30:00 5.1 C 6.63 g/m*3 5.1 C 0 km/h
1724 10-02-2015 10:35:00 5.2 C 6.68 g/m*3 5.2 C 0 km/h
1725 10-02-2015 10:40:00 5.2 C 6.68 g/m*3 5.2 C 0 km/h
Sensor: Nr:Datum:Temp:Abs-Feuchte:Windchill:Wind:
Aussen-T/F 1726 10-02-2015 10:45:00 5.3 C 6.72 g/m*3 5.3 C 1.6 km/h
1727 10-02-2015 10:50:00 5.4 C 6.77 g/m*3 5.4 C 1.6 km/h
1728 10-02-2015 10:55:00 5.5 C 6.74 g/m*3 5.5 C 4.8 km/h
1729 10-02-2015 11:00:00 5.6 C 6.79 g/m*3 5.6 C 1.6 km/h
1730 10-02-2015 11:05:00 5.6 C 6.79 g/m*3 5.6 C 3.2 km/h
1731 10-02-2015 11:10:00 5.6 C 6.72 g/m*3 5.6 C 0 km/h
1732 10-02-2015 11:15:00 5.6 C 6.72 g/m*3 5.6 C 0 km/h
1733 10-02-2015 11:20:00 5.7 C 6.76 g/m*3 5.7 C 0 km/h
1734 10-02-2015 11:25:00 5.7 C 6.76 g/m*3 5.7 C 0 km/h
1735 10-02-2015 11:30:00 5.7 C 6.69 g/m*3 5.7 C 3.2 km/h
1736 10-02-2015 11:35:00 5.8 C 6.73 g/m*3 5.8 C 0 km/h
1737 10-02-2015 11:40:00 5.8 C 6.66 g/m*3 5.8 C 3.2 km/h
1738 10-02-2015 11:45:00 5.8 C 6.66 g/m*3 5.8 C 1.6 km/h
1739 10-02-2015 11:50:00 5.8 C 6.66 g/m*3 5.8 C 1.6 km/h
1740 10-02-2015 11:55:00 5.8 C 6.66 g/m*3 5.8 C 4.8 km/h
1741 10-02-2015 12:00:00 5.8 C 6.59 g/m*3 5.8 C 1.6 km/h
1742 10-02-2015 12:05:00 5.8 C 6.59 g/m*3 5.8 C 4.8 km/h
1743 10-02-2015 12:10:00 5.8 C 6.52 g/m*3 4.05 C 8.1 km/h
1744 10-02-2015 12:15:00 5.9 C 6.49 g/m*3 3.19 C 12.9 km/h
1745 10-02-2015 12:20:00 5.9 C 6.42 g/m*3 3.48 C 11.3 km/h
1746 10-02-2015 12:25:00 6 C 6.39 g/m*3 3.92 C 9.7 km/h
1747 10-02-2015 12:30:00 6.1 C 6.36 g/m*3 4.04 C 9.7 km/h
1748 10-02-2015 12:35:00 6.2 C 6.4 g/m*3 4.15 C 9.7 km/h
1749 10-02-2015 12:40:00 6.2 C 6.4 g/m*3 4.52 C 8.1 km/h
1750 10-02-2015 12:45:00 6.3 C 6.37 g/m*3 2.98 C 17.7 km/h
Sensor: Nr:Datum:Temp:Abs-Feuchte:Windchill:Wind:
Aussen-T/F 1751 10-02-2015 12:50:00 6.3 C 6.37 g/m*3 2.98 C 17.7 km/h
1752 10-02-2015 12:55:00 6.3 C 6.37 g/m*3 4.64 C 8.1 km/h
1753 10-02-2015 13:00:00 6.3 C 6.37 g/m*3 4.27 C 9.7 km/h
1754 10-02-2015 13:05:00 6.3 C 6.37 g/m*3 5.1 C 6.4 km/h
1755 10-02-2015 13:10:00 6.3 C 6.37 g/m*3 4.27 C 9.7 km/h
1756 10-02-2015 13:15:00 6.4 C 6.33 g/m*3 4.75 C 8.1 km/h
1757 10-02-2015 13:20:00 6.4 C 6.33 g/m*3 4.39 C 9.7 km/h
1758 10-02-2015 13:25:00 6.3 C 6.29 g/m*3 5.1 C 6.4 km/h
1759 10-02-2015 13:30:00 6.3 C 6.29 g/m*3 6.3 C 4.8 km/h
1760 10-02-2015 13:35:00 6.3 C 6.29 g/m*3 4.64 C 8.1 km/h
1761 10-02-2015 13:40:00 6.3 C 6.29 g/m*3 4.64 C 8.1 km/h
1762 10-02-2015 13:45:00 6.3 C 6.29 g/m*3 5.1 C 6.4 km/h
1763 10-02-2015 13:50:00 6.3 C 6.37 g/m*3 4.64 C 8.1 km/h
1764 10-02-2015 13:55:00 6.3 C 6.37 g/m*3 4.64 C 8.1 km/h
1765 10-02-2015 14:00:00 6.2 C 6.32 g/m*3 6.2 C 4.8 km/h
1766 10-02-2015 14:05:00 6.2 C 6.32 g/m*3 6.2 C 4.8 km/h
1767 10-02-2015 14:10:00 6.2 C 6.32 g/m*3 6.2 C 3.2 km/h
1768 10-02-2015 14:15:00 6.2 C 6.32 g/m*3 6.2 C 3.2 km/h
1769 10-02-2015 14:20:00 6.2 C 6.32 g/m*3 6.2 C 4.8 km/h
1770 10-02-2015 14:25:00 6.2 C 6.4 g/m*3 6.2 C 4.8 km/h
1771 10-02-2015 14:30:00 6.2 C 6.32 g/m*3 4.98 C 6.4 km/h
1772 10-02-2015 14:35:00 6.2 C 6.25 g/m*3 6.2 C 3.2 km/h
1773 10-02-2015 14:40:00 6.2 C 6.25 g/m*3 6.2 C 4.8 km/h
1774 10-02-2015 14:45:00 6.2 C 6.25 g/m*3 6.2 C 4.8 km/h
1775 10-02-2015 14:50:00 6.2 C 6.32 g/m*3 6.2 C 4.8 km/h
Sensor: Nr:Datum:Temp:Abs-Feuchte:Windchill:Wind:
Aussen-T/F 1776 10-02-2015 14:55:00 6.2 C 6.25 g/m*3 6.2 C 4.8 km/h
1777 10-02-2015 15:00:00 6.2 C 6.25 g/m*3 4.98 C 6.4 km/h
1778 10-02-2015 15:05:00 6.2 C 6.25 g/m*3 6.2 C 1.6 km/h
1779 10-02-2015 15:10:00 6.2 C 6.18 g/m*3 6.2 C 3.2 km/h
1780 10-02-2015 15:15:00 6.1 C 6.21 g/m*3 6.1 C 1.6 km/h
1781 10-02-2015 15:20:00 6.1 C 6.28 g/m*3 4.86 C 6.4 km/h
1782 10-02-2015 15:25:00 6.1 C 6.28 g/m*3 4.86 C 6.4 km/h
1783 10-02-2015 15:30:00 6.1 C 6.28 g/m*3 6.1 C 3.2 km/h
1784 10-02-2015 15:35:00 6.1 C 6.21 g/m*3 6.1 C 4.8 km/h
1785 10-02-2015 15:40:00 6.1 C 6.21 g/m*3 6.1 C 3.2 km/h
1786 10-02-2015 15:45:00 6.1 C 6.21 g/m*3 6.1 C 4.8 km/h
1787 10-02-2015 15:50:00 6 C 6.1 g/m*3 4.75 C 6.4 km/h
1788 10-02-2015 15:55:00 6 C 6.1 g/m*3 3.92 C 9.7 km/h
1789 10-02-2015 16:00:00 6 C 6.17 g/m*3 4.75 C 6.4 km/h
1790 10-02-2015 16:05:00 5.9 C 6.13 g/m*3 4.17 C 8.1 km/h
1791 10-02-2015 16:10:00 5.9 C 6.13 g/m*3 5.9 C 4.8 km/h
1792 10-02-2015 16:15:00 5.9 C 6.06 g/m*3 3.48 C 11.3 km/h
1793 10-02-2015 16:20:00 5.9 C 6.13 g/m*3 3.8 C 9.7 km/h
1794 10-02-2015 16:25:00 5.9 C 6.06 g/m*3 4.17 C 8.1 km/h
1795 10-02-2015 16:30:00 5.8 C 6.02 g/m*3 4.52 C 6.4 km/h
1796 10-02-2015 16:35:00 5.8 C 6.02 g/m*3 4.05 C 8.1 km/h
1797 10-02-2015 16:40:00 5.8 C 6.02 g/m*3 5.8 C 4.8 km/h
1798 10-02-2015 16:45:00 5.8 C 6.02 g/m*3 4.52 C 6.4 km/h
1799 10-02-2015 16:50:00 5.8 C 6.09 g/m*3 5.8 C 4.8 km/h
1800 10-02-2015 16:55:00 5.7 C 6.05 g/m*3 5.7 C 1.6 km/h
Sensor: Nr:Datum:Temp:Abs-Feuchte:Windchill:Wind:
Aussen-T/F 1801 10-02-2015 17:00:00 5.7 C 5.98 g/m*3 5.7 C 3.2 km/h
1802 10-02-2015 17:05:00 5.7 C 5.98 g/m*3 4.4 C 6.4 km/h
1803 10-02-2015 17:10:00 5.7 C 5.98 g/m*3 4.4 C 6.4 km/h
1804 10-02-2015 17:15:00 5.7 C 5.98 g/m*3 3.56 C 9.7 km/h
1805 10-02-2015 17:20:00 5.7 C 6.05 g/m*3 3.93 C 8.1 km/h
1806 10-02-2015 17:25:00 5.7 C 6.05 g/m*3 5.7 C 4.8 km/h
1807 10-02-2015 17:30:00 5.6 C 6.01 g/m*3 5.6 C 4.8 km/h
1808 10-02-2015 17:35:00 5.6 C 6.01 g/m*3 5.6 C 1.6 km/h
1809 10-02-2015 17:40:00 5.6 C 6.01 g/m*3 5.6 C 4.8 km/h
1810 10-02-2015 17:45:00 5.6 C 6.01 g/m*3 5.6 C 4.8 km/h
1811 10-02-2015 17:50:00 5.6 C 6.01 g/m*3 3.81 C 8.1 km/h
1812 10-02-2015 17:55:00 5.6 C 6.01 g/m*3 5.6 C 3.2 km/h
1813 10-02-2015 18:00:00 5.6 C 6.01 g/m*3 5.6 C 3.2 km/h
1814 10-02-2015 18:05:00 5.5 C 5.97 g/m*3 5.5 C 1.6 km/h
1815 10-02-2015 18:10:00 5.5 C 5.97 g/m*3 5.5 C 3.2 km/h
1816 10-02-2015 18:15:00 5.5 C 5.97 g/m*3 5.5 C 3.2 km/h
1817 10-02-2015 18:20:00 5.5 C 6.04 g/m*3 5.5 C 1.6 km/h
1818 10-02-2015 18:25:00 5.4 C 6 g/m*3 5.4 C 3.2 km/h
1819 10-02-2015 18:30:00 5.4 C 6 g/m*3 5.4 C 3.2 km/h
1820 10-02-2015 18:35:00 5.4 C 6 g/m*3 3.58 C 8.1 km/h
1821 10-02-2015 18:40:00 5.4 C 6 g/m*3 4.06 C 6.4 km/h
1822 10-02-2015 18:45:00 5.4 C 6 g/m*3 5.4 C 3.2 km/h
1823 10-02-2015 18:50:00 5.4 C 6 g/m*3 5.4 C 4.8 km/h
1824 10-02-2015 18:55:00 5.4 C 6 g/m*3 4.06 C 6.4 km/h
1825 10-02-2015 19:00:00 5.4 C 6 g/m*3 5.4 C 1.6 km/h
Sensor: Nr:Datum:Temp:Abs-Feuchte:Windchill:Wind:
Aussen-T/F 1826 10-02-2015 19:05:00 5.4 C 6.07 g/m*3 5.4 C 0 km/h
1827 10-02-2015 19:10:00 5.3 C 6.03 g/m*3 5.3 C 0 km/h
1828 10-02-2015 19:15:00 5.3 C 6.03 g/m*3 5.3 C 1.6 km/h
1829 10-02-2015 19:20:00 5.2 C 5.99 g/m*3 3.82 C 6.4 km/h
1830 10-02-2015 19:25:00 5.2 C 5.99 g/m*3 3.34 C 8.1 km/h
1831 10-02-2015 19:30:00 5.2 C 5.99 g/m*3 5.2 C 4.8 km/h
1832 10-02-2015 19:35:00 5.2 C 5.99 g/m*3 5.2 C 3.2 km/h
1833 10-02-2015 19:40:00 5.2 C 5.99 g/m*3 5.2 C 1.6 km/h
1834 10-02-2015 19:45:00 5.2 C 5.99 g/m*3 5.2 C 1.6 km/h
1835 10-02-2015 19:50:00 5.1 C 5.95 g/m*3 5.1 C 0 km/h
1836 10-02-2015 19:55:00 5.1 C 5.95 g/m*3 5.1 C 3.2 km/h
1837 10-02-2015 20:00:00 5.1 C 6.02 g/m*3 5.1 C 1.6 km/h
1838 10-02-2015 20:05:00 5.1 C 5.95 g/m*3 5.1 C 4.8 km/h
1839 10-02-2015 20:10:00 5 C 5.91 g/m*3 5 C 1.6 km/h
1840 10-02-2015 20:15:00 4.9 C 5.87 g/m*3 4.9 C 0 km/h
1841 10-02-2015 20:20:00 4.9 C 5.87 g/m*3 4.9 C 3.2 km/h
1842 10-02-2015 20:25:00 4.9 C 5.87 g/m*3 4.9 C 1.6 km/h
1843 10-02-2015 20:30:00 4.9 C 5.87 g/m*3 4.9 C 3.2 km/h
1844 10-02-2015 20:35:00 4.9 C 5.81 g/m*3 4.9 C 3.2 km/h
1845 10-02-2015 20:40:00 4.9 C 5.81 g/m*3 4.9 C 1.6 km/h
1846 10-02-2015 20:45:00 4.9 C 5.81 g/m*3 4.9 C 3.2 km/h
1847 10-02-2015 20:50:00 4.9 C 5.81 g/m*3 4.9 C 3.2 km/h
1848 10-02-2015 20:55:00 4.9 C 5.81 g/m*3 4.9 C 1.6 km/h
1849 10-02-2015 21:00:00 4.9 C 5.81 g/m*3 4.9 C 0 km/h
1850 10-02-2015 21:05:00 4.9 C 5.81 g/m*3 4.9 C 0 km/h
Sensor: Nr:Datum:Temp:Abs-Feuchte:Windchill:Wind:
Aussen-T/F 1851 10-02-2015 21:10:00 4.8 C 5.83 g/m*3 4.8 C 3.2 km/h
1852 10-02-2015 21:15:00 4.8 C 5.83 g/m*3 4.8 C 0 km/h
1853 10-02-2015 21:20:00 4.8 C 5.83 g/m*3 4.8 C 0 km/h
1854 10-02-2015 21:25:00 4.7 C 5.86 g/m*3 4.7 C 0 km/h
1855 10-02-2015 21:30:00 4.7 C 5.86 g/m*3 4.7 C 0 km/h
1856 10-02-2015 21:35:00 4.6 C 5.89 g/m*3 4.6 C 0 km/h
1857 10-02-2015 21:40:00 4.6 C 5.89 g/m*3 4.6 C 0 km/h
1858 10-02-2015 21:45:00 4.5 C 5.92 g/m*3 4.5 C 1.6 km/h
1859 10-02-2015 21:50:00 4.4 C 5.88 g/m*3 4.4 C 1.6 km/h
1860 10-02-2015 21:55:00 4.4 C 5.88 g/m*3 4.4 C 0 km/h
1861 10-02-2015 22:00:00 4.4 C 5.88 g/m*3 4.4 C 0 km/h
1862 10-02-2015 22:05:00 4.4 C 5.88 g/m*3 4.4 C 0 km/h
1863 10-02-2015 22:10:00 4.4 C 5.94 g/m*3 4.4 C 0 km/h
1864 10-02-2015 22:15:00 4.3 C 5.9 g/m*3 4.3 C 0 km/h
1865 10-02-2015 22:20:00 4.3 C 5.9 g/m*3 4.3 C 0 km/h
1866 10-02-2015 22:25:00 4.3 C 5.97 g/m*3 4.3 C 0 km/h
1867 10-02-2015 22:30:00 4.3 C 5.97 g/m*3 4.3 C 0 km/h
1868 10-02-2015 22:35:00 4.2 C 5.93 g/m*3 4.2 C 0 km/h
1869 10-02-2015 22:40:00 4.2 C 5.93 g/m*3 4.2 C 0 km/h
1870 10-02-2015 22:45:00 4.2 C 5.93 g/m*3 4.2 C 0 km/h
1871 10-02-2015 22:50:00 4.2 C 5.93 g/m*3 4.2 C 0 km/h
1872 10-02-2015 22:55:00 4.2 C 5.93 g/m*3 4.2 C 0 km/h
1873 10-02-2015 23:00:00 4.1 C 5.89 g/m*3 4.1 C 0 km/h
1874 10-02-2015 23:05:00 4.1 C 5.89 g/m*3 4.1 C 0 km/h
1875 10-02-2015 23:10:00 4.1 C 5.89 g/m*3 4.1 C 0 km/h
Sensor: Nr:Datum:Temp:Abs-Feuchte:Windchill:Wind:
Aussen-T/F 1876 10-02-2015 23:15:00 4.1 C 5.89 g/m*3 4.1 C 0 km/h
1877 10-02-2015 23:20:00 4.1 C 5.89 g/m*3 4.1 C 0 km/h
1878 10-02-2015 23:25:00 4.1 C 5.89 g/m*3 4.1 C 0 km/h
1879 10-02-2015 23:30:00 4.1 C 5.89 g/m*3 4.1 C 0 km/h
1880 10-02-2015 23:35:00 4.1 C 5.89 g/m*3 4.1 C 0 km/h
1881 10-02-2015 23:40:00 4.1 C 5.89 g/m*3 4.1 C 0 km/h
1882 10-02-2015 23:45:00 4.1 C 5.89 g/m*3 4.1 C 0 km/h
1883 10-02-2015 23:50:00 4.1 C 5.89 g/m*3 4.1 C 0 km/h
1884 10-02-2015 23:55:00 4.1 C 5.89 g/m*3 4.1 C 0 km/h
1885 11-02-2015 00:00:00 4.1 C 5.89 g/m*3 4.1 C 0 km/h
1886 11-02-2015 00:05:00 4.1 C 5.89 g/m*3 4.1 C 0 km/h
1887 11-02-2015 00:10:00 4 C 5.85 g/m*3 4 C 0 km/h
1888 11-02-2015 00:15:00 4 C 5.91 g/m*3 4 C 0 km/h
1889 11-02-2015 00:20:00 3.9 C 5.87 g/m*3 3.9 C 0 km/h
1890 11-02-2015 00:25:00 3.9 C 5.87 g/m*3 3.9 C 0 km/h
1891 11-02-2015 00:30:00 3.9 C 5.87 g/m*3 3.9 C 0 km/h
1892 11-02-2015 00:35:00 3.9 C 5.87 g/m*3 3.9 C 0 km/h
1893 11-02-2015 00:40:00 3.9 C 5.87 g/m*3 3.9 C 0 km/h
1894 11-02-2015 00:45:00 3.9 C 5.87 g/m*3 3.9 C 0 km/h
1895 11-02-2015 00:50:00 3.9 C 5.87 g/m*3 3.9 C 0 km/h
1896 11-02-2015 00:55:00 3.9 C 5.87 g/m*3 3.9 C 0 km/h
1897 11-02-2015 01:00:00 3.9 C 5.87 g/m*3 3.9 C 0 km/h
1898 11-02-2015 01:05:00 3.9 C 5.87 g/m*3 3.9 C 0 km/h
1899 11-02-2015 01:10:00 3.9 C 5.87 g/m*3 3.9 C 0 km/h
1900 11-02-2015 01:15:00 3.9 C 5.87 g/m*3 3.9 C 0 km/h
Sensor: Nr:Datum:Temp:Abs-Feuchte:Windchill:Wind:
Aussen-T/F 1901 11-02-2015 01:20:00 3.9 C 5.87 g/m*3 3.9 C 0 km/h
1902 11-02-2015 01:25:00 3.9 C 5.87 g/m*3 3.9 C 0 km/h
1903 11-02-2015 01:30:00 3.9 C 5.87 g/m*3 3.9 C 0 km/h
1904 11-02-2015 01:35:00 3.9 C 5.87 g/m*3 3.9 C 0 km/h
1905 11-02-2015 01:40:00 3.9 C 5.81 g/m*3 3.9 C 0 km/h
1906 11-02-2015 01:45:00 3.9 C 5.81 g/m*3 3.9 C 1.6 km/h
1907 11-02-2015 01:50:00 3.9 C 5.87 g/m*3 3.9 C 0 km/h
1908 11-02-2015 01:55:00 3.9 C 5.81 g/m*3 3.9 C 3.2 km/h
1909 11-02-2015 02:00:00 3.9 C 5.81 g/m*3 3.9 C 0 km/h
1910 11-02-2015 02:05:00 3.9 C 5.81 g/m*3 3.9 C 1.6 km/h
1911 11-02-2015 02:10:00 3.9 C 5.81 g/m*3 3.9 C 0 km/h
1912 11-02-2015 02:15:00 3.9 C 5.81 g/m*3 3.9 C 0 km/h
1913 11-02-2015 02:20:00 3.9 C 5.81 g/m*3 3.9 C 0 km/h
1914 11-02-2015 02:25:00 3.9 C 5.81 g/m*3 3.9 C 1.6 km/h
1915 11-02-2015 02:30:00 3.9 C 5.81 g/m*3 3.9 C 0 km/h
1916 11-02-2015 02:35:00 3.9 C 5.81 g/m*3 3.9 C 0 km/h
1917 11-02-2015 02:40:00 3.9 C 5.81 g/m*3 3.9 C 0 km/h
1918 11-02-2015 02:45:00 3.9 C 5.81 g/m*3 3.9 C 0 km/h
1919 11-02-2015 02:50:00 3.9 C 5.75 g/m*3 3.9 C 0 km/h
1920 11-02-2015 02:55:00 3.9 C 5.75 g/m*3 3.9 C 1.6 km/h
1921 11-02-2015 03:00:00 3.9 C 5.75 g/m*3 3.9 C 0 km/h
1922 11-02-2015 03:05:00 3.9 C 5.75 g/m*3 3.9 C 0 km/h
1923 11-02-2015 03:10:00 3.9 C 5.75 g/m*3 3.9 C 0 km/h
1924 11-02-2015 03:15:00 3.9 C 5.75 g/m*3 3.9 C 0 km/h
1925 11-02-2015 03:20:00 3.8 C 5.71 g/m*3 3.8 C 0 km/h
Sensor: Nr:Datum:Temp:Abs-Feuchte:Windchill:Wind:
Aussen-T/F 1926 11-02-2015 03:25:00 3.8 C 5.71 g/m*3 3.8 C 1.6 km/h
1927 11-02-2015 03:30:00 3.9 C 5.75 g/m*3 3.9 C 0 km/h
1928 11-02-2015 03:35:00 3.9 C 5.75 g/m*3 3.9 C 0 km/h
1929 11-02-2015 03:40:00 3.8 C 5.71 g/m*3 3.8 C 0 km/h
1930 11-02-2015 03:45:00 3.8 C 5.65 g/m*3 3.8 C 1.6 km/h
1931 11-02-2015 03:50:00 3.8 C 5.58 g/m*3 3.8 C 0 km/h
1932 11-02-2015 03:55:00 3.9 C 5.68 g/m*3 3.9 C 1.6 km/h
1933 11-02-2015 04:00:00 3.9 C 5.62 g/m*3 3.9 C 1.6 km/h
1934 11-02-2015 04:05:00 3.9 C 5.68 g/m*3 3.9 C 0 km/h
1935 11-02-2015 04:10:00 3.9 C 5.68 g/m*3 3.9 C 0 km/h
1936 11-02-2015 04:15:00 3.8 C 5.65 g/m*3 3.8 C 0 km/h
1937 11-02-2015 04:20:00 3.8 C 5.65 g/m*3 3.8 C 0 km/h
1938 11-02-2015 04:25:00 3.8 C 5.65 g/m*3 3.8 C 0 km/h
1939 11-02-2015 04:30:00 3.8 C 5.65 g/m*3 3.8 C 1.6 km/h
1940 11-02-2015 04:35:00 3.7 C 5.55 g/m*3 3.7 C 1.6 km/h
1941 11-02-2015 04:40:00 3.8 C 5.58 g/m*3 3.8 C 4.8 km/h
1942 11-02-2015 04:45:00 3.8 C 5.52 g/m*3 3.8 C 1.6 km/h
1943 11-02-2015 04:50:00 3.8 C 5.46 g/m*3 2.21 C 6.4 km/h
1944 11-02-2015 04:55:00 3.9 C 5.56 g/m*3 3.9 C 0 km/h
1945 11-02-2015 05:00:00 3.9 C 5.56 g/m*3 3.9 C 0 km/h
1946 11-02-2015 05:05:00 3.8 C 5.58 g/m*3 3.8 C 0 km/h
1947 11-02-2015 05:10:00 3.8 C 5.58 g/m*3 3.8 C 0 km/h
1948 11-02-2015 05:15:00 3.8 C 5.65 g/m*3 3.8 C 0 km/h
1949 11-02-2015 05:20:00 3.7 C 5.61 g/m*3 3.7 C 0 km/h
1950 11-02-2015 05:25:00 3.7 C 5.61 g/m*3 3.7 C 0 km/h
Sensor: Nr:Datum:Temp:Abs-Feuchte:Windchill:Wind:
Aussen-T/F 1951 11-02-2015 05:30:00 3.7 C 5.55 g/m*3 3.7 C 3.2 km/h
1952 11-02-2015 05:35:00 3.7 C 5.61 g/m*3 3.7 C 0 km/h
1953 11-02-2015 05:40:00 3.7 C 5.61 g/m*3 3.7 C 3.2 km/h
1954 11-02-2015 05:45:00 3.7 C 5.55 g/m*3 3.7 C 0 km/h
1955 11-02-2015 05:50:00 3.7 C 5.55 g/m*3 3.7 C 1.6 km/h
1956 11-02-2015 05:55:00 3.7 C 5.55 g/m*3 3.7 C 1.6 km/h
1957 11-02-2015 06:00:00 3.7 C 5.55 g/m*3 3.7 C 1.6 km/h
1958 11-02-2015 06:05:00 3.7 C 5.55 g/m*3 3.7 C 1.6 km/h
1959 11-02-2015 06:10:00 3.7 C 5.55 g/m*3 3.7 C 1.6 km/h
1960 11-02-2015 06:15:00 3.7 C 5.48 g/m*3 2.09 C 6.4 km/h
1961 11-02-2015 06:20:00 3.7 C 5.48 g/m*3 2.09 C 6.4 km/h
1962 11-02-2015 06:25:00 3.7 C 5.48 g/m*3 3.7 C 4.8 km/h
1963 11-02-2015 06:30:00 3.7 C 5.48 g/m*3 3.7 C 3.2 km/h
1964 11-02-2015 06:35:00 3.7 C 5.48 g/m*3 3.7 C 4.8 km/h
1965 11-02-2015 06:40:00 3.7 C 5.48 g/m*3 3.7 C 4.8 km/h
1966 11-02-2015 06:45:00 3.7 C 5.48 g/m*3 3.7 C 3.2 km/h
1967 11-02-2015 06:50:00 3.6 C 5.45 g/m*3 3.6 C 3.2 km/h
1968 11-02-2015 06:55:00 3.6 C 5.39 g/m*3 3.6 C 1.6 km/h
1969 11-02-2015 07:00:00 3.6 C 5.39 g/m*3 3.6 C 4.8 km/h
1970 11-02-2015 07:05:00 3.6 C 5.45 g/m*3 3.6 C 0 km/h
1971 11-02-2015 07:10:00 3.6 C 5.45 g/m*3 3.6 C 0 km/h
1972 11-02-2015 07:15:00 3.5 C 5.41 g/m*3 3.5 C 3.2 km/h
1973 11-02-2015 07:20:00 3.5 C 5.35 g/m*3 3.5 C 1.6 km/h
1974 11-02-2015 07:25:00 3.5 C 5.35 g/m*3 3.5 C 1.6 km/h
1975 11-02-2015 07:30:00 3.4 C 5.31 g/m*3 1.75 C 6.4 km/h
Sensor: Nr:Datum:Temp:Abs-Feuchte:Windchill:Wind:
Aussen-T/F 1976 11-02-2015 07:35:00 3.4 C 5.37 g/m*3 3.4 C 4.8 km/h
1977 11-02-2015 07:40:00 3.4 C 5.37 g/m*3 1.75 C 6.4 km/h
1978 11-02-2015 07:45:00 3.4 C 5.37 g/m*3 3.4 C 0 km/h
1979 11-02-2015 07:50:00 3.4 C 5.37 g/m*3 3.4 C 1.6 km/h
1980 11-02-2015 07:55:00 3.4 C 5.37 g/m*3 3.4 C 1.6 km/h
1981 11-02-2015 08:00:00 3.4 C 5.37 g/m*3 3.4 C 1.6 km/h
1982 11-02-2015 08:05:00 3.4 C 5.37 g/m*3 3.4 C 0 km/h
1983 11-02-2015 08:10:00 3.4 C 5.37 g/m*3 3.4 C 0 km/h
1984 11-02-2015 08:15:00 3.4 C 5.37 g/m*3 3.4 C 3.2 km/h
1985 11-02-2015 08:20:00 3.4 C 5.37 g/m*3 3.4 C 3.2 km/h
1986 11-02-2015 08:25:00 3.4 C 5.37 g/m*3 3.4 C 4.8 km/h
1987 11-02-2015 08:30:00 3.4 C 5.37 g/m*3 3.4 C 0 km/h
1988 11-02-2015 08:35:00 3.4 C 5.37 g/m*3 3.4 C 0 km/h
1989 11-02-2015 08:40:00 3.4 C 5.37 g/m*3 3.4 C 0 km/h
1990 11-02-2015 08:45:00 3.4 C 5.37 g/m*3 3.4 C 4.8 km/h
1991 11-02-2015 08:50:00 3.4 C 5.37 g/m*3 3.4 C 1.6 km/h
1992 11-02-2015 08:55:00 3.4 C 5.37 g/m*3 3.4 C 3.2 km/h
1993 11-02-2015 09:00:00 3.4 C 5.37 g/m*3 3.4 C 3.2 km/h
1994 11-02-2015 09:05:00 3.4 C 5.37 g/m*3 3.4 C 1.6 km/h
1995 11-02-2015 09:10:00 3.5 C 5.41 g/m*3 3.5 C 3.2 km/h
1996 11-02-2015 09:15:00 3.4 C 5.37 g/m*3 3.4 C 0 km/h
1997 11-02-2015 09:20:00 3.5 C 5.41 g/m*3 3.5 C 1.6 km/h
1998 11-02-2015 09:25:00 3.5 C 5.41 g/m*3 3.5 C 1.6 km/h
1999 11-02-2015 09:30:00 3.5 C 5.41 g/m*3 3.5 C 3.2 km/h
2000 11-02-2015 09:35:00 3.5 C 5.41 g/m*3 3.5 C 0 km/h
Sensor: Nr:Datum:Temp:Abs-Feuchte:Windchill:Wind:
Aussen-T/F 2001 11-02-2015 09:40:00 3.6 C 5.45 g/m*3 1.98 C 6.4 km/h
2002 11-02-2015 09:45:00 3.6 C 5.39 g/m*3 3.6 C 4.8 km/h
2003 11-02-2015 09:50:00 3.6 C 5.45 g/m*3 3.6 C 3.2 km/h
2004 11-02-2015 09:55:00 3.6 C 5.39 g/m*3 3.6 C 4.8 km/h
2005 11-02-2015 10:00:00 3.6 C 5.39 g/m*3 3.6 C 1.6 km/h
2006 11-02-2015 10:05:00 3.6 C 5.39 g/m*3 3.6 C 4.8 km/h
2007 11-02-2015 10:10:00 3.6 C 5.39 g/m*3 3.6 C 4.8 km/h
2008 11-02-2015 10:15:00 3.6 C 5.39 g/m*3 3.6 C 3.2 km/h
2009 11-02-2015 10:20:00 3.7 C 5.42 g/m*3 3.7 C 1.6 km/h
2010 11-02-2015 10:25:00 3.7 C 5.36 g/m*3 3.7 C 3.2 km/h
2011 11-02-2015 10:30:00 3.7 C 5.36 g/m*3 3.7 C 3.2 km/h
2012 11-02-2015 10:35:00 3.7 C 5.36 g/m*3 3.7 C 1.6 km/h
2013 11-02-2015 10:40:00 3.7 C 5.42 g/m*3 3.7 C 4.8 km/h
2014 11-02-2015 10:45:00 3.8 C 5.4 g/m*3 1.7 C 8.1 km/h
2015 11-02-2015 10:50:00 3.7 C 5.3 g/m*3 2.09 C 6.4 km/h
2016 11-02-2015 10:55:00 3.7 C 5.3 g/m*3 1.58 C 8.1 km/h
2017 11-02-2015 11:00:00 3.8 C 5.33 g/m*3 1.7 C 8.1 km/h
2018 11-02-2015 11:05:00 3.8 C 5.33 g/m*3 3.8 C 4.8 km/h
2019 11-02-2015 11:10:00 3.8 C 5.4 g/m*3 3.8 C 4.8 km/h
2020 11-02-2015 11:15:00 3.9 C 5.37 g/m*3 3.9 C 1.6 km/h
2021 11-02-2015 11:20:00 3.9 C 5.43 g/m*3 3.9 C 4.8 km/h
2022 11-02-2015 11:25:00 4.1 C 5.44 g/m*3 4.1 C 4.8 km/h
2023 11-02-2015 11:30:00 4.1 C 5.44 g/m*3 4.1 C 4.8 km/h
2024 11-02-2015 11:35:00 4.2 C 5.48 g/m*3 4.2 C 4.8 km/h
2025 11-02-2015 11:40:00 4.2 C 5.48 g/m*3 4.2 C 4.8 km/h
Sensor: Nr:Datum:Temp:Abs-Feuchte:Windchill:Wind:
Aussen-T/F 2026 11-02-2015 11:45:00 4.2 C 5.48 g/m*3 4.2 C 4.8 km/h
2027 11-02-2015 11:50:00 4.2 C 5.41 g/m*3 2.17 C 8.1 km/h
2028 11-02-2015 11:55:00 4.2 C 5.41 g/m*3 2.67 C 6.4 km/h
2029 11-02-2015 12:00:00 4.2 C 5.41 g/m*3 4.2 C 4.8 km/h
2030 11-02-2015 12:05:00 4.3 C 5.51 g/m*3 2.78 C 6.4 km/h
2031 11-02-2015 12:10:00 4.4 C 5.55 g/m*3 4.4 C 4.8 km/h
2032 11-02-2015 12:15:00 4.3 C 5.38 g/m*3 2.78 C 6.4 km/h
2033 11-02-2015 12:20:00 4.2 C 5.35 g/m*3 2.67 C 6.4 km/h
2034 11-02-2015 12:25:00 4.2 C 5.35 g/m*3 4.2 C 1.6 km/h
2035 11-02-2015 12:30:00 4.3 C 5.45 g/m*3 4.3 C 3.2 km/h
2036 11-02-2015 12:35:00 4.4 C 5.48 g/m*3 2.4 C 8.1 km/h
2037 11-02-2015 12:40:00 4.5 C 5.52 g/m*3 3.02 C 6.4 km/h
2038 11-02-2015 12:45:00 4.4 C 5.42 g/m*3 2.01 C 9.7 km/h
2039 11-02-2015 12:50:00 4.4 C 5.42 g/m*3 4.4 C 3.2 km/h
2040 11-02-2015 12:55:00 4.4 C 5.48 g/m*3 4.4 C 4.8 km/h
2041 11-02-2015 13:00:00 4.6 C 5.56 g/m*3 4.6 C 3.2 km/h
2042 11-02-2015 13:05:00 4.6 C 5.56 g/m*3 2.64 C 8.1 km/h
2043 11-02-2015 13:10:00 4.6 C 5.49 g/m*3 2.64 C 8.1 km/h
2044 11-02-2015 13:15:00 4.6 C 5.49 g/m*3 2.25 C 9.7 km/h
2045 11-02-2015 13:20:00 4.6 C 5.49 g/m*3 3.13 C 6.4 km/h
2046 11-02-2015 13:25:00 4.7 C 5.53 g/m*3 2.76 C 8.1 km/h
2047 11-02-2015 13:30:00 4.7 C 5.6 g/m*3 2.03 C 11.3 km/h
2048 11-02-2015 13:35:00 4.8 C 5.57 g/m*3 2.15 C 11.3 km/h
2049 11-02-2015 13:40:00 5 C 5.57 g/m*3 3.59 C 6.4 km/h
2050 11-02-2015 13:45:00 5 C 5.5 g/m*3 5 C 4.8 km/h
Sensor: Nr:Datum:Temp:Abs-Feuchte:Windchill:Wind:
Aussen-T/F 2051 11-02-2015 13:50:00 5 C 5.57 g/m*3 5 C 4.8 km/h
2052 11-02-2015 13:55:00 5.1 C 5.68 g/m*3 3.23 C 8.1 km/h
2053 11-02-2015 14:00:00 5.1 C 5.61 g/m*3 2.84 C 9.7 km/h
2054 11-02-2015 14:05:00 5.2 C 5.58 g/m*3 3.82 C 6.4 km/h
2055 11-02-2015 14:10:00 5.1 C 5.54 g/m*3 5.1 C 3.2 km/h
2056 11-02-2015 14:15:00 5.2 C 5.65 g/m*3 3.82 C 6.4 km/h
2057 11-02-2015 14:20:00 5.3 C 5.61 g/m*3 5.3 C 4.8 km/h
2058 11-02-2015 14:25:00 5.3 C 5.54 g/m*3 3.46 C 8.1 km/h
2059 11-02-2015 14:30:00 5.3 C 5.68 g/m*3 3.46 C 8.1 km/h
2060 11-02-2015 14:35:00 5.3 C 5.61 g/m*3 3.08 C 9.7 km/h
2061 11-02-2015 14:40:00 5.3 C 5.61 g/m*3 3.08 C 9.7 km/h
2062 11-02-2015 14:45:00 5.3 C 5.68 g/m*3 3.46 C 8.1 km/h
2063 11-02-2015 14:50:00 5.4 C 5.65 g/m*3 5.4 C 4.8 km/h
2064 11-02-2015 14:55:00 5.4 C 5.58 g/m*3 5.4 C 3.2 km/h
2065 11-02-2015 15:00:00 5.4 C 5.65 g/m*3 4.06 C 6.4 km/h
2066 11-02-2015 15:05:00 5.3 C 5.54 g/m*3 5.3 C 4.8 km/h
2067 11-02-2015 15:10:00 5.3 C 5.61 g/m*3 5.3 C 3.2 km/h
2068 11-02-2015 15:15:00 5.3 C 5.61 g/m*3 5.3 C 4.8 km/h
2069 11-02-2015 15:20:00 5.3 C 5.68 g/m*3 5.3 C 3.2 km/h
2070 11-02-2015 15:25:00 5.3 C 5.61 g/m*3 5.3 C 4.8 km/h
2071 11-02-2015 15:30:00 5.2 C 5.58 g/m*3 3.82 C 6.4 km/h
2072 11-02-2015 15:35:00 5.2 C 5.65 g/m*3 3.82 C 6.4 km/h
2073 11-02-2015 15:40:00 5.3 C 5.61 g/m*3 3.94 C 6.4 km/h
2074 11-02-2015 15:45:00 5.3 C 5.61 g/m*3 3.94 C 6.4 km/h
2075 11-02-2015 15:50:00 5.3 C 5.68 g/m*3 5.3 C 4.8 km/h
Sensor: Nr:Datum:Temp:Abs-Feuchte:Windchill:Wind:
Aussen-T/F 2076 11-02-2015 15:55:00 5.3 C 5.61 g/m*3 3.94 C 6.4 km/h
2077 11-02-2015 16:00:00 5.2 C 5.58 g/m*3 3.82 C 6.4 km/h
2078 11-02-2015 16:05:00 5.2 C 5.58 g/m*3 5.2 C 1.6 km/h
2079 11-02-2015 16:10:00 5.1 C 5.61 g/m*3 5.1 C 1.6 km/h
2080 11-02-2015 16:15:00 5 C 5.57 g/m*3 5 C 4.8 km/h
2081 11-02-2015 16:20:00 4.8 C 5.43 g/m*3 4.8 C 4.8 km/h
2082 11-02-2015 16:25:00 4.8 C 5.5 g/m*3 4.8 C 1.6 km/h
2083 11-02-2015 16:30:00 4.7 C 5.53 g/m*3 3.25 C 6.4 km/h
2084 11-02-2015 16:35:00 4.7 C 5.53 g/m*3 2.76 C 8.1 km/h
2085 11-02-2015 16:40:00 4.6 C 5.49 g/m*3 4.6 C 3.2 km/h
2086 11-02-2015 16:45:00 4.6 C 5.49 g/m*3 4.6 C 0 km/h
2087 11-02-2015 16:50:00 4.6 C 5.49 g/m*3 4.6 C 3.2 km/h
2088 11-02-2015 16:55:00 4.6 C 5.56 g/m*3 4.6 C 0 km/h
2089 11-02-2015 17:00:00 4.5 C 5.52 g/m*3 4.5 C 0 km/h
2090 11-02-2015 17:05:00 4.4 C 5.48 g/m*3 4.4 C 3.2 km/h
2091 11-02-2015 17:10:00 4.4 C 5.48 g/m*3 4.4 C 3.2 km/h
2092 11-02-2015 17:15:00 4.3 C 5.45 g/m*3 4.3 C 0 km/h
2093 11-02-2015 17:20:00 4.2 C 5.41 g/m*3 4.2 C 4.8 km/h
2094 11-02-2015 17:25:00 4.1 C 5.38 g/m*3 4.1 C 0 km/h
2095 11-02-2015 17:30:00 4 C 5.4 g/m*3 4 C 0 km/h
2096 11-02-2015 17:35:00 3.9 C 5.37 g/m*3 3.9 C 1.6 km/h
2097 11-02-2015 17:40:00 3.8 C 5.4 g/m*3 3.8 C 0 km/h
2098 11-02-2015 17:45:00 3.7 C 5.42 g/m*3 3.7 C 1.6 km/h
2099 11-02-2015 17:50:00 3.6 C 5.39 g/m*3 3.6 C 3.2 km/h
2100 11-02-2015 17:55:00 3.5 C 5.35 g/m*3 3.5 C 1.6 km/h
Sensor: Nr:Datum:Temp:Abs-Feuchte:Windchill:Wind:
Aussen-T/F 2101 11-02-2015 18:00:00 3.4 C 5.31 g/m*3 3.4 C 1.6 km/h
2102 11-02-2015 18:05:00 3.5 C 5.35 g/m*3 1.86 C 6.4 km/h
2103 11-02-2015 18:10:00 3.5 C 5.35 g/m*3 3.5 C 1.6 km/h
2104 11-02-2015 18:15:00 3.4 C 5.31 g/m*3 3.4 C 4.8 km/h
2105 11-02-2015 18:20:00 3.4 C 5.31 g/m*3 3.4 C 4.8 km/h
2106 11-02-2015 18:25:00 3.4 C 5.31 g/m*3 3.4 C 4.8 km/h
2107 11-02-2015 18:30:00 3.4 C 5.31 g/m*3 3.4 C 0 km/h
2108 11-02-2015 18:35:00 3.3 C 5.34 g/m*3 3.3 C 0 km/h
2109 11-02-2015 18:40:00 3.2 C 5.3 g/m*3 3.2 C 0 km/h
2110 11-02-2015 18:45:00 3.2 C 5.3 g/m*3 3.2 C 1.6 km/h
2111 11-02-2015 18:50:00 3.2 C 5.3 g/m*3 3.2 C 0 km/h
2112 11-02-2015 18:55:00 3.2 C 5.3 g/m*3 3.2 C 0 km/h
2113 11-02-2015 19:00:00 3.2 C 5.3 g/m*3 3.2 C 3.2 km/h
2114 11-02-2015 19:05:00 3.2 C 5.3 g/m*3 3.2 C 3.2 km/h
2115 11-02-2015 19:10:00 3.2 C 5.3 g/m*3 3.2 C 3.2 km/h
2116 11-02-2015 19:15:00 3.2 C 5.24 g/m*3 3.2 C 3.2 km/h
2117 11-02-2015 19:20:00 3.2 C 5.24 g/m*3 0.99 C 8.1 km/h
2118 11-02-2015 19:25:00 3.2 C 5.24 g/m*3 3.2 C 4.8 km/h
2119 11-02-2015 19:30:00 3.2 C 5.24 g/m*3 3.2 C 3.2 km/h
2120 11-02-2015 19:35:00 3.1 C 5.21 g/m*3 3.1 C 4.8 km/h
2121 11-02-2015 19:40:00 3.1 C 5.21 g/m*3 3.1 C 4.8 km/h
2122 11-02-2015 19:45:00 3.1 C 5.21 g/m*3 3.1 C 1.6 km/h
2123 11-02-2015 19:50:00 3.1 C 5.21 g/m*3 3.1 C 0 km/h
2124 11-02-2015 19:55:00 3.1 C 5.21 g/m*3 3.1 C 3.2 km/h
2125 11-02-2015 20:00:00 3.2 C 5.24 g/m*3 3.2 C 3.2 km/h
Sensor: Nr:Datum:Temp:Abs-Feuchte:Windchill:Wind:
Aussen-T/F 2126 11-02-2015 20:05:00 3.1 C 5.21 g/m*3 3.1 C 3.2 km/h
2127 11-02-2015 20:10:00 3.1 C 5.21 g/m*3 3.1 C 3.2 km/h
2128 11-02-2015 20:15:00 3.1 C 5.21 g/m*3 3.1 C 0 km/h
2129 11-02-2015 20:20:00 3.1 C 5.21 g/m*3 3.1 C 0 km/h
2130 11-02-2015 20:25:00 3.1 C 5.21 g/m*3 3.1 C 0 km/h
2131 11-02-2015 20:30:00 3.1 C 5.21 g/m*3 3.1 C 1.6 km/h
2132 11-02-2015 20:35:00 3.1 C 5.27 g/m*3 3.1 C 3.2 km/h
2133 11-02-2015 20:40:00 3.1 C 5.27 g/m*3 3.1 C 0 km/h
2134 11-02-2015 20:45:00 3.1 C 5.27 g/m*3 3.1 C 0 km/h
2135 11-02-2015 20:50:00 3.1 C 5.27 g/m*3 3.1 C 4.8 km/h
2136 11-02-2015 20:55:00 3.1 C 5.27 g/m*3 3.1 C 0 km/h
2137 11-02-2015 21:00:00 3.1 C 5.27 g/m*3 3.1 C 4.8 km/h
2138 11-02-2015 21:05:00 3 C 5.23 g/m*3 1.28 C 6.4 km/h
2139 11-02-2015 21:10:00 3.1 C 5.27 g/m*3 3.1 C 3.2 km/h
2140 11-02-2015 21:15:00 3.1 C 5.27 g/m*3 3.1 C 0 km/h
2141 11-02-2015 21:20:00 3.1 C 5.27 g/m*3 3.1 C 3.2 km/h
2142 11-02-2015 21:25:00 3 C 5.23 g/m*3 3 C 3.2 km/h
2143 11-02-2015 21:30:00 3.1 C 5.27 g/m*3 3.1 C 3.2 km/h
2144 11-02-2015 21:35:00 3.1 C 5.27 g/m*3 3.1 C 3.2 km/h
2145 11-02-2015 21:40:00 3 C 5.17 g/m*3 0.76 C 8.1 km/h
2146 11-02-2015 21:45:00 3 C 5.17 g/m*3 3 C 0 km/h
2147 11-02-2015 21:50:00 3 C 5.17 g/m*3 1.28 C 6.4 km/h
2148 11-02-2015 21:55:00 3 C 5.17 g/m*3 3 C 1.6 km/h
2149 11-02-2015 22:00:00 3 C 5.17 g/m*3 3 C 0 km/h
2150 11-02-2015 22:05:00 3 C 5.17 g/m*3 3 C 1.6 km/h
Sensor: Nr:Datum:Temp:Abs-Feuchte:Windchill:Wind:
Aussen-T/F 2151 11-02-2015 22:10:00 3 C 5.17 g/m*3 3 C 0 km/h
2152 11-02-2015 22:15:00 3 C 5.23 g/m*3 3 C 4.8 km/h
2153 11-02-2015 22:20:00 3 C 5.23 g/m*3 3 C 4.8 km/h
2154 11-02-2015 22:25:00 3 C 5.23 g/m*3 3 C 0 km/h
2155 11-02-2015 22:30:00 2.9 C 5.2 g/m*3 0.64 C 8.1 km/h
2156 11-02-2015 22:35:00 2.9 C 5.2 g/m*3 2.9 C 3.2 km/h
2157 11-02-2015 22:40:00 2.9 C 5.2 g/m*3 2.9 C 4.8 km/h
2158 11-02-2015 22:45:00 2.9 C 5.2 g/m*3 2.9 C 1.6 km/h
2159 11-02-2015 22:50:00 2.9 C 5.2 g/m*3 2.9 C 1.6 km/h
2160 11-02-2015 22:55:00 2.9 C 5.2 g/m*3 2.9 C 4.8 km/h
2161 11-02-2015 23:00:00 2.9 C 5.2 g/m*3 2.9 C 0 km/h
2162 11-02-2015 23:05:00 2.9 C 5.2 g/m*3 2.9 C 3.2 km/h
2163 11-02-2015 23:10:00 2.8 C 5.22 g/m*3 2.8 C 4.8 km/h
2164 11-02-2015 23:15:00 2.8 C 5.22 g/m*3 2.8 C 1.6 km/h
2165 11-02-2015 23:20:00 2.8 C 5.22 g/m*3 2.8 C 0 km/h
2166 11-02-2015 23:25:00 2.8 C 5.22 g/m*3 2.8 C 1.6 km/h
2167 11-02-2015 23:30:00 2.8 C 5.22 g/m*3 2.8 C 0 km/h
2168 11-02-2015 23:35:00 2.8 C 5.22 g/m*3 2.8 C 1.6 km/h
2169 11-02-2015 23:40:00 2.8 C 5.22 g/m*3 2.8 C 1.6 km/h
2170 11-02-2015 23:45:00 2.8 C 5.22 g/m*3 2.8 C 0 km/h
2171 11-02-2015 23:50:00 2.8 C 5.22 g/m*3 2.8 C 0 km/h
2172 11-02-2015 23:55:00 2.8 C 5.22 g/m*3 2.8 C 0 km/h
2173 12-02-2015 00:00:00 2.8 C 5.22 g/m*3 2.8 C 0 km/h
2174 12-02-2015 00:05:00 2.8 C 5.22 g/m*3 2.8 C 0 km/h
2175 12-02-2015 00:10:00 2.8 C 5.22 g/m*3 2.8 C 0 km/h
Sensor: Nr:Datum:Temp:Abs-Feuchte:Windchill:Wind:
Aussen-T/F 2176 12-02-2015 00:15:00 2.8 C 5.22 g/m*3 2.8 C 1.6 km/h
2177 12-02-2015 00:20:00 2.8 C 5.28 g/m*3 2.8 C 1.6 km/h
2178 12-02-2015 00:25:00 2.8 C 5.28 g/m*3 2.8 C 0 km/h
2179 12-02-2015 00:30:00 2.8 C 5.28 g/m*3 2.8 C 0 km/h
2180 12-02-2015 00:35:00 2.8 C 5.28 g/m*3 2.8 C 0 km/h
2181 12-02-2015 00:40:00 2.8 C 5.28 g/m*3 2.8 C 4.8 km/h
2182 12-02-2015 00:45:00 2.8 C 5.28 g/m*3 2.8 C 0 km/h
2183 12-02-2015 00:50:00 2.8 C 5.28 g/m*3 2.8 C 1.6 km/h
2184 12-02-2015 00:55:00 2.8 C 5.28 g/m*3 2.8 C 3.2 km/h
2185 12-02-2015 01:00:00 2.8 C 5.28 g/m*3 2.8 C 0 km/h
2186 12-02-2015 01:05:00 2.8 C 5.28 g/m*3 2.8 C 3.2 km/h
2187 12-02-2015 01:10:00 2.9 C 5.32 g/m*3 2.9 C 3.2 km/h
2188 12-02-2015 01:15:00 2.9 C 5.32 g/m*3 2.9 C 0 km/h
2189 12-02-2015 01:20:00 2.9 C 5.32 g/m*3 2.9 C 0 km/h
2190 12-02-2015 01:25:00 2.9 C 5.32 g/m*3 2.9 C 0 km/h
2191 12-02-2015 01:30:00 2.9 C 5.32 g/m*3 2.9 C 0 km/h
2192 12-02-2015 01:35:00 2.9 C 5.32 g/m*3 2.9 C 0 km/h
2193 12-02-2015 01:40:00 2.9 C 5.32 g/m*3 2.9 C 0 km/h
2194 12-02-2015 01:45:00 2.9 C 5.32 g/m*3 2.9 C 0 km/h
2195 12-02-2015 01:50:00 2.8 C 5.28 g/m*3 2.8 C 0 km/h
2196 12-02-2015 01:55:00 2.8 C 5.28 g/m*3 2.8 C 0 km/h
2197 12-02-2015 02:00:00 2.8 C 5.28 g/m*3 2.8 C 1.6 km/h
2198 12-02-2015 02:05:00 2.9 C 5.32 g/m*3 2.9 C 0 km/h
2199 12-02-2015 02:10:00 2.9 C 5.32 g/m*3 2.9 C 0 km/h
2200 12-02-2015 02:15:00 2.9 C 5.32 g/m*3 2.9 C 0 km/h
Sensor: Nr:Datum:Temp:Abs-Feuchte:Windchill:Wind:
Aussen-T/F 2201 12-02-2015 02:20:00 2.8 C 5.28 g/m*3 2.8 C 0 km/h
2202 12-02-2015 02:25:00 2.9 C 5.32 g/m*3 2.9 C 1.6 km/h
2203 12-02-2015 02:30:00 2.9 C 5.32 g/m*3 2.9 C 0 km/h
2204 12-02-2015 02:35:00 2.8 C 5.28 g/m*3 2.8 C 0 km/h
2205 12-02-2015 02:40:00 2.8 C 5.28 g/m*3 2.8 C 0 km/h
2206 12-02-2015 02:45:00 2.8 C 5.28 g/m*3 2.8 C 0 km/h
2207 12-02-2015 02:50:00 2.8 C 5.28 g/m*3 2.8 C 0 km/h
2208 12-02-2015 02:55:00 2.8 C 5.28 g/m*3 2.8 C 0 km/h
2209 12-02-2015 03:00:00 2.8 C 5.28 g/m*3 2.8 C 0 km/h
2210 12-02-2015 03:05:00 2.8 C 5.28 g/m*3 2.8 C 0 km/h
2211 12-02-2015 03:10:00 2.8 C 5.28 g/m*3 2.8 C 0 km/h
2212 12-02-2015 03:15:00 2.8 C 5.28 g/m*3 2.8 C 0 km/h
2213 12-02-2015 03:20:00 2.8 C 5.28 g/m*3 2.8 C 0 km/h
2214 12-02-2015 03:25:00 2.8 C 5.28 g/m*3 2.8 C 0 km/h
2215 12-02-2015 03:30:00 2.8 C 5.28 g/m*3 2.8 C 3.2 km/h
2216 12-02-2015 03:35:00 2.8 C 5.28 g/m*3 2.8 C 1.6 km/h
2217 12-02-2015 03:40:00 2.8 C 5.28 g/m*3 2.8 C 0 km/h
2218 12-02-2015 03:45:00 2.8 C 5.28 g/m*3 2.8 C 0 km/h
2219 12-02-2015 03:50:00 2.8 C 5.28 g/m*3 2.8 C 1.6 km/h
2220 12-02-2015 03:55:00 2.8 C 5.22 g/m*3 2.8 C 1.6 km/h
2221 12-02-2015 04:00:00 2.8 C 5.22 g/m*3 2.8 C 1.6 km/h
2222 12-02-2015 04:05:00 2.8 C 5.28 g/m*3 2.8 C 0 km/h
2223 12-02-2015 04:10:00 2.8 C 5.28 g/m*3 2.8 C 0 km/h
2224 12-02-2015 04:15:00 2.8 C 5.28 g/m*3 2.8 C 4.8 km/h
2225 12-02-2015 04:20:00 2.8 C 5.28 g/m*3 2.8 C 4.8 km/h
Sensor: Nr:Datum:Temp:Abs-Feuchte:Windchill:Wind:
Aussen-T/F 2226 12-02-2015 04:25:00 2.8 C 5.28 g/m*3 2.8 C 0 km/h
2227 12-02-2015 04:30:00 2.8 C 5.28 g/m*3 2.8 C 0 km/h
2228 12-02-2015 04:35:00 2.8 C 5.28 g/m*3 2.8 C 1.6 km/h
2229 12-02-2015 04:40:00 2.7 C 5.19 g/m*3 2.7 C 3.2 km/h
2230 12-02-2015 04:45:00 2.8 C 5.28 g/m*3 2.8 C 1.6 km/h
2231 12-02-2015 04:50:00 2.7 C 5.24 g/m*3 2.7 C 3.2 km/h
2232 12-02-2015 04:55:00 2.7 C 5.24 g/m*3 2.7 C 1.6 km/h
2233 12-02-2015 05:00:00 2.7 C 5.24 g/m*3 2.7 C 1.6 km/h
2234 12-02-2015 05:05:00 2.7 C 5.19 g/m*3 2.7 C 0 km/h
2235 12-02-2015 05:10:00 2.7 C 5.19 g/m*3 2.7 C 0 km/h
2236 12-02-2015 05:15:00 2.7 C 5.19 g/m*3 2.7 C 0 km/h
2237 12-02-2015 05:20:00 2.7 C 5.24 g/m*3 2.7 C 0 km/h
2238 12-02-2015 05:25:00 2.7 C 5.24 g/m*3 2.7 C 0 km/h
2239 12-02-2015 05:30:00 2.7 C 5.24 g/m*3 0.94 C 6.4 km/h
2240 12-02-2015 05:35:00 2.7 C 5.24 g/m*3 0.94 C 6.4 km/h
2241 12-02-2015 05:40:00 2.7 C 5.24 g/m*3 2.7 C 0 km/h
2242 12-02-2015 05:45:00 2.7 C 5.24 g/m*3 2.7 C 0 km/h
2243 12-02-2015 05:50:00 2.7 C 5.24 g/m*3 2.7 C 3.2 km/h
2244 12-02-2015 05:55:00 2.6 C 5.21 g/m*3 2.6 C 0 km/h
2245 12-02-2015 06:00:00 2.6 C 5.21 g/m*3 2.6 C 0 km/h
2246 12-02-2015 06:05:00 2.6 C 5.15 g/m*3 2.6 C 0 km/h
2247 12-02-2015 06:10:00 2.6 C 5.21 g/m*3 2.6 C 0 km/h
2248 12-02-2015 06:15:00 2.6 C 5.21 g/m*3 2.6 C 0 km/h
2249 12-02-2015 06:20:00 2.6 C 5.21 g/m*3 2.6 C 1.6 km/h
2250 12-02-2015 06:25:00 2.6 C 5.21 g/m*3 2.6 C 0 km/h
Sensor: Nr:Datum:Temp:Abs-Feuchte:Windchill:Wind:
Aussen-T/F 2251 12-02-2015 06:30:00 2.6 C 5.21 g/m*3 2.6 C 0 km/h
2252 12-02-2015 06:35:00 2.6 C 5.21 g/m*3 2.6 C 1.6 km/h
2253 12-02-2015 06:40:00 2.6 C 5.15 g/m*3 2.6 C 3.2 km/h
2254 12-02-2015 06:45:00 2.6 C 5.15 g/m*3 0.82 C 6.4 km/h
2255 12-02-2015 06:50:00 2.5 C 5.12 g/m*3 2.5 C 4.8 km/h
2256 12-02-2015 06:55:00 2.5 C 5.12 g/m*3 2.5 C 0 km/h
2257 12-02-2015 07:00:00 2.5 C 5.12 g/m*3 2.5 C 0 km/h
2258 12-02-2015 07:05:00 2.5 C 5.12 g/m*3 2.5 C 1.6 km/h
2259 12-02-2015 07:10:00 2.4 C 5.14 g/m*3 2.4 C 0 km/h
2260 12-02-2015 07:15:00 2.5 C 5.17 g/m*3 2.5 C 0 km/h
2261 12-02-2015 07:20:00 2.5 C 5.17 g/m*3 2.5 C 0 km/h
2262 12-02-2015 07:25:00 2.5 C 5.17 g/m*3 2.5 C 0 km/h
2263 12-02-2015 07:30:00 2.4 C 5.14 g/m*3 2.4 C 0 km/h
2264 12-02-2015 07:35:00 2.4 C 5.14 g/m*3 2.4 C 3.2 km/h
2265 12-02-2015 07:40:00 2.4 C 5.14 g/m*3 2.4 C 0 km/h
2266 12-02-2015 07:45:00 2.4 C 5.14 g/m*3 2.4 C 1.6 km/h
2267 12-02-2015 07:50:00 2.4 C 5.14 g/m*3 2.4 C 0 km/h
2268 12-02-2015 07:55:00 2.4 C 5.14 g/m*3 2.4 C 0 km/h
2269 12-02-2015 08:00:00 2.4 C 5.14 g/m*3 2.4 C 3.2 km/h
2270 12-02-2015 08:05:00 2.4 C 5.14 g/m*3 2.4 C 0 km/h
2271 12-02-2015 08:10:00 2.4 C 5.14 g/m*3 2.4 C 1.6 km/h
2272 12-02-2015 08:15:00 2.4 C 5.14 g/m*3 2.4 C 1.6 km/h
2273 12-02-2015 08:20:00 2.4 C 5.14 g/m*3 2.4 C 0 km/h
2274 12-02-2015 08:25:00 2.4 C 5.14 g/m*3 2.4 C 0 km/h
2275 12-02-2015 08:30:00 2.4 C 5.14 g/m*3 2.4 C 3.2 km/h
Sensor: Nr:Datum:Temp:Abs-Feuchte:Windchill:Wind:
Aussen-T/F 2276 12-02-2015 08:35:00 2.4 C 5.14 g/m*3 2.4 C 0 km/h
2277 12-02-2015 08:40:00 2.4 C 5.14 g/m*3 2.4 C 0 km/h
2278 12-02-2015 08:45:00 2.4 C 5.14 g/m*3 2.4 C 1.6 km/h
2279 12-02-2015 08:50:00 2.4 C 5.14 g/m*3 2.4 C 0 km/h
2280 12-02-2015 08:55:00 2.4 C 5.14 g/m*3 2.4 C 0 km/h
2281 12-02-2015 09:00:00 2.4 C 5.14 g/m*3 2.4 C 1.6 km/h
2282 12-02-2015 09:05:00 2.4 C 5.14 g/m*3 2.4 C 4.8 km/h
2283 12-02-2015 09:10:00 2.5 C 5.17 g/m*3 2.5 C 3.2 km/h
2284 12-02-2015 09:15:00 2.5 C 5.17 g/m*3 2.5 C 3.2 km/h
2285 12-02-2015 09:20:00 2.5 C 5.17 g/m*3 2.5 C 3.2 km/h
2286 12-02-2015 09:25:00 2.5 C 5.17 g/m*3 2.5 C 0 km/h
2287 12-02-2015 09:30:00 2.5 C 5.17 g/m*3 2.5 C 0 km/h
2288 12-02-2015 09:35:00 2.6 C 5.21 g/m*3 2.6 C 0 km/h
2289 12-02-2015 09:40:00 2.6 C 5.21 g/m*3 2.6 C 1.6 km/h
2290 12-02-2015 09:45:00 2.6 C 5.21 g/m*3 2.6 C 3.2 km/h
2291 12-02-2015 09:50:00 2.6 C 5.21 g/m*3 2.6 C 3.2 km/h
2292 12-02-2015 09:55:00 2.6 C 5.21 g/m*3 2.6 C 3.2 km/h
2293 12-02-2015 10:00:00 2.6 C 5.21 g/m*3 2.6 C 4.8 km/h
2294 12-02-2015 10:05:00 2.6 C 5.21 g/m*3 2.6 C 3.2 km/h
2295 12-02-2015 10:10:00 2.6 C 5.15 g/m*3 0.29 C 8.1 km/h
2296 12-02-2015 10:15:00 2.6 C 5.21 g/m*3 2.6 C 0 km/h
2297 12-02-2015 10:20:00 2.6 C 5.21 g/m*3 2.6 C 4.8 km/h
2298 12-02-2015 10:25:00 2.6 C 5.21 g/m*3 2.6 C 1.6 km/h
2299 12-02-2015 10:30:00 2.6 C 5.21 g/m*3 0.82 C 6.4 km/h
2300 12-02-2015 10:35:00 2.7 C 5.24 g/m*3 2.7 C 3.2 km/h
Sensor: Nr:Datum:Temp:Abs-Feuchte:Windchill:Wind:
Aussen-T/F 2301 12-02-2015 10:40:00 2.7 C 5.24 g/m*3 2.7 C 3.2 km/h
2302 12-02-2015 10:45:00 2.7 C 5.24 g/m*3 0.94 C 6.4 km/h
2303 12-02-2015 10:50:00 2.8 C 5.28 g/m*3 2.8 C 3.2 km/h
2304 12-02-2015 10:55:00 2.8 C 5.22 g/m*3 2.8 C 4.8 km/h
2305 12-02-2015 11:00:00 2.8 C 5.28 g/m*3 2.8 C 4.8 km/h
2306 12-02-2015 11:05:00 2.8 C 5.22 g/m*3 2.8 C 3.2 km/h
2307 12-02-2015 11:10:00 2.8 C 5.22 g/m*3 2.8 C 1.6 km/h
2308 12-02-2015 11:15:00 2.9 C 5.26 g/m*3 0.22 C 9.7 km/h
2309 12-02-2015 11:20:00 2.9 C 5.26 g/m*3 0.22 C 9.7 km/h
2310 12-02-2015 11:25:00 2.9 C 5.26 g/m*3 2.9 C 4.8 km/h
2311 12-02-2015 11:30:00 2.9 C 5.26 g/m*3 2.9 C 3.2 km/h
2312 12-02-2015 11:35:00 2.9 C 5.26 g/m*3 2.9 C 3.2 km/h
2313 12-02-2015 11:40:00 3 C 5.29 g/m*3 3 C 3.2 km/h
2314 12-02-2015 11:45:00 3.1 C 5.27 g/m*3 1.4 C 6.4 km/h
2315 12-02-2015 11:50:00 3.1 C 5.27 g/m*3 3.1 C 4.8 km/h
2316 12-02-2015 11:55:00 3.1 C 5.27 g/m*3 1.4 C 6.4 km/h
2317 12-02-2015 12:00:00 3.1 C 5.27 g/m*3 1.4 C 6.4 km/h
2318 12-02-2015 12:05:00 3.1 C 5.27 g/m*3 3.1 C 3.2 km/h
2319 12-02-2015 12:10:00 3.2 C 5.3 g/m*3 3.2 C 3.2 km/h
2320 12-02-2015 12:15:00 3.3 C 5.34 g/m*3 3.3 C 4.8 km/h
2321 12-02-2015 12:20:00 3.3 C 5.28 g/m*3 1.11 C 8.1 km/h
2322 12-02-2015 12:25:00 3.2 C 5.24 g/m*3 0.58 C 9.7 km/h
2323 12-02-2015 12:30:00 3.2 C 5.3 g/m*3 3.2 C 4.8 km/h
2324 12-02-2015 12:35:00 3.3 C 5.34 g/m*3 3.3 C 3.2 km/h
2325 12-02-2015 12:40:00 3.3 C 5.34 g/m*3 3.3 C 3.2 km/h
Sensor: Nr:Datum:Temp:Abs-Feuchte:Windchill:Wind:
Aussen-T/F 2326 12-02-2015 12:45:00 3.4 C 5.37 g/m*3 3.4 C 1.6 km/h
2327 12-02-2015 12:50:00 3.6 C 5.45 g/m*3 3.6 C 4.8 km/h
2328 12-02-2015 12:55:00 3.7 C 5.42 g/m*3 1.18 C 9.7 km/h
2329 12-02-2015 13:00:00 3.7 C 5.36 g/m*3 3.7 C 4.8 km/h
2330 12-02-2015 13:05:00 3.6 C 5.39 g/m*3 3.6 C 1.6 km/h
2331 12-02-2015 13:10:00 3.6 C 5.32 g/m*3 3.6 C 3.2 km/h
2332 12-02-2015 13:15:00 3.6 C 5.39 g/m*3 1.98 C 6.4 km/h
2333 12-02-2015 13:20:00 3.7 C 5.48 g/m*3 1.58 C 8.1 km/h
2334 12-02-2015 13:25:00 3.7 C 5.36 g/m*3 3.7 C 4.8 km/h
2335 12-02-2015 13:30:00 3.9 C 5.49 g/m*3 3.9 C 3.2 km/h
2336 12-02-2015 13:35:00 4 C 5.53 g/m*3 2.44 C 6.4 km/h
2337 12-02-2015 13:40:00 4.2 C 5.61 g/m*3 4.2 C 3.2 km/h
2338 12-02-2015 13:45:00 4.2 C 5.48 g/m*3 2.67 C 6.4 km/h
2339 12-02-2015 13:50:00 4.2 C 5.48 g/m*3 4.2 C 4.8 km/h
2340 12-02-2015 13:55:00 4.3 C 5.51 g/m*3 2.29 C 8.1 km/h
2341 12-02-2015 14:00:00 4.4 C 5.55 g/m*3 4.4 C 4.8 km/h
2342 12-02-2015 14:05:00 4.5 C 5.59 g/m*3 4.5 C 1.6 km/h
2343 12-02-2015 14:10:00 4.6 C 5.56 g/m*3 4.6 C 3.2 km/h
2344 12-02-2015 14:15:00 4.7 C 5.66 g/m*3 4.7 C 3.2 km/h
2345 12-02-2015 14:20:00 4.8 C 5.63 g/m*3 4.8 C 4.8 km/h
2346 12-02-2015 14:25:00 4.9 C 5.67 g/m*3 3.48 C 6.4 km/h
2347 12-02-2015 14:30:00 5.1 C 5.81 g/m*3 3.71 C 6.4 km/h
2348 12-02-2015 14:35:00 5.2 C 5.71 g/m*3 3.34 C 8.1 km/h
2349 12-02-2015 14:40:00 5.4 C 5.79 g/m*3 3.58 C 8.1 km/h
2350 12-02-2015 14:45:00 5.4 C 5.72 g/m*3 4.06 C 6.4 km/h
Sensor: Nr:Datum:Temp:Abs-Feuchte:Windchill:Wind:
Aussen-T/F 2351 12-02-2015 14:50:00 5.4 C 5.72 g/m*3 5.4 C 3.2 km/h
2352 12-02-2015 14:55:00 5.4 C 5.72 g/m*3 3.2 C 9.7 km/h
2353 12-02-2015 15:00:00 5.4 C 5.72 g/m*3 4.06 C 6.4 km/h
2354 12-02-2015 15:05:00 5.4 C 5.72 g/m*3 4.06 C 6.4 km/h
2355 12-02-2015 15:10:00 5.4 C 5.72 g/m*3 3.58 C 8.1 km/h
2356 12-02-2015 15:15:00 5.4 C 5.72 g/m*3 3.2 C 9.7 km/h
2357 12-02-2015 15:20:00 5.4 C 5.65 g/m*3 3.2 C 9.7 km/h
2358 12-02-2015 15:25:00 5.3 C 5.68 g/m*3 3.08 C 9.7 km/h
2359 12-02-2015 15:30:00 5.4 C 5.72 g/m*3 4.06 C 6.4 km/h
2360 12-02-2015 15:35:00 5.4 C 5.65 g/m*3 4.06 C 6.4 km/h
2361 12-02-2015 15:40:00 5.3 C 5.68 g/m*3 3.46 C 8.1 km/h
2362 12-02-2015 15:45:00 5.2 C 5.58 g/m*3 3.82 C 6.4 km/h
2363 12-02-2015 15:50:00 5.1 C 5.61 g/m*3 3.23 C 8.1 km/h
2364 12-02-2015 15:55:00 4.9 C 5.6 g/m*3 3.48 C 6.4 km/h
2365 12-02-2015 16:00:00 4.9 C 5.6 g/m*3 3.48 C 6.4 km/h
2366 12-02-2015 16:05:00 4.8 C 5.57 g/m*3 3.36 C 6.4 km/h
2367 12-02-2015 16:10:00 4.8 C 5.57 g/m*3 3.36 C 6.4 km/h
2368 12-02-2015 16:15:00 4.7 C 5.53 g/m*3 4.7 C 4.8 km/h
2369 12-02-2015 16:20:00 4.7 C 5.6 g/m*3 4.7 C 1.6 km/h
2370 12-02-2015 16:25:00 4.7 C 5.53 g/m*3 4.7 C 4.8 km/h
2371 12-02-2015 16:30:00 4.7 C 5.53 g/m*3 3.25 C 6.4 km/h
2372 12-02-2015 16:35:00 4.6 C 5.49 g/m*3 4.6 C 3.2 km/h
2373 12-02-2015 16:40:00 4.6 C 5.56 g/m*3 4.6 C 3.2 km/h
2374 12-02-2015 16:45:00 4.5 C 5.52 g/m*3 4.5 C 3.2 km/h
2375 12-02-2015 16:50:00 4.4 C 5.48 g/m*3 4.4 C 1.6 km/h
Sensor: Nr:Datum:Temp:Abs-Feuchte:Windchill:Wind:
Aussen-T/F 2376 12-02-2015 16:55:00 4.3 C 5.45 g/m*3 4.3 C 4.8 km/h
2377 12-02-2015 17:00:00 4.2 C 5.41 g/m*3 4.2 C 4.8 km/h
2378 12-02-2015 17:05:00 4.1 C 5.44 g/m*3 2.05 C 8.1 km/h
2379 12-02-2015 17:10:00 3.9 C 5.37 g/m*3 2.32 C 6.4 km/h
2380 12-02-2015 17:15:00 3.8 C 5.4 g/m*3 2.21 C 6.4 km/h
2381 12-02-2015 17:20:00 3.7 C 5.36 g/m*3 2.09 C 6.4 km/h
2382 12-02-2015 17:25:00 3.5 C 5.29 g/m*3 1.34 C 8.1 km/h
2383 12-02-2015 17:30:00 3.3 C 5.28 g/m*3 1.63 C 6.4 km/h
2384 12-02-2015 17:35:00 3.2 C 5.24 g/m*3 0.58 C 9.7 km/h
2385 12-02-2015 17:40:00 3.1 C 5.27 g/m*3 1.4 C 6.4 km/h
2386 12-02-2015 17:45:00 2.9 C 5.2 g/m*3 0.22 C 9.7 km/h
2387 12-02-2015 17:50:00 2.8 C 5.22 g/m*3 2.8 C 4.8 km/h
2388 12-02-2015 17:55:00 2.8 C 5.22 g/m*3 -0.59 C 12.9 km/h
2389 12-02-2015 18:00:00 2.7 C 5.19 g/m*3 -0.71 C 12.9 km/h
2390 12-02-2015 18:05:00 2.6 C 5.15 g/m*3 0.29 C 8.1 km/h
2391 12-02-2015 18:10:00 2.6 C 5.15 g/m*3 0.29 C 8.1 km/h
2392 12-02-2015 18:15:00 2.5 C 5.12 g/m*3 2.5 C 3.2 km/h
2393 12-02-2015 18:20:00 2.4 C 5.14 g/m*3 2.4 C 4.8 km/h
2394 12-02-2015 18:25:00 2.3 C 5.1 g/m*3 2.3 C 3.2 km/h
2395 12-02-2015 18:30:00 2.3 C 5.1 g/m*3 2.3 C 4.8 km/h
2396 12-02-2015 18:35:00 2.2 C 5.07 g/m*3 2.2 C 4.8 km/h
2397 12-02-2015 18:40:00 2.1 C 5.09 g/m*3 2.1 C 4.8 km/h
2398 12-02-2015 18:45:00 2 C 5.06 g/m*3 2 C 1.6 km/h
2399 12-02-2015 18:50:00 2 C 5.06 g/m*3 2 C 0 km/h
2400 12-02-2015 18:55:00 2 C 5.06 g/m*3 0.13 C 6.4 km/h
Sensor: Nr:Datum:Temp:Abs-Feuchte:Windchill:Wind:
Aussen-T/F 2401 12-02-2015 19:00:00 1.9 C 5.02 g/m*3 1.9 C 1.6 km/h
2402 12-02-2015 19:05:00 1.8 C 4.93 g/m*3 1.8 C 0 km/h
2403 12-02-2015 19:10:00 1.7 C 4.95 g/m*3 1.7 C 4.8 km/h
2404 12-02-2015 19:15:00 1.7 C 5.01 g/m*3 1.7 C 3.2 km/h
2405 12-02-2015 19:20:00 1.6 C 4.92 g/m*3 1.6 C 0 km/h
2406 12-02-2015 19:25:00 1.6 C 4.97 g/m*3 1.6 C 0 km/h
2407 12-02-2015 19:30:00 1.4 C 4.85 g/m*3 1.4 C 0 km/h
2408 12-02-2015 19:35:00 1.2 C 4.84 g/m*3 1.2 C 0 km/h
2409 12-02-2015 19:40:00 1 C 4.78 g/m*3 1 C 3.2 km/h
2410 12-02-2015 19:45:00 0.9 C 4.74 g/m*3 0.9 C 3.2 km/h
2411 12-02-2015 19:50:00 0.8 C 4.71 g/m*3 0.8 C 1.6 km/h
2412 12-02-2015 19:55:00 0.7 C 4.73 g/m*3 0.7 C 0 km/h
2413 12-02-2015 20:00:00 0.7 C 4.73 g/m*3 0.7 C 1.6 km/h
2414 12-02-2015 20:05:00 0.7 C 4.73 g/m*3 0.7 C 0 km/h
2415 12-02-2015 20:10:00 0.7 C 4.78 g/m*3 0.7 C 0 km/h
2416 12-02-2015 20:15:00 0.6 C 4.75 g/m*3 0.6 C 1.6 km/h
2417 12-02-2015 20:20:00 0.7 C 4.78 g/m*3 0.7 C 0 km/h
2418 12-02-2015 20:25:00 0.7 C 4.78 g/m*3 0.7 C 0 km/h
2419 12-02-2015 20:30:00 0.7 C 4.78 g/m*3 0.7 C 0 km/h
2420 12-02-2015 20:35:00 0.7 C 4.78 g/m*3 0.7 C 3.2 km/h
2421 12-02-2015 20:40:00 0.8 C 4.81 g/m*3 0.8 C 3.2 km/h
2422 12-02-2015 20:45:00 0.8 C 4.81 g/m*3 0.8 C 0 km/h
2423 12-02-2015 20:50:00 0.8 C 4.86 g/m*3 0.8 C 0 km/h
2424 12-02-2015 20:55:00 0.9 C 4.9 g/m*3 0.9 C 0 km/h
2425 12-02-2015 21:00:00 0.9 C 4.9 g/m*3 0.9 C 0 km/h
Sensor: Nr:Datum:Temp:Abs-Feuchte:Windchill:Wind:
Aussen-T/F 2426 12-02-2015 21:05:00 1 C 4.93 g/m*3 1 C 0 km/h
2427 12-02-2015 21:10:00 1 C 4.88 g/m*3 1 C 0 km/h
2428 12-02-2015 21:15:00 1.1 C 4.91 g/m*3 1.1 C 0 km/h
2429 12-02-2015 21:20:00 1.1 C 4.91 g/m*3 1.1 C 0 km/h
2430 12-02-2015 21:25:00 1.1 C 4.91 g/m*3 1.1 C 0 km/h
2431 12-02-2015 21:30:00 1.1 C 4.91 g/m*3 1.1 C 0 km/h
2432 12-02-2015 21:35:00 1.2 C 4.95 g/m*3 1.2 C 0 km/h
2433 12-02-2015 21:40:00 1.2 C 4.95 g/m*3 1.2 C 0 km/h
2434 12-02-2015 21:45:00 1.2 C 4.95 g/m*3 1.2 C 0 km/h
2435 12-02-2015 21:50:00 1.2 C 4.95 g/m*3 1.2 C 0 km/h
2436 12-02-2015 21:55:00 1.1 C 4.91 g/m*3 1.1 C 1.6 km/h
2437 12-02-2015 22:00:00 1.1 C 4.91 g/m*3 1.1 C 0 km/h
2438 12-02-2015 22:05:00 1.1 C 4.91 g/m*3 1.1 C 0 km/h
2439 12-02-2015 22:10:00 1.2 C 4.95 g/m*3 1.2 C 0 km/h
2440 12-02-2015 22:15:00 1.2 C 4.95 g/m*3 1.2 C 1.6 km/h
2441 12-02-2015 22:20:00 1.1 C 4.91 g/m*3 1.1 C 0 km/h
2442 12-02-2015 22:25:00 1.2 C 4.95 g/m*3 1.2 C 0 km/h
2443 12-02-2015 22:30:00 1.2 C 4.95 g/m*3 1.2 C 1.6 km/h
2444 12-02-2015 22:35:00 1.2 C 4.95 g/m*3 1.2 C 0 km/h
2445 12-02-2015 22:40:00 1.2 C 5 g/m*3 1.2 C 0 km/h
2446 12-02-2015 22:45:00 1.3 C 5.03 g/m*3 1.3 C 0 km/h
2447 12-02-2015 22:50:00 1.3 C 5.03 g/m*3 1.3 C 1.6 km/h
2448 12-02-2015 22:55:00 1.3 C 5.03 g/m*3 1.3 C 1.6 km/h
2449 12-02-2015 23:00:00 1.4 C 5.07 g/m*3 1.4 C 0 km/h
2450 12-02-2015 23:05:00 1.4 C 5.07 g/m*3 1.4 C 0 km/h
Sensor: Nr:Datum:Temp:Abs-Feuchte:Windchill:Wind:
Aussen-T/F 2451 12-02-2015 23:10:00 1.4 C 5.07 g/m*3 1.4 C 0 km/h
2452 12-02-2015 23:15:00 1.4 C 5.01 g/m*3 1.4 C 0 km/h
2453 12-02-2015 23:20:00 1.5 C 5.05 g/m*3 1.5 C 0 km/h
2454 12-02-2015 23:25:00 1.6 C 5.08 g/m*3 1.6 C 0 km/h
2455 12-02-2015 23:30:00 1.6 C 5.08 g/m*3 1.6 C 0 km/h
2456 12-02-2015 23:35:00 1.6 C 5.08 g/m*3 1.6 C 0 km/h
2457 12-02-2015 23:40:00 1.6 C 5.08 g/m*3 1.6 C 0 km/h
2458 12-02-2015 23:45:00 1.7 C 5.12 g/m*3 1.7 C 0 km/h
2459 12-02-2015 23:50:00 1.7 C 5.12 g/m*3 1.7 C 1.6 km/h
2460 12-02-2015 23:55:00 1.7 C 5.12 g/m*3 1.7 C 1.6 km/h
2461 13-02-2015 00:00:00 1.7 C 5.06 g/m*3 1.7 C 0 km/h
2462 13-02-2015 00:05:00 1.7 C 5.06 g/m*3 1.7 C 0 km/h
2463 13-02-2015 00:10:00 1.8 C 5.1 g/m*3 1.8 C 1.6 km/h
2464 13-02-2015 00:15:00 1.8 C 5.1 g/m*3 1.8 C 0 km/h
2465 13-02-2015 00:20:00 1.8 C 5.1 g/m*3 1.8 C 0 km/h
2466 13-02-2015 00:25:00 1.8 C 5.1 g/m*3 1.8 C 0 km/h
2467 13-02-2015 00:30:00 1.7 C 5.06 g/m*3 1.7 C 0 km/h
2468 13-02-2015 00:35:00 1.7 C 5.06 g/m*3 1.7 C 0 km/h
2469 13-02-2015 00:40:00 1.7 C 5.06 g/m*3 1.7 C 0 km/h
2470 13-02-2015 00:45:00 1.7 C 5.06 g/m*3 1.7 C 0 km/h
2471 13-02-2015 00:50:00 1.7 C 5.06 g/m*3 1.7 C 0 km/h
2472 13-02-2015 00:55:00 1.7 C 5.06 g/m*3 1.7 C 0 km/h
2473 13-02-2015 01:00:00 1.7 C 5.06 g/m*3 1.7 C 0 km/h
2474 13-02-2015 01:05:00 1.7 C 5.06 g/m*3 1.7 C 0 km/h
2475 13-02-2015 01:10:00 1.7 C 5.06 g/m*3 1.7 C 0 km/h
Sensor: Nr:Datum:Temp:Abs-Feuchte:Windchill:Wind:
Aussen-T/F 2476 13-02-2015 01:15:00 1.7 C 5.06 g/m*3 1.7 C 0 km/h
2477 13-02-2015 01:20:00 1.7 C 5.06 g/m*3 1.7 C 0 km/h
2478 13-02-2015 01:25:00 1.7 C 5.06 g/m*3 1.7 C 0 km/h
2479 13-02-2015 01:30:00 1.7 C 5.06 g/m*3 1.7 C 0 km/h
2480 13-02-2015 01:35:00 1.7 C 5.06 g/m*3 1.7 C 0 km/h
2481 13-02-2015 01:40:00 1.7 C 5.06 g/m*3 1.7 C 0 km/h
2482 13-02-2015 01:45:00 1.6 C 5.03 g/m*3 1.6 C 0 km/h
2483 13-02-2015 01:50:00 1.6 C 5.03 g/m*3 1.6 C 0 km/h
2484 13-02-2015 01:55:00 1.6 C 5.03 g/m*3 1.6 C 0 km/h
2485 13-02-2015 02:00:00 1.6 C 5.03 g/m*3 1.6 C 0 km/h
2486 13-02-2015 02:05:00 1.6 C 5.03 g/m*3 1.6 C 0 km/h
2487 13-02-2015 02:10:00 1.6 C 5.03 g/m*3 1.6 C 0 km/h
2488 13-02-2015 02:15:00 1.6 C 5.03 g/m*3 1.6 C 3.2 km/h
2489 13-02-2015 02:20:00 1.7 C 5.06 g/m*3 1.7 C 0 km/h
2490 13-02-2015 02:25:00 1.7 C 5.06 g/m*3 1.7 C 0 km/h
2491 13-02-2015 02:30:00 1.7 C 5.06 g/m*3 1.7 C 0 km/h
2492 13-02-2015 02:35:00 1.7 C 5.06 g/m*3 1.7 C 1.6 km/h
2493 13-02-2015 02:40:00 1.7 C 5.06 g/m*3 1.7 C 0 km/h
2494 13-02-2015 02:45:00 1.7 C 5.06 g/m*3 1.7 C 0 km/h
2495 13-02-2015 02:50:00 1.7 C 5.06 g/m*3 1.7 C 0 km/h
2496 13-02-2015 02:55:00 1.8 C 5.1 g/m*3 1.8 C 0 km/h
2497 13-02-2015 03:00:00 1.8 C 5.1 g/m*3 1.8 C 0 km/h
2498 13-02-2015 03:05:00 1.8 C 5.1 g/m*3 1.8 C 0 km/h
2499 13-02-2015 03:10:00 1.8 C 5.1 g/m*3 1.8 C 1.6 km/h
2500 13-02-2015 03:15:00 1.8 C 5.1 g/m*3 1.8 C 3.2 km/h
Sensor: Nr:Datum:Temp:Abs-Feuchte:Windchill:Wind:
Aussen-T/F 2501 13-02-2015 03:20:00 1.8 C 5.1 g/m*3 1.8 C 3.2 km/h
2502 13-02-2015 03:25:00 1.8 C 5.04 g/m*3 1.8 C 4.8 km/h
2503 13-02-2015 03:30:00 1.8 C 5.04 g/m*3 1.8 C 1.6 km/h
2504 13-02-2015 03:35:00 1.8 C 5.04 g/m*3 1.8 C 1.6 km/h
2505 13-02-2015 03:40:00 1.8 C 5.04 g/m*3 1.8 C 0 km/h
2506 13-02-2015 03:45:00 1.8 C 5.04 g/m*3 1.8 C 0 km/h
2507 13-02-2015 03:50:00 1.8 C 5.04 g/m*3 1.8 C 3.2 km/h
2508 13-02-2015 03:55:00 1.8 C 5.04 g/m*3 1.8 C 0 km/h
2509 13-02-2015 04:00:00 1.8 C 5.04 g/m*3 1.8 C 1.6 km/h
2510 13-02-2015 04:05:00 1.8 C 5.04 g/m*3 -1.09 C 9.7 km/h
2511 13-02-2015 04:10:00 1.8 C 5.04 g/m*3 1.8 C 0 km/h
2512 13-02-2015 04:15:00 1.8 C 5.04 g/m*3 1.8 C 1.6 km/h
2513 13-02-2015 04:20:00 1.8 C 5.04 g/m*3 1.8 C 0 km/h
2514 13-02-2015 04:25:00 1.8 C 5.04 g/m*3 1.8 C 0 km/h
2515 13-02-2015 04:30:00 1.8 C 5.04 g/m*3 1.8 C 1.6 km/h
2516 13-02-2015 04:35:00 1.8 C 5.04 g/m*3 1.8 C 1.6 km/h
2517 13-02-2015 04:40:00 1.8 C 5.04 g/m*3 1.8 C 1.6 km/h
2518 13-02-2015 04:45:00 1.8 C 5.04 g/m*3 1.8 C 1.6 km/h
2519 13-02-2015 04:50:00 1.7 C 5.01 g/m*3 1.7 C 1.6 km/h
2520 13-02-2015 04:55:00 1.7 C 5.01 g/m*3 1.7 C 3.2 km/h
2521 13-02-2015 05:00:00 1.7 C 5.01 g/m*3 1.7 C 1.6 km/h
2522 13-02-2015 05:05:00 1.7 C 5.01 g/m*3 1.7 C 3.2 km/h
2523 13-02-2015 05:10:00 1.7 C 4.95 g/m*3 1.7 C 3.2 km/h
2524 13-02-2015 05:15:00 1.7 C 5.01 g/m*3 1.7 C 0 km/h
2525 13-02-2015 05:20:00 1.7 C 5.01 g/m*3 1.7 C 0 km/h
Sensor: Nr:Datum:Temp:Abs-Feuchte:Windchill:Wind:
Aussen-T/F 2526 13-02-2015 05:25:00 1.7 C 4.95 g/m*3 1.7 C 0 km/h
2527 13-02-2015 05:30:00 1.7 C 4.95 g/m*3 1.7 C 0 km/h
2528 13-02-2015 05:35:00 1.7 C 4.95 g/m*3 1.7 C 1.6 km/h
2529 13-02-2015 05:40:00 1.7 C 4.95 g/m*3 1.7 C 3.2 km/h
2530 13-02-2015 05:45:00 1.6 C 4.92 g/m*3 1.6 C 3.2 km/h
2531 13-02-2015 05:50:00 1.6 C 4.92 g/m*3 1.6 C 0 km/h
2532 13-02-2015 05:55:00 1.6 C 4.92 g/m*3 1.6 C 1.6 km/h
2533 13-02-2015 06:00:00 1.6 C 4.92 g/m*3 1.6 C 3.2 km/h
2534 13-02-2015 06:05:00 1.6 C 4.92 g/m*3 1.6 C 3.2 km/h
2535 13-02-2015 06:10:00 1.6 C 4.92 g/m*3 1.6 C 3.2 km/h
2536 13-02-2015 06:15:00 1.6 C 4.92 g/m*3 1.6 C 3.2 km/h
2537 13-02-2015 06:20:00 1.6 C 4.92 g/m*3 1.6 C 3.2 km/h
2538 13-02-2015 06:25:00 1.6 C 4.92 g/m*3 1.6 C 3.2 km/h
2539 13-02-2015 06:30:00 1.6 C 4.92 g/m*3 1.6 C 3.2 km/h
2540 13-02-2015 06:35:00 1.6 C 4.92 g/m*3 1.6 C 3.2 km/h
2541 13-02-2015 06:40:00 1.6 C 4.97 g/m*3 1.6 C 4.8 km/h
2542 13-02-2015 06:45:00 1.6 C 4.97 g/m*3 -0.33 C 6.4 km/h
2543 13-02-2015 06:50:00 1.6 C 4.97 g/m*3 1.6 C 3.2 km/h
2544 13-02-2015 06:55:00 1.6 C 4.97 g/m*3 1.6 C 4.8 km/h
2545 13-02-2015 07:00:00 1.6 C 4.97 g/m*3 1.6 C 1.6 km/h
2546 13-02-2015 07:05:00 1.6 C 4.97 g/m*3 1.6 C 0 km/h
2547 13-02-2015 07:10:00 1.6 C 4.97 g/m*3 1.6 C 3.2 km/h
2548 13-02-2015 07:15:00 1.6 C 4.97 g/m*3 1.6 C 0 km/h
2549 13-02-2015 07:20:00 1.5 C 4.94 g/m*3 1.5 C 4.8 km/h
2550 13-02-2015 07:25:00 1.5 C 4.94 g/m*3 1.5 C 1.6 km/h
Sensor: Nr:Datum:Temp:Abs-Feuchte:Windchill:Wind:
Aussen-T/F 2551 13-02-2015 07:30:00 1.5 C 4.94 g/m*3 1.5 C 0 km/h
2552 13-02-2015 07:35:00 1.5 C 4.94 g/m*3 1.5 C 1.6 km/h
2553 13-02-2015 07:40:00 1.5 C 4.94 g/m*3 -1.01 C 8.1 km/h
2554 13-02-2015 07:45:00 1.5 C 4.94 g/m*3 1.5 C 4.8 km/h
2555 13-02-2015 07:50:00 1.5 C 4.94 g/m*3 1.5 C 0 km/h
2556 13-02-2015 07:55:00 1.5 C 4.94 g/m*3 1.5 C 0 km/h
2557 13-02-2015 08:00:00 1.5 C 4.94 g/m*3 1.5 C 0 km/h
2558 13-02-2015 08:05:00 1.5 C 4.94 g/m*3 1.5 C 0 km/h
2559 13-02-2015 08:10:00 1.5 C 4.94 g/m*3 1.5 C 4.8 km/h
2560 13-02-2015 08:15:00 1.5 C 4.94 g/m*3 1.5 C 3.2 km/h
2561 13-02-2015 08:20:00 1.5 C 4.94 g/m*3 1.5 C 1.6 km/h
2562 13-02-2015 08:25:00 1.5 C 4.89 g/m*3 1.5 C 4.8 km/h
2563 13-02-2015 08:30:00 1.6 C 4.92 g/m*3 1.6 C 3.2 km/h
2564 13-02-2015 08:35:00 1.6 C 4.92 g/m*3 1.6 C 1.6 km/h
2565 13-02-2015 08:40:00 1.6 C 4.97 g/m*3 1.6 C 3.2 km/h
2566 13-02-2015 08:45:00 1.6 C 4.92 g/m*3 -0.89 C 8.1 km/h
2567 13-02-2015 08:50:00 1.6 C 4.92 g/m*3 1.6 C 1.6 km/h
2568 13-02-2015 08:55:00 1.6 C 4.92 g/m*3 1.6 C 1.6 km/h
2569 13-02-2015 09:00:00 1.6 C 4.92 g/m*3 1.6 C 1.6 km/h
2570 13-02-2015 09:05:00 1.7 C 4.95 g/m*3 1.7 C 4.8 km/h
2571 13-02-2015 09:10:00 1.7 C 4.95 g/m*3 1.7 C 1.6 km/h
2572 13-02-2015 09:15:00 1.8 C 4.99 g/m*3 1.8 C 0 km/h
2573 13-02-2015 09:20:00 1.8 C 4.99 g/m*3 1.8 C 4.8 km/h
2574 13-02-2015 09:25:00 1.8 C 4.99 g/m*3 1.8 C 4.8 km/h
2575 13-02-2015 09:30:00 1.8 C 4.99 g/m*3 1.8 C 1.6 km/h
Sensor: Nr:Datum:Temp:Abs-Feuchte:Windchill:Wind:
Aussen-T/F 2576 13-02-2015 09:35:00 1.8 C 4.99 g/m*3 1.8 C 3.2 km/h
2577 13-02-2015 09:40:00 1.9 C 5.02 g/m*3 1.9 C 4.8 km/h
2578 13-02-2015 09:45:00 1.9 C 5.02 g/m*3 1.9 C 3.2 km/h
2579 13-02-2015 09:50:00 1.9 C 5.02 g/m*3 1.9 C 3.2 km/h
2580 13-02-2015 09:55:00 2 C 5 g/m*3 0.13 C 6.4 km/h
2581 13-02-2015 10:00:00 2.1 C 5.09 g/m*3 2.1 C 4.8 km/h
2582 13-02-2015 10:05:00 2.1 C 5.04 g/m*3 2.1 C 4.8 km/h
2583 13-02-2015 10:10:00 2.1 C 5.04 g/m*3 2.1 C 4.8 km/h
2584 13-02-2015 10:15:00 2.1 C 5.04 g/m*3 2.1 C 3.2 km/h
2585 13-02-2015 10:20:00 2.2 C 5.01 g/m*3 2.2 C 4.8 km/h
2586 13-02-2015 10:25:00 2.2 C 5.01 g/m*3 2.2 C 3.2 km/h
2587 13-02-2015 10:30:00 2.2 C 5.01 g/m*3 2.2 C 4.8 km/h
2588 13-02-2015 10:35:00 2.3 C 5.05 g/m*3 2.3 C 4.8 km/h
2589 13-02-2015 10:40:00 2.3 C 5.05 g/m*3 0.47 C 6.4 km/h
2590 13-02-2015 10:45:00 2.4 C 5.02 g/m*3 2.4 C 4.8 km/h
2591 13-02-2015 10:50:00 2.4 C 5.08 g/m*3 2.4 C 4.8 km/h
2592 13-02-2015 10:55:00 2.3 C 4.99 g/m*3 -0.07 C 8.1 km/h
2593 13-02-2015 11:00:00 2.3 C 4.99 g/m*3 -0.07 C 8.1 km/h
2594 13-02-2015 11:05:00 2.2 C 4.96 g/m*3 2.2 C 4.8 km/h
2595 13-02-2015 11:10:00 2.2 C 4.96 g/m*3 -0.18 C 8.1 km/h
2596 13-02-2015 11:15:00 2.3 C 4.99 g/m*3 2.3 C 4.8 km/h
2597 13-02-2015 11:20:00 2.3 C 4.93 g/m*3 2.3 C 4.8 km/h
2598 13-02-2015 11:25:00 2.4 C 4.97 g/m*3 2.4 C 3.2 km/h
2599 13-02-2015 11:30:00 2.4 C 5.02 g/m*3 0.59 C 6.4 km/h
2600 13-02-2015 11:35:00 2.6 C 5.03 g/m*3 0.82 C 6.4 km/h
Sensor: Nr:Datum:Temp:Abs-Feuchte:Windchill:Wind:
Aussen-T/F 2601 13-02-2015 11:40:00 2.7 C 5.07 g/m*3 0.94 C 6.4 km/h
2602 13-02-2015 11:45:00 2.7 C 5.01 g/m*3 0.4 C 8.1 km/h
2603 13-02-2015 11:50:00 2.7 C 5.01 g/m*3 2.7 C 4.8 km/h
2604 13-02-2015 11:55:00 2.7 C 5.01 g/m*3 2.7 C 4.8 km/h
2605 13-02-2015 12:00:00 2.8 C 5.04 g/m*3 2.8 C 4.8 km/h
2606 13-02-2015 12:05:00 2.8 C 5.04 g/m*3 1.05 C 6.4 km/h
2607 13-02-2015 12:10:00 2.8 C 5.04 g/m*3 2.8 C 3.2 km/h
2608 13-02-2015 12:15:00 2.9 C 5.08 g/m*3 1.17 C 6.4 km/h
2609 13-02-2015 12:20:00 3.1 C 5.15 g/m*3 3.1 C 4.8 km/h
2610 13-02-2015 12:25:00 3.2 C 5.12 g/m*3 1.51 C 6.4 km/h
2611 13-02-2015 12:30:00 3.3 C 5.16 g/m*3 3.3 C 4.8 km/h
2612 13-02-2015 12:35:00 3.3 C 5.16 g/m*3 3.3 C 1.6 km/h
2613 13-02-2015 12:40:00 3.6 C 5.32 g/m*3 1.98 C 6.4 km/h
2614 13-02-2015 12:45:00 3.8 C 5.33 g/m*3 3.8 C 4.8 km/h
2615 13-02-2015 12:50:00 4 C 5.34 g/m*3 4 C 4.8 km/h
2616 13-02-2015 12:55:00 4.2 C 5.41 g/m*3 4.2 C 0 km/h
2617 13-02-2015 13:00:00 4.3 C 5.38 g/m*3 4.3 C 4.8 km/h
2618 13-02-2015 13:05:00 4.3 C 5.38 g/m*3 4.3 C 4.8 km/h
2619 13-02-2015 13:10:00 4.5 C 5.46 g/m*3 4.5 C 3.2 km/h
2620 13-02-2015 13:15:00 4.7 C 5.46 g/m*3 4.7 C 4.8 km/h
2621 13-02-2015 13:20:00 4.9 C 5.54 g/m*3 2.99 C 8.1 km/h
2622 13-02-2015 13:25:00 5.1 C 5.61 g/m*3 3.71 C 6.4 km/h
2623 13-02-2015 13:30:00 5.2 C 5.58 g/m*3 5.2 C 4.8 km/h
2624 13-02-2015 13:35:00 5.3 C 5.48 g/m*3 3.94 C 6.4 km/h
2625 13-02-2015 13:40:00 5.1 C 5.47 g/m*3 3.23 C 8.1 km/h
Sensor: Nr:Datum:Temp:Abs-Feuchte:Windchill:Wind:
Aussen-T/F 2626 13-02-2015 13:45:00 5 C 5.5 g/m*3 2.39 C 11.3 km/h
2627 13-02-2015 13:50:00 5.1 C 5.54 g/m*3 5.1 C 4.8 km/h
2628 13-02-2015 13:55:00 5.3 C 5.68 g/m*3 5.3 C 4.8 km/h
2629 13-02-2015 14:00:00 5.3 C 5.54 g/m*3 3.46 C 8.1 km/h
2630 13-02-2015 14:05:00 5.4 C 5.65 g/m*3 4.06 C 6.4 km/h
2631 13-02-2015 14:10:00 5.5 C 5.62 g/m*3 4.17 C 6.4 km/h
2632 13-02-2015 14:15:00 5.7 C 5.62 g/m*3 5.7 C 3.2 km/h
2633 13-02-2015 14:20:00 5.8 C 5.8 g/m*3 5.8 C 4.8 km/h
2634 13-02-2015 14:25:00 5.9 C 5.77 g/m*3 4.17 C 8.1 km/h
2635 13-02-2015 14:30:00 5.9 C 5.62 g/m*3 3.48 C 11.3 km/h
2636 13-02-2015 14:35:00 5.9 C 5.62 g/m*3 5.9 C 4.8 km/h
2637 13-02-2015 14:40:00 6 C 5.73 g/m*3 6 C 4.8 km/h
2638 13-02-2015 14:45:00 6.1 C 5.7 g/m*3 6.1 C 4.8 km/h
2639 13-02-2015 14:50:00 6.1 C 5.77 g/m*3 4.86 C 6.4 km/h
2640 13-02-2015 14:55:00 6.1 C 5.7 g/m*3 4.86 C 6.4 km/h
2641 13-02-2015 15:00:00 6.1 C 5.63 g/m*3 6.1 C 3.2 km/h
2642 13-02-2015 15:05:00 5.9 C 5.62 g/m*3 4.63 C 6.4 km/h
2643 13-02-2015 15:10:00 5.8 C 5.59 g/m*3 4.52 C 6.4 km/h
2644 13-02-2015 15:15:00 5.8 C 5.66 g/m*3 5.8 C 4.8 km/h
2645 13-02-2015 15:20:00 5.9 C 5.7 g/m*3 5.9 C 3.2 km/h
2646 13-02-2015 15:25:00 5.8 C 5.66 g/m*3 4.05 C 8.1 km/h
2647 13-02-2015 15:30:00 5.8 C 5.59 g/m*3 4.05 C 8.1 km/h
2648 13-02-2015 15:35:00 5.6 C 5.59 g/m*3 3.81 C 8.1 km/h
2649 13-02-2015 15:40:00 5.6 C 5.59 g/m*3 5.6 C 4.8 km/h
2650 13-02-2015 15:45:00 5.6 C 5.59 g/m*3 4.29 C 6.4 km/h
Sensor: Nr:Datum:Temp:Abs-Feuchte:Windchill:Wind:
Aussen-T/F 2651 13-02-2015 15:50:00 5.5 C 5.55 g/m*3 3.7 C 8.1 km/h
2652 13-02-2015 15:55:00 5.4 C 5.58 g/m*3 3.58 C 8.1 km/h
2653 13-02-2015 16:00:00 5.3 C 5.54 g/m*3 3.46 C 8.1 km/h
2654 13-02-2015 16:05:00 5.3 C 5.54 g/m*3 5.3 C 4.8 km/h
2655 13-02-2015 16:10:00 5.2 C 5.44 g/m*3 5.2 C 4.8 km/h
2656 13-02-2015 16:15:00 5.1 C 5.47 g/m*3 3.71 C 6.4 km/h
2657 13-02-2015 16:20:00 4.9 C 5.4 g/m*3 3.48 C 6.4 km/h
2658 13-02-2015 16:25:00 4.9 C 5.4 g/m*3 3.48 C 6.4 km/h
2659 13-02-2015 16:30:00 4.8 C 5.43 g/m*3 3.36 C 6.4 km/h
2660 13-02-2015 16:35:00 4.7 C 5.33 g/m*3 3.25 C 6.4 km/h
2661 13-02-2015 16:40:00 4.6 C 5.36 g/m*3 4.6 C 4.8 km/h
2662 13-02-2015 16:45:00 4.4 C 5.35 g/m*3 2.9 C 6.4 km/h
2663 13-02-2015 16:50:00 4.4 C 5.35 g/m*3 1.09 C 14.5 km/h
2664 13-02-2015 16:55:00 4.3 C 5.32 g/m*3 4.3 C 3.2 km/h
2665 13-02-2015 17:00:00 4.2 C 5.28 g/m*3 2.67 C 6.4 km/h
2666 13-02-2015 17:05:00 4.1 C 5.25 g/m*3 2.55 C 6.4 km/h
2667 13-02-2015 17:10:00 4 C 5.21 g/m*3 1.93 C 8.1 km/h
2668 13-02-2015 17:15:00 3.8 C 5.21 g/m*3 2.21 C 6.4 km/h
2669 13-02-2015 17:20:00 3.7 C 5.17 g/m*3 1.18 C 9.7 km/h
2670 13-02-2015 17:25:00 3.6 C 5.2 g/m*3 3.6 C 4.8 km/h
2671 13-02-2015 17:30:00 3.6 C 5.2 g/m*3 1.46 C 8.1 km/h
2672 13-02-2015 17:35:00 3.4 C 5.13 g/m*3 3.4 C 3.2 km/h
2673 13-02-2015 17:40:00 3.3 C 5.1 g/m*3 1.63 C 6.4 km/h
2674 13-02-2015 17:45:00 3.1 C 5.09 g/m*3 0.1 C 11.3 km/h
2675 13-02-2015 17:50:00 2.9 C 5.08 g/m*3 0.22 C 9.7 km/h
Sensor: Nr:Datum:Temp:Abs-Feuchte:Windchill:Wind:
Aussen-T/F 2676 13-02-2015 17:55:00 2.8 C 5.04 g/m*3 2.8 C 3.2 km/h
2677 13-02-2015 18:00:00 2.8 C 5.04 g/m*3 2.8 C 0 km/h
2678 13-02-2015 18:05:00 2.7 C 5.01 g/m*3 2.7 C 0 km/h
2679 13-02-2015 18:10:00 2.4 C 4.97 g/m*3 2.4 C 0 km/h
2680 13-02-2015 18:15:00 2.1 C 4.87 g/m*3 2.1 C 1.6 km/h
2681 13-02-2015 18:20:00 1.8 C 4.82 g/m*3 1.8 C 3.2 km/h
2682 13-02-2015 18:25:00 1.7 C 4.85 g/m*3 1.7 C 3.2 km/h
2683 13-02-2015 18:30:00 1.5 C 4.83 g/m*3 1.5 C 1.6 km/h
2684 13-02-2015 18:35:00 1.4 C 4.8 g/m*3 1.4 C 0 km/h
2685 13-02-2015 18:40:00 1.3 C 4.82 g/m*3 1.3 C 1.6 km/h
2686 13-02-2015 18:45:00 1.3 C 4.82 g/m*3 1.3 C 3.2 km/h
2687 13-02-2015 18:50:00 1.2 C 4.79 g/m*3 1.2 C 1.6 km/h
2688 13-02-2015 18:55:00 1.2 C 4.79 g/m*3 1.2 C 3.2 km/h
2689 13-02-2015 19:00:00 1.1 C 4.81 g/m*3 1.1 C 0 km/h
2690 13-02-2015 19:05:00 1 C 4.78 g/m*3 1 C 3.2 km/h
2691 13-02-2015 19:10:00 1 C 4.78 g/m*3 1 C 1.6 km/h
2692 13-02-2015 19:15:00 0.9 C 4.74 g/m*3 0.9 C 0 km/h
2693 13-02-2015 19:20:00 0.9 C 4.74 g/m*3 0.9 C 0 km/h
2694 13-02-2015 19:25:00 0.8 C 4.71 g/m*3 0.8 C 3.2 km/h
2695 13-02-2015 19:30:00 0.8 C 4.71 g/m*3 0.8 C 1.6 km/h
2696 13-02-2015 19:35:00 0.7 C 4.68 g/m*3 0.7 C 0 km/h
2697 13-02-2015 19:40:00 0.7 C 4.73 g/m*3 0.7 C 0 km/h
2698 13-02-2015 19:45:00 0.6 C 4.7 g/m*3 0.6 C 1.6 km/h
2699 13-02-2015 19:50:00 0.6 C 4.7 g/m*3 0.6 C 4.8 km/h
2700 13-02-2015 19:55:00 0.6 C 4.7 g/m*3 0.6 C 3.2 km/h
Sensor: Nr:Datum:Temp:Abs-Feuchte:Windchill:Wind:
Aussen-T/F 2701 13-02-2015 20:00:00 0.6 C 4.7 g/m*3 0.6 C 1.6 km/h
2702 13-02-2015 20:05:00 0.6 C 4.75 g/m*3 0.6 C 1.6 km/h
2703 13-02-2015 20:10:00 0.6 C 4.75 g/m*3 0.6 C 0 km/h
2704 13-02-2015 20:15:00 0.7 C 4.78 g/m*3 0.7 C 4.8 km/h
2705 13-02-2015 20:20:00 0.9 C 4.85 g/m*3 -2.16 C 9.7 km/h
2706 13-02-2015 20:25:00 1.2 C 4.95 g/m*3 1.2 C 4.8 km/h
2707 13-02-2015 20:30:00 1.2 C 4.84 g/m*3 1.2 C 0 km/h
2708 13-02-2015 20:35:00 1.2 C 4.84 g/m*3 1.2 C 3.2 km/h
2709 13-02-2015 20:40:00 1.2 C 4.84 g/m*3 1.2 C 0 km/h
2710 13-02-2015 20:45:00 1.1 C 4.81 g/m*3 1.1 C 1.6 km/h
2711 13-02-2015 20:50:00 1.1 C 4.81 g/m*3 1.1 C 3.2 km/h
2712 13-02-2015 20:55:00 1.1 C 4.81 g/m*3 1.1 C 1.6 km/h
2713 13-02-2015 21:00:00 1.1 C 4.81 g/m*3 1.1 C 4.8 km/h
2714 13-02-2015 21:05:00 1.1 C 4.81 g/m*3 1.1 C 3.2 km/h
2715 13-02-2015 21:10:00 0.9 C 4.74 g/m*3 0.9 C 1.6 km/h
2716 13-02-2015 21:15:00 0.8 C 4.71 g/m*3 0.8 C 4.8 km/h
2717 13-02-2015 21:20:00 0.8 C 4.76 g/m*3 0.8 C 4.8 km/h
2718 13-02-2015 21:25:00 0.7 C 4.73 g/m*3 0.7 C 3.2 km/h
2719 13-02-2015 21:30:00 0.7 C 4.73 g/m*3 0.7 C 3.2 km/h
2720 13-02-2015 21:35:00 0.7 C 4.73 g/m*3 0.7 C 1.6 km/h
2721 13-02-2015 21:40:00 0.6 C 4.7 g/m*3 0.6 C 4.8 km/h
2722 13-02-2015 21:45:00 0.5 C 4.66 g/m*3 0.5 C 3.2 km/h
2723 13-02-2015 21:50:00 0.5 C 4.71 g/m*3 0.5 C 3.2 km/h
2724 13-02-2015 21:55:00 0.4 C 4.63 g/m*3 0.4 C 3.2 km/h
2725 13-02-2015 22:00:00 0.4 C 4.68 g/m*3 0.4 C 4.8 km/h
Sensor: Nr:Datum:Temp:Abs-Feuchte:Windchill:Wind:
Aussen-T/F 2726 13-02-2015 22:05:00 0.4 C 4.68 g/m*3 0.4 C 4.8 km/h
2727 13-02-2015 22:10:00 0.4 C 4.68 g/m*3 0.4 C 4.8 km/h
2728 13-02-2015 22:15:00 0.4 C 4.68 g/m*3 0.4 C 1.6 km/h
2729 13-02-2015 22:20:00 0.4 C 4.68 g/m*3 0.4 C 1.6 km/h
2730 13-02-2015 22:25:00 0.4 C 4.68 g/m*3 0.4 C 3.2 km/h
2731 13-02-2015 22:30:00 0.4 C 4.68 g/m*3 0.4 C 1.6 km/h
2732 13-02-2015 22:35:00 0.4 C 4.68 g/m*3 0.4 C 3.2 km/h
2733 13-02-2015 22:40:00 0.4 C 4.68 g/m*3 0.4 C 0 km/h
2734 13-02-2015 22:45:00 0.4 C 4.68 g/m*3 0.4 C 1.6 km/h
2735 13-02-2015 22:50:00 0.3 C 4.65 g/m*3 0.3 C 3.2 km/h
2736 13-02-2015 22:55:00 0.4 C 4.68 g/m*3 0.4 C 1.6 km/h
2737 13-02-2015 23:00:00 0.3 C 4.65 g/m*3 0.3 C 0 km/h
2738 13-02-2015 23:05:00 0.2 C 4.62 g/m*3 0.2 C 3.2 km/h
2739 13-02-2015 23:10:00 0.2 C 4.62 g/m*3 0.2 C 4.8 km/h
2740 13-02-2015 23:15:00 0.3 C 4.7 g/m*3 0.3 C 1.6 km/h
2741 13-02-2015 23:20:00 0.3 C 4.7 g/m*3 0.3 C 1.6 km/h
2742 13-02-2015 23:25:00 0.3 C 4.7 g/m*3 0.3 C 0 km/h
2743 13-02-2015 23:30:00 0.3 C 4.7 g/m*3 0.3 C 3.2 km/h
2744 13-02-2015 23:35:00 0.2 C 4.62 g/m*3 0.2 C 3.2 km/h
2745 13-02-2015 23:40:00 0.2 C 4.62 g/m*3 0.2 C 4.8 km/h
2746 13-02-2015 23:45:00 0.3 C 4.7 g/m*3 0.3 C 1.6 km/h
2747 13-02-2015 23:50:00 0.3 C 4.7 g/m*3 0.3 C 1.6 km/h
2748 13-02-2015 23:55:00 0.2 C 4.67 g/m*3 0.2 C 3.2 km/h
2749 14-02-2015 00:00:00 0.3 C 4.7 g/m*3 0.3 C 3.2 km/h
2750 14-02-2015 00:05:00 0.2 C 4.67 g/m*3 0.2 C 3.2 km/h
Sensor: Nr:Datum:Temp:Abs-Feuchte:Windchill:Wind:
Aussen-T/F 2751 14-02-2015 00:10:00 0.2 C 4.67 g/m*3 0.2 C 3.2 km/h
2752 14-02-2015 00:15:00 0.2 C 4.67 g/m*3 0.2 C 3.2 km/h
2753 14-02-2015 00:20:00 0.2 C 4.67 g/m*3 0.2 C 3.2 km/h
2754 14-02-2015 00:25:00 0.2 C 4.67 g/m*3 0.2 C 4.8 km/h
2755 14-02-2015 00:30:00 0.2 C 4.67 g/m*3 0.2 C 4.8 km/h
2756 14-02-2015 00:35:00 0.2 C 4.67 g/m*3 0.2 C 4.8 km/h
2757 14-02-2015 00:40:00 0.1 C 4.63 g/m*3 0.1 C 3.2 km/h
2758 14-02-2015 00:45:00 0.1 C 4.63 g/m*3 0.1 C 3.2 km/h
2759 14-02-2015 00:50:00 0.1 C 4.63 g/m*3 0.1 C 4.8 km/h
2760 14-02-2015 00:55:00 0.2 C 4.67 g/m*3 0.2 C 3.2 km/h
2761 14-02-2015 01:00:00 0.3 C 4.7 g/m*3 0.3 C 1.6 km/h
2762 14-02-2015 01:05:00 0.4 C 4.73 g/m*3 0.4 C 1.6 km/h
2763 14-02-2015 01:10:00 0.5 C 4.76 g/m*3 0.5 C 1.6 km/h
2764 14-02-2015 01:15:00 0.5 C 4.76 g/m*3 0.5 C 1.6 km/h
2765 14-02-2015 01:20:00 0.5 C 4.76 g/m*3 0.5 C 1.6 km/h
2766 14-02-2015 01:25:00 0.5 C 4.76 g/m*3 0.5 C 4.8 km/h
2767 14-02-2015 01:30:00 0.5 C 4.76 g/m*3 0.5 C 1.6 km/h
2768 14-02-2015 01:35:00 0.4 C 4.73 g/m*3 0.4 C 0 km/h
2769 14-02-2015 01:40:00 0.4 C 4.73 g/m*3 0.4 C 3.2 km/h
2770 14-02-2015 01:45:00 0.3 C 4.7 g/m*3 0.3 C 1.6 km/h
2771 14-02-2015 01:50:00 0.3 C 4.7 g/m*3 0.3 C 4.8 km/h
2772 14-02-2015 01:55:00 0.2 C 4.67 g/m*3 0.2 C 3.2 km/h
2773 14-02-2015 02:00:00 0.2 C 4.67 g/m*3 0.2 C 4.8 km/h
2774 14-02-2015 02:05:00 0.2 C 4.67 g/m*3 0.2 C 3.2 km/h
2775 14-02-2015 02:10:00 0.2 C 4.67 g/m*3 0.2 C 3.2 km/h
Sensor: Nr:Datum:Temp:Abs-Feuchte:Windchill:Wind:
Aussen-T/F 2776 14-02-2015 02:15:00 0.1 C 4.63 g/m*3 0.1 C 1.6 km/h
2777 14-02-2015 02:20:00 0.1 C 4.63 g/m*3 0.1 C 3.2 km/h
2778 14-02-2015 02:25:00 0 C 4.6 g/m*3 0 C 4.8 km/h
2779 14-02-2015 02:30:00 0 C 4.6 g/m*3 0 C 4.8 km/h
2780 14-02-2015 02:35:00 0 C 4.6 g/m*3 0 C 1.6 km/h
2781 14-02-2015 02:40:00 0 C 4.6 g/m*3 0 C 4.8 km/h
2782 14-02-2015 02:45:00 0 C 4.6 g/m*3 0 C 3.2 km/h
2783 14-02-2015 02:50:00 -0.1 C 4.57 g/m*3 -0.1 C 3.2 km/h
2784 14-02-2015 02:55:00 -0.1 C 4.57 g/m*3 -0.1 C 1.6 km/h
2785 14-02-2015 03:00:00 -0.1 C 4.57 g/m*3 -0.1 C 1.6 km/h
2786 14-02-2015 03:05:00 -0.1 C 4.57 g/m*3 -0.1 C 0 km/h
2787 14-02-2015 03:10:00 0 C 4.6 g/m*3 0 C 0 km/h
2788 14-02-2015 03:15:00 0 C 4.6 g/m*3 0 C 0 km/h
2789 14-02-2015 03:20:00 -0.1 C 4.57 g/m*3 -0.1 C 0 km/h
2790 14-02-2015 03:25:00 -0.2 C 4.54 g/m*3 -0.2 C 0 km/h
2791 14-02-2015 03:30:00 -0.3 C 4.51 g/m*3 -0.3 C 4.8 km/h
2792 14-02-2015 03:35:00 -0.3 C 4.51 g/m*3 -0.3 C 1.6 km/h
2793 14-02-2015 03:40:00 -0.3 C 4.51 g/m*3 -0.3 C 3.2 km/h
2794 14-02-2015 03:45:00 -0.3 C 4.51 g/m*3 -0.3 C 4.8 km/h
2795 14-02-2015 03:50:00 -0.3 C 4.51 g/m*3 -0.3 C 4.8 km/h
2796 14-02-2015 03:55:00 -0.3 C 4.51 g/m*3 -0.3 C 4.8 km/h
2797 14-02-2015 04:00:00 -0.3 C 4.51 g/m*3 -0.3 C 4.8 km/h
2798 14-02-2015 04:05:00 -0.2 C 4.54 g/m*3 -0.2 C 1.6 km/h
2799 14-02-2015 04:10:00 -0.3 C 4.51 g/m*3 -0.3 C 3.2 km/h
2800 14-02-2015 04:15:00 -0.2 C 4.54 g/m*3 -2.41 C 6.4 km/h
Sensor: Nr:Datum:Temp:Abs-Feuchte:Windchill:Wind:
Aussen-T/F 2801 14-02-2015 04:20:00 -0.2 C 4.54 g/m*3 -0.2 C 3.2 km/h
2802 14-02-2015 04:25:00 -0.2 C 4.54 g/m*3 -0.2 C 1.6 km/h
2803 14-02-2015 04:30:00 -0.2 C 4.54 g/m*3 -0.2 C 3.2 km/h
2804 14-02-2015 04:35:00 -0.2 C 4.54 g/m*3 -0.2 C 1.6 km/h
2805 14-02-2015 04:40:00 -0.1 C 4.62 g/m*3 -0.1 C 1.6 km/h
2806 14-02-2015 04:45:00 -0.1 C 4.62 g/m*3 -0.1 C 1.6 km/h
2807 14-02-2015 04:50:00 0.1 C 4.68 g/m*3 0.1 C 1.6 km/h
2808 14-02-2015 04:55:00 0.3 C 4.75 g/m*3 -2.88 C 9.7 km/h
2809 14-02-2015 05:00:00 0.4 C 4.78 g/m*3 0.4 C 3.2 km/h
2810 14-02-2015 05:05:00 0.6 C 4.8 g/m*3 0.6 C 1.6 km/h
2811 14-02-2015 05:10:00 0.7 C 4.83 g/m*3 0.7 C 3.2 km/h
2812 14-02-2015 05:15:00 0.7 C 4.83 g/m*3 0.7 C 1.6 km/h
2813 14-02-2015 05:20:00 0.9 C 4.9 g/m*3 -1.14 C 6.4 km/h
2814 14-02-2015 05:25:00 1.1 C 4.91 g/m*3 -0.91 C 6.4 km/h
2815 14-02-2015 05:30:00 1.2 C 4.89 g/m*3 1.2 C 1.6 km/h
2816 14-02-2015 05:35:00 1.3 C 4.93 g/m*3 1.3 C 1.6 km/h
2817 14-02-2015 05:40:00 1.3 C 4.93 g/m*3 1.3 C 4.8 km/h
2818 14-02-2015 05:45:00 1.5 C 4.99 g/m*3 1.5 C 1.6 km/h
2819 14-02-2015 05:50:00 1.6 C 4.97 g/m*3 1.6 C 3.2 km/h
2820 14-02-2015 05:55:00 1.6 C 4.97 g/m*3 1.6 C 0 km/h
2821 14-02-2015 06:00:00 1.7 C 5.01 g/m*3 -0.22 C 6.4 km/h
2822 14-02-2015 06:05:00 1.9 C 5.02 g/m*3 -0.97 C 9.7 km/h
2823 14-02-2015 06:10:00 2.2 C 5.07 g/m*3 2.2 C 4.8 km/h
2824 14-02-2015 06:15:00 2.3 C 5.1 g/m*3 2.3 C 4.8 km/h
2825 14-02-2015 06:20:00 2.4 C 5.08 g/m*3 2.4 C 4.8 km/h
Sensor: Nr:Datum:Temp:Abs-Feuchte:Windchill:Wind:
Aussen-T/F 2826 14-02-2015 06:25:00 2.6 C 5.15 g/m*3 0.82 C 6.4 km/h
2827 14-02-2015 06:30:00 2.6 C 5.09 g/m*3 -0.14 C 9.7 km/h
2828 14-02-2015 06:35:00 2.7 C 5.07 g/m*3 0.94 C 6.4 km/h
2829 14-02-2015 06:40:00 2.8 C 5.1 g/m*3 1.05 C 6.4 km/h
2830 14-02-2015 06:45:00 2.8 C 5.1 g/m*3 1.05 C 6.4 km/h
2831 14-02-2015 06:50:00 2.8 C 5.1 g/m*3 2.8 C 4.8 km/h
2832 14-02-2015 06:55:00 2.8 C 5.1 g/m*3 0.52 C 8.1 km/h
2833 14-02-2015 07:00:00 2.8 C 5.1 g/m*3 1.05 C 6.4 km/h
2834 14-02-2015 07:05:00 2.8 C 5.1 g/m*3 0.1 C 9.7 km/h
2835 14-02-2015 07:10:00 2.8 C 5.1 g/m*3 1.05 C 6.4 km/h
2836 14-02-2015 07:15:00 2.7 C 5.07 g/m*3 2.7 C 3.2 km/h
2837 14-02-2015 07:20:00 2.7 C 5.07 g/m*3 2.7 C 4.8 km/h
2838 14-02-2015 07:25:00 2.7 C 5.07 g/m*3 2.7 C 4.8 km/h
2839 14-02-2015 07:30:00 2.6 C 5.03 g/m*3 2.6 C 4.8 km/h
2840 14-02-2015 07:35:00 2.6 C 5.03 g/m*3 0.82 C 6.4 km/h
2841 14-02-2015 07:40:00 2.5 C 5 g/m*3 0.71 C 6.4 km/h
2842 14-02-2015 07:45:00 2.4 C 4.97 g/m*3 2.4 C 4.8 km/h
2843 14-02-2015 07:50:00 2.3 C 4.93 g/m*3 0.47 C 6.4 km/h
2844 14-02-2015 07:55:00 2.3 C 4.93 g/m*3 2.3 C 4.8 km/h
2845 14-02-2015 08:00:00 2.2 C 4.96 g/m*3 -0.61 C 9.7 km/h
2846 14-02-2015 08:05:00 2.3 C 4.99 g/m*3 0.47 C 6.4 km/h
2847 14-02-2015 08:10:00 2.3 C 4.99 g/m*3 -0.07 C 8.1 km/h
2848 14-02-2015 08:15:00 2.4 C 5.02 g/m*3 2.4 C 3.2 km/h
2849 14-02-2015 08:20:00 2.6 C 5.03 g/m*3 2.6 C 4.8 km/h
2850 14-02-2015 08:25:00 2.7 C 5.07 g/m*3 0.94 C 6.4 km/h
Sensor: Nr:Datum:Temp:Abs-Feuchte:Windchill:Wind:
Aussen-T/F 2851 14-02-2015 08:30:00 2.8 C 5.04 g/m*3 2.8 C 4.8 km/h
2852 14-02-2015 08:35:00 2.9 C 5.08 g/m*3 2.9 C 4.8 km/h
2853 14-02-2015 08:40:00 3 C 5.11 g/m*3 3 C 3.2 km/h
2854 14-02-2015 08:45:00 3.1 C 5.15 g/m*3 1.4 C 6.4 km/h
2855 14-02-2015 08:50:00 3.2 C 5.18 g/m*3 1.51 C 6.4 km/h
2856 14-02-2015 08:55:00 3.2 C 5.12 g/m*3 1.51 C 6.4 km/h
2857 14-02-2015 09:00:00 3.3 C 5.1 g/m*3 1.11 C 8.1 km/h
2858 14-02-2015 09:05:00 3.3 C 5.1 g/m*3 1.63 C 6.4 km/h
2859 14-02-2015 09:10:00 3.4 C 5.13 g/m*3 3.4 C 4.8 km/h
2860 14-02-2015 09:15:00 3.4 C 5.07 g/m*3 1.75 C 6.4 km/h
2861 14-02-2015 09:20:00 3.5 C 5.1 g/m*3 0.58 C 11.3 km/h
2862 14-02-2015 09:25:00 3.5 C 5.1 g/m*3 1.86 C 6.4 km/h
2863 14-02-2015 09:30:00 3.6 C 5.14 g/m*3 1.98 C 6.4 km/h
2864 14-02-2015 09:35:00 3.7 C 5.17 g/m*3 0.51 C 12.9 km/h
2865 14-02-2015 09:40:00 3.7 C 5.17 g/m*3 3.7 C 4.8 km/h
2866 14-02-2015 09:45:00 3.8 C 5.14 g/m*3 2.21 C 6.4 km/h
2867 14-02-2015 09:50:00 3.8 C 5.14 g/m*3 3.8 C 4.8 km/h
2868 14-02-2015 09:55:00 3.9 C 5.18 g/m*3 3.9 C 3.2 km/h
2869 14-02-2015 10:00:00 3.9 C 5.18 g/m*3 1.06 C 11.3 km/h
2870 14-02-2015 10:05:00 4 C 5.21 g/m*3 2.44 C 6.4 km/h
2871 14-02-2015 10:10:00 4.1 C 5.25 g/m*3 2.05 C 8.1 km/h
2872 14-02-2015 10:15:00 4.1 C 5.25 g/m*3 1 C 12.9 km/h
2873 14-02-2015 10:20:00 4.1 C 5.25 g/m*3 0.47 C 16.1 km/h
2874 14-02-2015 10:25:00 4.2 C 5.28 g/m*3 1.77 C 9.7 km/h
2875 14-02-2015 10:30:00 4.3 C 5.32 g/m*3 2.78 C 6.4 km/h
Sensor: Nr:Datum:Temp:Abs-Feuchte:Windchill:Wind:
Aussen-T/F 2876 14-02-2015 10:35:00 4.3 C 5.32 g/m*3 1.89 C 9.7 km/h
2877 14-02-2015 10:40:00 4.4 C 5.35 g/m*3 4.4 C 4.8 km/h
2878 14-02-2015 10:45:00 4.5 C 5.39 g/m*3 2.13 C 9.7 km/h
2879 14-02-2015 10:50:00 4.6 C 5.43 g/m*3 2.25 C 9.7 km/h
2880 14-02-2015 10:55:00 4.8 C 5.5 g/m*3 2.87 C 8.1 km/h
2881 14-02-2015 11:00:00 5 C 5.57 g/m*3 3.59 C 6.4 km/h
2882 14-02-2015 11:05:00 5.2 C 5.58 g/m*3 5.2 C 4.8 km/h
2883 14-02-2015 11:10:00 5.3 C 5.54 g/m*3 3.94 C 6.4 km/h
2884 14-02-2015 11:15:00 5.3 C 5.54 g/m*3 3.94 C 6.4 km/h
2885 14-02-2015 11:20:00 5.2 C 5.51 g/m*3 5.2 C 3.2 km/h
2886 14-02-2015 11:25:00 5.2 C 5.51 g/m*3 5.2 C 3.2 km/h
2887 14-02-2015 11:30:00 5.1 C 5.61 g/m*3 5.1 C 3.2 km/h
2888 14-02-2015 11:35:00 5.1 C 5.54 g/m*3 5.1 C 3.2 km/h
2889 14-02-2015 11:40:00 5.2 C 5.58 g/m*3 5.2 C 1.6 km/h
2890 14-02-2015 11:45:00 5.2 C 5.51 g/m*3 5.2 C 1.6 km/h
2891 14-02-2015 11:50:00 5.2 C 5.65 g/m*3 5.2 C 3.2 km/h
2892 14-02-2015 11:55:00 5.3 C 5.68 g/m*3 5.3 C 3.2 km/h
2893 14-02-2015 12:00:00 5.3 C 5.75 g/m*3 5.3 C 3.2 km/h
2894 14-02-2015 12:05:00 5.4 C 5.65 g/m*3 4.06 C 6.4 km/h
2895 14-02-2015 12:10:00 5.7 C 5.76 g/m*3 4.4 C 6.4 km/h
2896 14-02-2015 12:15:00 6.1 C 5.92 g/m*3 4.86 C 6.4 km/h
2897 14-02-2015 12:20:00 6.4 C 5.89 g/m*3 4.75 C 8.1 km/h
2898 14-02-2015 12:25:00 6.6 C 5.96 g/m*3 4.04 C 12.9 km/h
2899 14-02-2015 12:30:00 6.8 C 6.04 g/m*3 5.67 C 6.4 km/h
2900 14-02-2015 12:35:00 7.1 C 6.08 g/m*3 5.58 C 8.1 km/h
Sensor: Nr:Datum:Temp:Abs-Feuchte:Windchill:Wind:
Aussen-T/F 2901 14-02-2015 12:40:00 7.2 C 5.97 g/m*3 5.69 C 8.1 km/h
2902 14-02-2015 12:45:00 7.1 C 5.93 g/m*3 4.65 C 12.9 km/h
2903 14-02-2015 12:50:00 6.8 C 5.74 g/m*3 5.22 C 8.1 km/h
2904 14-02-2015 12:55:00 6.7 C 5.77 g/m*3 5.56 C 6.4 km/h
2905 14-02-2015 13:00:00 6.8 C 5.89 g/m*3 5.22 C 8.1 km/h
2906 14-02-2015 13:05:00 6.8 C 5.81 g/m*3 4.87 C 9.7 km/h
2907 14-02-2015 13:10:00 6.8 C 5.81 g/m*3 6.8 C 4.8 km/h
2908 14-02-2015 13:15:00 6.8 C 5.74 g/m*3 5.22 C 8.1 km/h
2909 14-02-2015 13:20:00 6.8 C 5.81 g/m*3 6.8 C 4.8 km/h
2910 14-02-2015 13:25:00 6.8 C 5.89 g/m*3 6.8 C 4.8 km/h
2911 14-02-2015 13:30:00 6.9 C 5.85 g/m*3 4.68 C 11.3 km/h
2912 14-02-2015 13:35:00 6.9 C 5.85 g/m*3 6.9 C 4.8 km/h
2913 14-02-2015 13:40:00 6.8 C 5.81 g/m*3 6.8 C 4.8 km/h
2914 14-02-2015 13:45:00 6.9 C 5.85 g/m*3 6.9 C 4.8 km/h
2915 14-02-2015 13:50:00 7 C 5.89 g/m*3 7 C 4.8 km/h
2916 14-02-2015 13:55:00 7.2 C 5.97 g/m*3 6.13 C 6.4 km/h
2917 14-02-2015 14:00:00 7.2 C 5.89 g/m*3 6.13 C 6.4 km/h
2918 14-02-2015 14:05:00 7.3 C 5.93 g/m*3 7.3 C 4.8 km/h
2919 14-02-2015 14:10:00 7.3 C 6 g/m*3 7.3 C 1.6 km/h
2920 14-02-2015 14:15:00 7.6 C 6.04 g/m*3 7.6 C 3.2 km/h
2921 14-02-2015 14:20:00 7.8 C 6.12 g/m*3 7.8 C 3.2 km/h
2922 14-02-2015 14:25:00 7.9 C 6.08 g/m*3 6.94 C 6.4 km/h
2923 14-02-2015 14:30:00 8.1 C 6.16 g/m*3 8.1 C 4.8 km/h
2924 14-02-2015 14:35:00 8.2 C 6.2 g/m*3 8.2 C 3.2 km/h
2925 14-02-2015 14:40:00 8.3 C 6.24 g/m*3 8.3 C 4.8 km/h
Sensor: Nr:Datum:Temp:Abs-Feuchte:Windchill:Wind:
Aussen-T/F 2926 14-02-2015 14:45:00 8.4 C 6.19 g/m*3 8.4 C 3.2 km/h
2927 14-02-2015 14:50:00 8.4 C 6.19 g/m*3 8.4 C 3.2 km/h
2928 14-02-2015 14:55:00 8.6 C 6.36 g/m*3 7.75 C 6.4 km/h
2929 14-02-2015 15:00:00 8.8 C 6.27 g/m*3 7.58 C 8.1 km/h
2930 14-02-2015 15:05:00 8.8 C 6.27 g/m*3 8.8 C 4.8 km/h
2931 14-02-2015 15:10:00 9 C 6.35 g/m*3 7.81 C 8.1 km/h
2932 14-02-2015 15:15:00 9.1 C 6.21 g/m*3 7.93 C 8.1 km/h
2933 14-02-2015 15:20:00 9.1 C 6.21 g/m*3 9.1 C 4.8 km/h
2934 14-02-2015 15:25:00 9.1 C 6.21 g/m*3 7.93 C 8.1 km/h
2935 14-02-2015 15:30:00 9.1 C 6.3 g/m*3 7.93 C 8.1 km/h
2936 14-02-2015 15:35:00 9.1 C 6.21 g/m*3 7.09 C 12.9 km/h
2937 14-02-2015 15:40:00 9.1 C 6.48 g/m*3 9.1 C 4.8 km/h
2938 14-02-2015 15:45:00 9.1 C 6.21 g/m*3 9.1 C 4.8 km/h
2939 14-02-2015 15:50:00 8.9 C 6.22 g/m*3 8.1 C 6.4 km/h
2940 14-02-2015 15:55:00 8.9 C 6.31 g/m*3 8.1 C 6.4 km/h
2941 14-02-2015 16:00:00 8.8 C 6.35 g/m*3 8.8 C 3.2 km/h
2942 14-02-2015 16:05:00 8.8 C 6.27 g/m*3 8.8 C 3.2 km/h
2943 14-02-2015 16:10:00 8.9 C 6.39 g/m*3 8.9 C 4.8 km/h
2944 14-02-2015 16:15:00 8.9 C 6.22 g/m*3 8.9 C 4.8 km/h
2945 14-02-2015 16:20:00 9 C 6.26 g/m*3 9 C 4.8 km/h
2946 14-02-2015 16:25:00 8.9 C 6.57 g/m*3 8.9 C 0 km/h
2947 14-02-2015 16:30:00 8.8 C 6.44 g/m*3 8.8 C 3.2 km/h
2948 14-02-2015 16:35:00 8.7 C 6.57 g/m*3 8.7 C 3.2 km/h
2949 14-02-2015 16:40:00 8.4 C 6.53 g/m*3 8.4 C 3.2 km/h
2950 14-02-2015 16:45:00 8.2 C 6.45 g/m*3 8.2 C 3.2 km/h
Sensor: Nr:Datum:Temp:Abs-Feuchte:Windchill:Wind:
Aussen-T/F 2951 14-02-2015 16:50:00 7.9 C 6.32 g/m*3 6.94 C 6.4 km/h
2952 14-02-2015 16:55:00 7.8 C 6.37 g/m*3 7.8 C 1.6 km/h
2953 14-02-2015 17:00:00 7.4 C 6.28 g/m*3 7.4 C 3.2 km/h
2954 14-02-2015 17:05:00 7.2 C 6.28 g/m*3 7.2 C 3.2 km/h
2955 14-02-2015 17:10:00 6.8 C 6.19 g/m*3 6.8 C 4.8 km/h
2956 14-02-2015 17:15:00 6.5 C 6.15 g/m*3 6.5 C 4.8 km/h
2957 14-02-2015 17:20:00 6.2 C 6.1 g/m*3 6.2 C 3.2 km/h
2958 14-02-2015 17:25:00 5.9 C 6.06 g/m*3 5.9 C 4.8 km/h
2959 14-02-2015 17:30:00 5.7 C 5.98 g/m*3 5.7 C 4.8 km/h
2960 14-02-2015 17:35:00 5.4 C 5.93 g/m*3 4.06 C 6.4 km/h
2961 14-02-2015 17:40:00 5.2 C 5.92 g/m*3 5.2 C 3.2 km/h
2962 14-02-2015 17:45:00 5.1 C 5.95 g/m*3 5.1 C 4.8 km/h
2963 14-02-2015 17:50:00 5 C 5.91 g/m*3 3.59 C 6.4 km/h
2964 14-02-2015 17:55:00 4.9 C 5.87 g/m*3 4.9 C 3.2 km/h
2965 14-02-2015 18:00:00 4.8 C 5.9 g/m*3 4.8 C 4.8 km/h
2966 14-02-2015 18:05:00 4.7 C 5.86 g/m*3 4.7 C 4.8 km/h
2967 14-02-2015 18:10:00 4.6 C 5.82 g/m*3 4.6 C 3.2 km/h
2968 14-02-2015 18:15:00 4.6 C 5.89 g/m*3 4.6 C 3.2 km/h
2969 14-02-2015 18:20:00 4.5 C 5.85 g/m*3 4.5 C 3.2 km/h
2970 14-02-2015 18:25:00 4.5 C 5.85 g/m*3 4.5 C 4.8 km/h
2971 14-02-2015 18:30:00 4.5 C 5.85 g/m*3 4.5 C 1.6 km/h
2972 14-02-2015 18:35:00 4.4 C 5.81 g/m*3 4.4 C 3.2 km/h
2973 14-02-2015 18:40:00 4.4 C 5.81 g/m*3 4.4 C 3.2 km/h
2974 14-02-2015 18:45:00 4.3 C 5.84 g/m*3 4.3 C 3.2 km/h
2975 14-02-2015 18:50:00 4.4 C 5.88 g/m*3 4.4 C 1.6 km/h
Sensor: Nr:Datum:Temp:Abs-Feuchte:Windchill:Wind:
Aussen-T/F 2976 14-02-2015 18:55:00 4.4 C 5.88 g/m*3 4.4 C 1.6 km/h
2977 14-02-2015 19:00:00 4.5 C 5.92 g/m*3 4.5 C 1.6 km/h
2978 14-02-2015 19:05:00 4.6 C 5.96 g/m*3 4.6 C 0 km/h
2979 14-02-2015 19:10:00 4.7 C 5.93 g/m*3 4.7 C 3.2 km/h
2980 14-02-2015 19:15:00 4.7 C 5.93 g/m*3 4.7 C 0 km/h
2981 14-02-2015 19:20:00 4.8 C 5.97 g/m*3 4.8 C 3.2 km/h
2982 14-02-2015 19:25:00 4.8 C 5.9 g/m*3 4.8 C 3.2 km/h
2983 14-02-2015 19:30:00 4.8 C 5.9 g/m*3 4.8 C 4.8 km/h
2984 14-02-2015 19:35:00 4.7 C 5.86 g/m*3 4.7 C 3.2 km/h
2985 14-02-2015 19:40:00 4.6 C 5.89 g/m*3 4.6 C 4.8 km/h
2986 14-02-2015 19:45:00 4.6 C 5.89 g/m*3 4.6 C 3.2 km/h
2987 14-02-2015 19:50:00 4.7 C 5.93 g/m*3 4.7 C 4.8 km/h
2988 14-02-2015 19:55:00 4.7 C 5.86 g/m*3 4.7 C 3.2 km/h
2989 14-02-2015 20:00:00 4.8 C 5.9 g/m*3 4.8 C 4.8 km/h
2990 14-02-2015 20:05:00 4.8 C 5.9 g/m*3 4.8 C 4.8 km/h
2991 14-02-2015 20:10:00 4.7 C 5.86 g/m*3 4.7 C 3.2 km/h
2992 14-02-2015 20:15:00 4.4 C 5.75 g/m*3 4.4 C 4.8 km/h
2993 14-02-2015 20:20:00 4.3 C 5.71 g/m*3 4.3 C 4.8 km/h
2994 14-02-2015 20:25:00 4.1 C 5.63 g/m*3 4.1 C 4.8 km/h
2995 14-02-2015 20:30:00 3.9 C 5.62 g/m*3 3.9 C 4.8 km/h
2996 14-02-2015 20:35:00 3.8 C 5.58 g/m*3 3.8 C 4.8 km/h
2997 14-02-2015 20:40:00 3.8 C 5.58 g/m*3 2.21 C 6.4 km/h
2998 14-02-2015 20:45:00 3.7 C 5.55 g/m*3 3.7 C 4.8 km/h
2999 14-02-2015 20:50:00 3.5 C 5.47 g/m*3 3.5 C 4.8 km/h
3000 14-02-2015 20:55:00 3.4 C 5.5 g/m*3 3.4 C 4.8 km/h
Sensor: Nr:Datum:Temp:Abs-Feuchte:Windchill:Wind:
Aussen-T/F 3001 14-02-2015 21:00:00 3.3 C 5.46 g/m*3 1.63 C 6.4 km/h
3002 14-02-2015 21:05:00 3.1 C 5.39 g/m*3 3.1 C 4.8 km/h
3003 14-02-2015 21:10:00 3 C 5.35 g/m*3 3 C 4.8 km/h
3004 14-02-2015 21:15:00 2.9 C 5.37 g/m*3 1.17 C 6.4 km/h
3005 14-02-2015 21:20:00 2.8 C 5.34 g/m*3 2.8 C 4.8 km/h
3006 14-02-2015 21:25:00 2.8 C 5.34 g/m*3 2.8 C 4.8 km/h
3007 14-02-2015 21:30:00 2.7 C 5.3 g/m*3 2.7 C 4.8 km/h
3008 14-02-2015 21:35:00 2.6 C 5.32 g/m*3 0.82 C 6.4 km/h
3009 14-02-2015 21:40:00 2.6 C 5.32 g/m*3 2.6 C 4.8 km/h
3010 14-02-2015 21:45:00 2.6 C 5.32 g/m*3 2.6 C 3.2 km/h
3011 14-02-2015 21:50:00 2.7 C 5.36 g/m*3 2.7 C 3.2 km/h
3012 14-02-2015 21:55:00 2.8 C 5.46 g/m*3 2.8 C 3.2 km/h
3013 14-02-2015 22:00:00 2.9 C 5.49 g/m*3 2.9 C 3.2 km/h
3014 14-02-2015 22:05:00 3.1 C 5.51 g/m*3 3.1 C 1.6 km/h
3015 14-02-2015 22:10:00 3.3 C 5.58 g/m*3 3.3 C 0 km/h
3016 14-02-2015 22:15:00 3.3 C 5.58 g/m*3 3.3 C 1.6 km/h
3017 14-02-2015 22:20:00 3.3 C 5.52 g/m*3 3.3 C 3.2 km/h
3018 14-02-2015 22:25:00 3.2 C 5.48 g/m*3 3.2 C 3.2 km/h
3019 14-02-2015 22:30:00 3.2 C 5.48 g/m*3 3.2 C 1.6 km/h
3020 14-02-2015 22:35:00 3.1 C 5.45 g/m*3 3.1 C 0 km/h
3021 14-02-2015 22:40:00 3.1 C 5.45 g/m*3 3.1 C 3.2 km/h
3022 14-02-2015 22:45:00 3.2 C 5.48 g/m*3 3.2 C 0 km/h
3023 14-02-2015 22:50:00 3.2 C 5.48 g/m*3 3.2 C 1.6 km/h
3024 14-02-2015 22:55:00 3.2 C 5.54 g/m*3 3.2 C 1.6 km/h
3025 14-02-2015 23:00:00 3.3 C 5.58 g/m*3 3.3 C 0 km/h
Sensor: Nr:Datum:Temp:Abs-Feuchte:Windchill:Wind:
Aussen-T/F 3026 14-02-2015 23:05:00 3.3 C 5.58 g/m*3 3.3 C 0 km/h
3027 14-02-2015 23:10:00 3.3 C 5.58 g/m*3 3.3 C 0 km/h
3028 14-02-2015 23:15:00 3.3 C 5.58 g/m*3 3.3 C 3.2 km/h
3029 14-02-2015 23:20:00 3.3 C 5.58 g/m*3 3.3 C 1.6 km/h
3030 14-02-2015 23:25:00 3.4 C 5.62 g/m*3 3.4 C 1.6 km/h
3031 14-02-2015 23:30:00 3.4 C 5.62 g/m*3 3.4 C 0 km/h
3032 14-02-2015 23:35:00 3.4 C 5.62 g/m*3 3.4 C 1.6 km/h
3033 14-02-2015 23:40:00 3.4 C 5.62 g/m*3 3.4 C 0 km/h
3034 14-02-2015 23:45:00 3.4 C 5.62 g/m*3 3.4 C 1.6 km/h
3035 14-02-2015 23:50:00 3.3 C 5.52 g/m*3 3.3 C 0 km/h
3036 14-02-2015 23:55:00 3.3 C 5.52 g/m*3 3.3 C 0 km/h
3037 15-02-2015 00:00:00 3.2 C 5.48 g/m*3 3.2 C 1.6 km/h
3038 15-02-2015 00:05:00 3 C 5.41 g/m*3 3 C 1.6 km/h
3039 15-02-2015 00:10:00 2.8 C 5.28 g/m*3 2.8 C 1.6 km/h
3040 15-02-2015 00:15:00 2.6 C 5.27 g/m*3 2.6 C 1.6 km/h
3041 15-02-2015 00:20:00 2.4 C 5.2 g/m*3 2.4 C 3.2 km/h
3042 15-02-2015 00:25:00 2.3 C 5.16 g/m*3 2.3 C 4.8 km/h
3043 15-02-2015 00:30:00 2.2 C 5.13 g/m*3 2.2 C 3.2 km/h
3044 15-02-2015 00:35:00 2.1 C 5.09 g/m*3 2.1 C 3.2 km/h
3045 15-02-2015 00:40:00 1.8 C 4.99 g/m*3 1.8 C 1.6 km/h
3046 15-02-2015 00:45:00 1.7 C 4.95 g/m*3 1.7 C 1.6 km/h
3047 15-02-2015 00:50:00 1.5 C 4.89 g/m*3 1.5 C 3.2 km/h
3048 15-02-2015 00:55:00 1.6 C 4.97 g/m*3 1.6 C 4.8 km/h
3049 15-02-2015 01:00:00 1.9 C 5.08 g/m*3 1.9 C 4.8 km/h
3050 15-02-2015 01:05:00 2.1 C 5.09 g/m*3 2.1 C 4.8 km/h
Sensor: Nr:Datum:Temp:Abs-Feuchte:Windchill:Wind:
Aussen-T/F 3051 15-02-2015 01:10:00 2.2 C 5.07 g/m*3 2.2 C 4.8 km/h
3052 15-02-2015 01:15:00 2.1 C 5.04 g/m*3 2.1 C 3.2 km/h
3053 15-02-2015 01:20:00 2 C 5 g/m*3 2 C 4.8 km/h
3054 15-02-2015 01:25:00 2 C 5 g/m*3 2 C 4.8 km/h
3055 15-02-2015 01:30:00 1.8 C 4.93 g/m*3 1.8 C 4.8 km/h
3056 15-02-2015 01:35:00 1.5 C 4.83 g/m*3 1.5 C 4.8 km/h
3057 15-02-2015 01:40:00 1.3 C 4.77 g/m*3 1.3 C 4.8 km/h
3058 15-02-2015 01:45:00 1.1 C 4.76 g/m*3 1.1 C 4.8 km/h
3059 15-02-2015 01:50:00 0.9 C 4.69 g/m*3 0.9 C 3.2 km/h
3060 15-02-2015 01:55:00 0.8 C 4.71 g/m*3 0.8 C 4.8 km/h
3061 15-02-2015 02:00:00 0.7 C 4.68 g/m*3 0.7 C 3.2 km/h
3062 15-02-2015 02:05:00 0.7 C 4.68 g/m*3 0.7 C 1.6 km/h
3063 15-02-2015 02:10:00 0.6 C 4.65 g/m*3 0.6 C 4.8 km/h
3064 15-02-2015 02:15:00 0.5 C 4.66 g/m*3 0.5 C 1.6 km/h
3065 15-02-2015 02:20:00 0.4 C 4.63 g/m*3 0.4 C 4.8 km/h
3066 15-02-2015 02:25:00 0.3 C 4.6 g/m*3 0.3 C 4.8 km/h
3067 15-02-2015 02:30:00 0.3 C 4.6 g/m*3 0.3 C 3.2 km/h
3068 15-02-2015 02:35:00 0.3 C 4.6 g/m*3 0.3 C 4.8 km/h
3069 15-02-2015 02:40:00 0.2 C 4.57 g/m*3 0.2 C 4.8 km/h
3070 15-02-2015 02:45:00 0.2 C 4.62 g/m*3 0.2 C 1.6 km/h
3071 15-02-2015 02:50:00 0.1 C 4.59 g/m*3 0.1 C 4.8 km/h
3072 15-02-2015 02:55:00 0.1 C 4.59 g/m*3 0.1 C 1.6 km/h
3073 15-02-2015 03:00:00 0.1 C 4.59 g/m*3 0.1 C 3.2 km/h
3074 15-02-2015 03:05:00 0.1 C 4.59 g/m*3 0.1 C 4.8 km/h
3075 15-02-2015 03:10:00 0.1 C 4.59 g/m*3 0.1 C 4.8 km/h
Sensor: Nr:Datum:Temp:Abs-Feuchte:Windchill:Wind:
Aussen-T/F 3076 15-02-2015 03:15:00 0.1 C 4.59 g/m*3 0.1 C 4.8 km/h
3077 15-02-2015 03:20:00 0 C 4.55 g/m*3 0 C 3.2 km/h
3078 15-02-2015 03:25:00 -0.1 C 4.52 g/m*3 -0.1 C 1.6 km/h
3079 15-02-2015 03:30:00 -0.1 C 4.52 g/m*3 -0.1 C 1.6 km/h
3080 15-02-2015 03:35:00 -0.2 C 4.49 g/m*3 -0.2 C 3.2 km/h
3081 15-02-2015 03:40:00 -0.2 C 4.49 g/m*3 -0.2 C 1.6 km/h
3082 15-02-2015 03:45:00 -0.3 C 4.46 g/m*3 -0.3 C 3.2 km/h
3083 15-02-2015 03:50:00 -0.4 C 4.43 g/m*3 -0.4 C 3.2 km/h
3084 15-02-2015 03:55:00 -0.4 C 4.43 g/m*3 -0.4 C 3.2 km/h
3085 15-02-2015 04:00:00 -0.4 C 4.43 g/m*3 -0.4 C 3.2 km/h
3086 15-02-2015 04:05:00 -0.4 C 4.43 g/m*3 -0.4 C 1.6 km/h
3087 15-02-2015 04:10:00 -0.5 C 4.4 g/m*3 -0.5 C 3.2 km/h
3088 15-02-2015 04:15:00 -0.5 C 4.4 g/m*3 -0.5 C 3.2 km/h
3089 15-02-2015 04:20:00 -0.6 C 4.37 g/m*3 -0.6 C 1.6 km/h
3090 15-02-2015 04:25:00 -0.6 C 4.37 g/m*3 -0.6 C 3.2 km/h
3091 15-02-2015 04:30:00 -0.5 C 4.45 g/m*3 -0.5 C 3.2 km/h
3092 15-02-2015 04:35:00 -0.5 C 4.45 g/m*3 -0.5 C 4.8 km/h
3093 15-02-2015 04:40:00 -0.5 C 4.45 g/m*3 -0.5 C 4.8 km/h
3094 15-02-2015 04:45:00 -0.6 C 4.42 g/m*3 -0.6 C 4.8 km/h
3095 15-02-2015 04:50:00 -0.6 C 4.42 g/m*3 -0.6 C 3.2 km/h
3096 15-02-2015 04:55:00 -0.6 C 4.42 g/m*3 -0.6 C 4.8 km/h
3097 15-02-2015 05:00:00 -0.6 C 4.42 g/m*3 -0.6 C 4.8 km/h
3098 15-02-2015 05:05:00 -0.6 C 4.42 g/m*3 -0.6 C 4.8 km/h
3099 15-02-2015 05:10:00 -0.6 C 4.42 g/m*3 -0.6 C 3.2 km/h
3100 15-02-2015 05:15:00 -0.7 C 4.34 g/m*3 -0.7 C 3.2 km/h
Sensor: Nr:Datum:Temp:Abs-Feuchte:Windchill:Wind:
Aussen-T/F 3101 15-02-2015 05:20:00 -0.8 C 4.31 g/m*3 -0.8 C 1.6 km/h
3102 15-02-2015 05:25:00 -0.8 C 4.31 g/m*3 -0.8 C 0 km/h
3103 15-02-2015 05:30:00 -0.8 C 4.31 g/m*3 -0.8 C 0 km/h
3104 15-02-2015 05:35:00 -0.9 C 4.28 g/m*3 -0.9 C 0 km/h
3105 15-02-2015 05:40:00 -0.9 C 4.32 g/m*3 -0.9 C 0 km/h
3106 15-02-2015 05:45:00 -0.9 C 4.32 g/m*3 -0.9 C 0 km/h
3107 15-02-2015 05:50:00 -0.9 C 4.32 g/m*3 -0.9 C 1.6 km/h
3108 15-02-2015 05:55:00 -0.9 C 4.32 g/m*3 -0.9 C 1.6 km/h
3109 15-02-2015 06:00:00 -1 C 4.29 g/m*3 -1 C 0 km/h
3110 15-02-2015 06:05:00 -1 C 4.29 g/m*3 -1 C 0 km/h
3111 15-02-2015 06:10:00 -1 C 4.29 g/m*3 -1 C 3.2 km/h
3112 15-02-2015 06:15:00 -1.1 C 4.26 g/m*3 -1.1 C 0 km/h
3113 15-02-2015 06:20:00 -1.1 C 4.22 g/m*3 -1.1 C 0 km/h
3114 15-02-2015 06:25:00 -1.2 C 4.19 g/m*3 -1.2 C 0 km/h
3115 15-02-2015 06:30:00 -1.3 C 4.16 g/m*3 -1.3 C 0 km/h
3116 15-02-2015 06:35:00 -1.3 C 4.16 g/m*3 -1.3 C 0 km/h
3117 15-02-2015 06:40:00 -1.4 C 4.18 g/m*3 -1.4 C 0 km/h
3118 15-02-2015 06:45:00 -1.4 C 4.13 g/m*3 -1.4 C 0 km/h
3119 15-02-2015 06:50:00 -1.3 C 4.21 g/m*3 -1.3 C 0 km/h
3120 15-02-2015 06:55:00 -1.4 C 4.13 g/m*3 -1.4 C 3.2 km/h
3121 15-02-2015 07:00:00 -1.4 C 4.18 g/m*3 -1.4 C 0 km/h
3122 15-02-2015 07:05:00 -1.3 C 4.21 g/m*3 -1.3 C 0 km/h
3123 15-02-2015 07:10:00 -1.4 C 4.18 g/m*3 -1.4 C 0 km/h
3124 15-02-2015 07:15:00 -1.4 C 4.18 g/m*3 -1.4 C 0 km/h
3125 15-02-2015 07:20:00 -1.4 C 4.18 g/m*3 -1.4 C 0 km/h
Sensor: Nr:Datum:Temp:Abs-Feuchte:Windchill:Wind:
Aussen-T/F 3126 15-02-2015 07:25:00 -1.5 C 4.15 g/m*3 -1.5 C 0 km/h
3127 15-02-2015 07:30:00 -1.6 C 4.12 g/m*3 -1.6 C 0 km/h
3128 15-02-2015 07:35:00 -1.6 C 4.12 g/m*3 -1.6 C 0 km/h
3129 15-02-2015 07:40:00 -1.6 C 4.12 g/m*3 -1.6 C 0 km/h
3130 15-02-2015 07:45:00 -1.5 C 4.15 g/m*3 -1.5 C 1.6 km/h
3131 15-02-2015 07:50:00 -1.5 C 4.15 g/m*3 -1.5 C 0 km/h
3132 15-02-2015 07:55:00 -1.5 C 4.15 g/m*3 -1.5 C 0 km/h
3133 15-02-2015 08:00:00 -1.6 C 4.12 g/m*3 -1.6 C 0 km/h
3134 15-02-2015 08:05:00 -1.6 C 4.12 g/m*3 -1.6 C 0 km/h
3135 15-02-2015 08:10:00 -1.5 C 4.15 g/m*3 -1.5 C 0 km/h
3136 15-02-2015 08:15:00 -1.5 C 4.15 g/m*3 -1.5 C 0 km/h
3137 15-02-2015 08:20:00 -1.4 C 4.18 g/m*3 -1.4 C 0 km/h
3138 15-02-2015 08:25:00 -1.4 C 4.18 g/m*3 -1.4 C 0 km/h
3139 15-02-2015 08:30:00 -1.4 C 4.18 g/m*3 -1.4 C 0 km/h
3140 15-02-2015 08:35:00 -1.4 C 4.18 g/m*3 -1.4 C 0 km/h
3141 15-02-2015 08:40:00 -1.4 C 4.18 g/m*3 -1.4 C 0 km/h
3142 15-02-2015 08:45:00 -1.3 C 4.21 g/m*3 -1.3 C 0 km/h
3143 15-02-2015 08:50:00 -1.3 C 4.25 g/m*3 -1.3 C 0 km/h
3144 15-02-2015 08:55:00 -1.3 C 4.25 g/m*3 -1.3 C 0 km/h
3145 15-02-2015 09:00:00 -1.3 C 4.25 g/m*3 -1.3 C 0 km/h
3146 15-02-2015 09:05:00 -1.3 C 4.21 g/m*3 -1.3 C 0 km/h
3147 15-02-2015 09:10:00 -1.2 C 4.28 g/m*3 -1.2 C 0 km/h
3148 15-02-2015 09:15:00 -1.2 C 4.28 g/m*3 -1.2 C 0 km/h
3149 15-02-2015 09:20:00 -1.1 C 4.31 g/m*3 -1.1 C 0 km/h
3150 15-02-2015 09:25:00 -1.1 C 4.31 g/m*3 -1.1 C 0 km/h
Sensor: Nr:Datum:Temp:Abs-Feuchte:Windchill:Wind:
Aussen-T/F 3151 15-02-2015 09:30:00 -0.9 C 4.37 g/m*3 -0.9 C 0 km/h
3152 15-02-2015 09:35:00 -0.9 C 4.37 g/m*3 -0.9 C 0 km/h
3153 15-02-2015 09:40:00 -0.8 C 4.4 g/m*3 -0.8 C 0 km/h
3154 15-02-2015 09:45:00 -0.8 C 4.4 g/m*3 -0.8 C 0 km/h
3155 15-02-2015 09:50:00 -0.7 C 4.43 g/m*3 -0.7 C 0 km/h
3156 15-02-2015 09:55:00 -0.6 C 4.46 g/m*3 -0.6 C 0 km/h
3157 15-02-2015 10:00:00 -0.5 C 4.49 g/m*3 -0.5 C 0 km/h
3158 15-02-2015 10:05:00 -0.4 C 4.52 g/m*3 -0.4 C 0 km/h
3159 15-02-2015 10:10:00 -0.3 C 4.56 g/m*3 -0.3 C 0 km/h
3160 15-02-2015 10:15:00 -0.2 C 4.59 g/m*3 -0.2 C 3.2 km/h
3161 15-02-2015 10:20:00 -0.1 C 4.57 g/m*3 -0.1 C 3.2 km/h
3162 15-02-2015 10:25:00 0 C 4.6 g/m*3 0 C 3.2 km/h
3163 15-02-2015 10:30:00 0.1 C 4.63 g/m*3 0.1 C 3.2 km/h
3164 15-02-2015 10:35:00 0.2 C 4.67 g/m*3 0.2 C 0 km/h
3165 15-02-2015 10:40:00 0.3 C 4.7 g/m*3 0.3 C 3.2 km/h
3166 15-02-2015 10:45:00 0.4 C 4.73 g/m*3 0.4 C 3.2 km/h
3167 15-02-2015 10:50:00 0.5 C 4.76 g/m*3 0.5 C 1.6 km/h
3168 15-02-2015 10:55:00 0.6 C 4.75 g/m*3 0.6 C 3.2 km/h
3169 15-02-2015 11:00:00 0.7 C 4.78 g/m*3 -1.37 C 6.4 km/h
3170 15-02-2015 11:05:00 0.8 C 4.81 g/m*3 0.8 C 0 km/h
3171 15-02-2015 11:10:00 0.9 C 4.85 g/m*3 0.9 C 1.6 km/h
3172 15-02-2015 11:15:00 1.1 C 4.86 g/m*3 1.1 C 3.2 km/h
3173 15-02-2015 11:20:00 1.2 C 4.89 g/m*3 1.2 C 3.2 km/h
3174 15-02-2015 11:25:00 1.3 C 4.87 g/m*3 1.3 C 3.2 km/h
3175 15-02-2015 11:30:00 1.4 C 4.91 g/m*3 1.4 C 3.2 km/h
Sensor: Nr:Datum:Temp:Abs-Feuchte:Windchill:Wind:
Aussen-T/F 3176 15-02-2015 11:35:00 1.7 C 4.9 g/m*3 1.7 C 1.6 km/h
3177 15-02-2015 11:40:00 2 C 4.89 g/m*3 2 C 1.6 km/h
3178 15-02-2015 11:45:00 2.2 C 5.01 g/m*3 2.2 C 1.6 km/h
3179 15-02-2015 11:50:00 2.1 C 4.98 g/m*3 2.1 C 1.6 km/h
3180 15-02-2015 11:55:00 2.1 C 5.04 g/m*3 2.1 C 3.2 km/h
3181 15-02-2015 12:00:00 2.1 C 5.04 g/m*3 2.1 C 1.6 km/h
3182 15-02-2015 12:05:00 2.1 C 5.04 g/m*3 2.1 C 4.8 km/h
3183 15-02-2015 12:10:00 2.3 C 5.1 g/m*3 2.3 C 3.2 km/h
3184 15-02-2015 12:15:00 2.3 C 5.05 g/m*3 2.3 C 1.6 km/h
3185 15-02-2015 12:20:00 2.4 C 5.08 g/m*3 2.4 C 3.2 km/h
3186 15-02-2015 12:25:00 2.6 C 5.15 g/m*3 2.6 C 1.6 km/h
3187 15-02-2015 12:30:00 2.8 C 5.22 g/m*3 2.8 C 3.2 km/h
3188 15-02-2015 12:35:00 2.9 C 5.26 g/m*3 2.9 C 1.6 km/h
3189 15-02-2015 12:40:00 3.1 C 5.27 g/m*3 3.1 C 4.8 km/h
3190 15-02-2015 12:45:00 3.3 C 5.34 g/m*3 3.3 C 0 km/h
3191 15-02-2015 12:50:00 3.6 C 5.32 g/m*3 3.6 C 1.6 km/h
3192 15-02-2015 12:55:00 3.8 C 5.33 g/m*3 3.8 C 1.6 km/h
3193 15-02-2015 13:00:00 4.3 C 5.38 g/m*3 2.29 C 8.1 km/h
3194 15-02-2015 13:05:00 4.7 C 5.33 g/m*3 2.76 C 8.1 km/h
3195 15-02-2015 13:10:00 5.1 C 5.34 g/m*3 5.1 C 4.8 km/h
3196 15-02-2015 13:15:00 5.4 C 5.44 g/m*3 5.4 C 3.2 km/h
3197 15-02-2015 13:20:00 5.8 C 5.37 g/m*3 5.8 C 4.8 km/h
3198 15-02-2015 13:25:00 6 C 5.59 g/m*3 6 C 3.2 km/h
3199 15-02-2015 13:30:00 6 C 5.3 g/m*3 4.75 C 6.4 km/h
3200 15-02-2015 13:35:00 6.2 C 5.52 g/m*3 6.2 C 1.6 km/h
Sensor: Nr:Datum:Temp:Abs-Feuchte:Windchill:Wind:
Aussen-T/F 3201 15-02-2015 13:40:00 6.2 C 5.59 g/m*3 6.2 C 3.2 km/h
3202 15-02-2015 13:45:00 6.2 C 5.59 g/m*3 6.2 C 4.8 km/h
3203 15-02-2015 13:50:00 6.2 C 5.52 g/m*3 6.2 C 3.2 km/h
3204 15-02-2015 13:55:00 6.4 C 5.51 g/m*3 4.75 C 8.1 km/h
3205 15-02-2015 14:00:00 6.6 C 5.51 g/m*3 5.44 C 6.4 km/h
3206 15-02-2015 14:05:00 6.6 C 5.66 g/m*3 6.6 C 4.8 km/h
3207 15-02-2015 14:10:00 6.4 C 5.59 g/m*3 6.4 C 1.6 km/h
3208 15-02-2015 14:15:00 6.7 C 5.77 g/m*3 6.7 C 4.8 km/h
3209 15-02-2015 14:20:00 6.8 C 5.74 g/m*3 6.8 C 3.2 km/h
3210 15-02-2015 14:25:00 6.8 C 5.81 g/m*3 6.8 C 4.8 km/h
3211 15-02-2015 14:30:00 6.7 C 5.7 g/m*3 6.7 C 3.2 km/h
3212 15-02-2015 14:35:00 6.7 C 5.77 g/m*3 5.56 C 6.4 km/h
3213 15-02-2015 14:40:00 6.8 C 5.74 g/m*3 6.8 C 4.8 km/h
3214 15-02-2015 14:45:00 6.9 C 5.62 g/m*3 6.9 C 4.8 km/h
3215 15-02-2015 14:50:00 7.1 C 5.85 g/m*3 7.1 C 4.8 km/h
3216 15-02-2015 14:55:00 6.9 C 5.77 g/m*3 5.79 C 6.4 km/h
3217 15-02-2015 15:00:00 7.2 C 5.73 g/m*3 7.2 C 4.8 km/h
3218 15-02-2015 15:05:00 7.4 C 6.04 g/m*3 7.4 C 1.6 km/h
3219